Site Date RecNum LW_MEAN_3000_0_04 LWDRY_TOT_3000_0_04 LWCON_TOT_3000_0_04 LWWET_TOT_3000_0_04 LW_MEAN_4000_0_05 LWDRY_TOT_4000_0_05 LWCON_TOT_4000_0_05 LWWET_TOT_4000_0_05 LW_MEAN_5000_0_06 LWDRY_TOT_5000_0_06 LWCON_TOT_5000_0_06 LWWET_TOT_5000_0_06 AIRTEMP_MEAN_5000_0_06 RELHUM_MEAN_5000_0_06 DEWPT_MEAN_5000_0_06 WSPD_SNC_MEAN_5000_0_02 WSPD_SNC_MAG_5000_0_02 WDIR_SNC_MEAN_5000_0_02 WDIR_SNC_STDDEV_5000_0_02 WSPD_SNC_MAX_5000_0_02 AIRTEMP_MAX_5000_0_06 AIRTEMP_MIN_5000_0_06 RELHUM_MAX_5000_0_06 RELHUM_MIN_5000_0_06 SATVAPAIR_MEAN_5000_0_06 SATVAPDEW_MEAN_5000_0_06 VPD_MEAN_5000_0_06
DSCMET_421 2018-01-07 22:30:00 118784 353.700 0.0000 0.0000 5.0000 469.300 0.0000 0.0000 5.0000 499.700 0.0000 0.0000 5.0000 2.486 99.300 2.387           2.569 2.419 99.400 99.300 7.305 7.254 0.051
DSCMET_421 2018-01-07 22:25:00 118783 353.600 0.0000 0.0000 5.0000 468.100 0.0000 0.0000 5.0000 495.900 0.0000 0.0000 5.0000 2.593 99.300 2.494           2.701 2.486 99.400 99.300 7.361 7.310 0.052
DSCMET_421 2018-01-07 22:20:00 118782 353.300 0.0000 0.0000 5.0000 467.300 0.0000 0.0000 5.0000 492.600 0.0000 0.0000 5.0000 2.630 99.300 2.531           2.717 2.535 99.400 99.300 7.381 7.329 0.052
DSCMET_421 2018-01-07 22:15:00 118781 353.100 0.0000 0.0000 5.0000 466.000 0.0000 0.0000 5.0000 489.100 0.0000 0.0000 5.0000 2.518 99.300 2.419           2.584 2.434 99.400 99.300 7.322 7.271 0.051
DSCMET_421 2018-01-07 22:10:00 118780 352.900 0.0000 0.0000 5.0000 464.600 0.0000 0.0000 5.0000 485.000 0.0000 0.0000 5.0000 2.601 99.300 2.502           2.717 2.501 99.400 99.300 7.365 7.314 0.052
DSCMET_421 2018-01-07 22:05:00 118779 352.600 0.0000 0.0000 5.0000 463.500 0.0000 0.0000 5.0000 480.800 0.0000 0.0000 5.0000 2.704 99.300 2.605           2.815 2.616 99.400 99.300 7.420 7.368 0.052
DSCMET_421 2018-01-07 22:00:00 118778 352.600 0.0000 0.0000 5.0000 462.400 0.0000 0.0000 5.0000 476.800 0.0000 0.0000 5.0000 2.777 99.300 2.678           2.848 2.732 99.400 99.300 7.458 7.406 0.052
DSCMET_421 2018-01-07 21:55:00 118777 352.300 0.0000 0.0000 5.0000 461.500 0.0000 0.0000 5.0000 472.800 0.0000 0.0000 5.0000 2.764 99.300 2.665           2.815 2.698 99.400 99.300 7.451 7.399 0.052
DSCMET_421 2018-01-07 21:50:00 118776 352.200 0.0000 0.0000 5.0000 460.600 0.0000 0.0000 5.0000 469.200 0.0000 0.0000 5.0000 2.773 99.300 2.674           2.848 2.716 99.400 99.300 7.456 7.404 0.052
DSCMET_421 2018-01-07 21:45:00 118775 351.900 0.0000 0.0000 5.0000 459.800 0.0000 0.0000 5.0000 466.400 0.0000 0.0000 5.0000 2.814 99.300 2.715           2.864 2.748 99.400 99.300 7.478 7.426 0.052
DSCMET_421 2018-01-07 21:40:00 118774 351.900 0.0000 0.0000 5.0000 459.100 0.0000 0.0000 5.0000 463.900 0.0000 0.0000 5.0000 2.868 99.300 2.769           2.914 2.814 99.400 99.300 7.507 7.454 0.053
DSCMET_421 2018-01-07 21:35:00 118773 351.900 0.0000 0.0000 5.0000 458.500 0.0000 0.0000 5.0000 461.200 0.0000 0.0000 5.0000 2.982 99.300 2.883           3.048 2.931 99.400 99.300 7.568 7.515 0.053
DSCMET_421 2018-01-07 21:30:00 118772 351.900 0.0000 0.0000 5.0000 458.100 0.0000 0.0000 5.0000 458.900 0.0000 0.0000 5.0000 3.087 99.300 2.988           3.131 3.031 99.400 99.300 7.624 7.571 0.053
DSCMET_421 2018-01-07 21:25:00 118771 351.700 0.0000 0.0000 5.0000 457.700 0.0000 0.0000 5.0000 456.900 0.0000 0.0000 5.0000 3.111 99.300 3.012           3.180 3.047 99.400 99.300 7.637 7.584 0.053
DSCMET_421 2018-01-07 21:20:00 118770 351.600 0.0000 0.0000 5.0000 457.300 0.0000 0.0000 5.0000 455.100 0.0000 0.0000 5.0000 3.146 99.300 3.047           3.230 3.097 99.400 99.300 7.656 7.603 0.054
DSCMET_421 2018-01-07 21:15:00 118769 351.600 0.0000 0.0000 5.0000 456.800 0.0000 0.0000 5.0000 453.000 0.0000 0.0000 5.0000 3.104 99.300 3.005           3.163 3.047 99.400 99.300 7.633 7.580 0.053
DSCMET_421 2018-01-07 21:10:00 118768 351.200 0.0000 0.0000 5.0000 456.400 0.0000 0.0000 5.0000 450.600 0.0000 0.0000 5.0000 3.057 99.300 2.958           3.097 3.013 99.400 99.300 7.608 7.555 0.053
DSCMET_421 2018-01-07 21:05:00 118767 351.200 0.0000 0.0000 5.0000 455.800 0.0000 0.0000 5.0000 448.200 0.0000 0.0000 5.0000 3.038 99.300 2.939           3.080 2.980 99.400 99.300 7.598 7.545 0.053
DSCMET_421 2018-01-07 21:00:00 118766 351.000 0.0000 0.0000 5.0000 455.200 0.0000 0.0000 5.0000 445.400 0.0000 0.0000 5.0000 3.055 99.300 2.956           3.112 3.012 99.400 99.300 7.607 7.554 0.053
DSCMET_421 2018-01-07 20:55:00 118765 350.900 0.0000 0.0000 5.0000 454.600 0.0000 0.0000 5.0000 443.000 0.0000 0.0000 5.0000 3.096 99.300 2.997           3.162 3.029 99.400 99.300 7.629 7.576 0.053
DSCMET_421 2018-01-07 20:50:00 118764 350.900 0.0000 0.0000 5.0000 454.100 0.0000 0.0000 5.0000 440.300 0.0000 0.0000 5.0000 3.174 99.300 3.075           3.211 3.145 99.300 99.300 7.671 7.618 0.054
DSCMET_421 2018-01-07 20:45:00 118763 350.600 0.0000 0.0000 5.0000 453.500 0.0000 0.0000 5.0000 437.000 0.0000 0.0000 5.0000 3.239 99.300 3.140           3.294 3.177 99.400 99.200 7.707 7.653 0.054
DSCMET_421 2018-01-07 20:40:00 118762 350.500 0.0000 0.0000 5.0000 452.700 0.0000 0.0000 5.0000 434.300 0.0000 0.0000 5.0000 3.290 99.300 3.191           3.326 3.243 99.400 99.300 7.735 7.681 0.054
DSCMET_421 2018-01-07 20:35:00 118761 350.500 0.0000 0.0000 5.0000 452.000 0.0000 0.0000 5.0000 431.400 0.0000 0.0000 5.0000 3.339 99.300 3.240           3.376 3.309 99.400 99.200 7.762 7.707 0.054
DSCMET_421 2018-01-07 20:30:00 118760 350.300 0.0000 0.0000 5.0000 451.400 0.0000 0.0000 5.0000 428.400 0.0000 0.0000 5.0000 3.350 99.300 3.251           3.392 3.309 99.400 99.300 7.768 7.713 0.054
DSCMET_421 2018-01-07 20:25:00 118759 350.200 0.0000 0.0000 5.0000 450.900 0.0000 0.0000 5.0000 425.000 0.0000 0.0000 5.0000 3.391 99.300 3.292           3.475 3.343 99.400 99.300 7.790 7.736 0.055
DSCMET_421 2018-01-07 20:20:00 118758 350.000 0.0000 0.0000 5.0000 450.300 0.0000 0.0000 5.0000 422.000 0.0000 0.0000 5.0000 3.455 99.300 3.356           3.508 3.408 99.400 99.300 7.826 7.771 0.055
DSCMET_421 2018-01-07 20:15:00 118757 349.900 0.0000 0.0000 5.0000 449.700 0.0000 0.0000 5.0000 419.200 0.0000 0.0000 5.0000 3.490 99.300 3.391           3.524 3.425 99.400 99.300 7.845 7.790 0.055
DSCMET_421 2018-01-07 20:10:00 118756 349.600 0.0000 0.0000 5.0000 449.200 0.0000 0.0000 5.0000 416.200 0.0000 0.0000 5.0000 3.519 99.300 3.420           3.557 3.474 99.400 99.300 7.861 7.806 0.055
DSCMET_421 2018-01-07 20:05:00 118755 349.500 0.0000 0.0000 5.0000 448.700 0.0000 0.0000 5.0000 413.900 0.0000 0.0000 5.0000 3.599 99.300 3.500           3.672 3.524 99.400 99.300 7.906 7.850 0.055
DSCMET_421 2018-01-07 20:00:00 118754 349.500 0.0000 0.0000 5.0000 448.300 0.0000 0.0000 5.0000 411.500 0.0000 0.0000 5.0000 3.709 99.300 3.609           3.755 3.622 99.400 99.300 7.967 7.911 0.056
DSCMET_421 2018-01-07 19:55:00 118753 349.300 0.0000 0.0000 5.0000 447.700 0.0000 0.0000 5.0000 409.300 0.0000 0.0000 5.0000 3.708 99.300 3.608           3.789 3.639 99.400 99.300 7.967 7.911 0.056
DSCMET_421 2018-01-07 19:50:00 118752 349.200 0.0000 0.0000 5.0000 447.200 0.0000 0.0000 5.0000 406.700 0.0000 0.0000 5.0000 3.764 99.300 3.664           3.855 3.705 99.400 99.300 7.998 7.942 0.056
DSCMET_421 2018-01-07 19:45:00 118751 349.100 0.0000 0.0000 5.0000 446.700 0.0000 0.0000 5.0000 404.200 0.0000 0.0000 5.0000 3.820 99.300 3.720           3.854 3.771 99.400 99.300 8.030 7.974 0.056
DSCMET_421 2018-01-07 19:40:00 118750 348.900 0.0000 0.0000 5.0000 446.300 0.0000 0.0000 5.0000 401.700 0.0000 0.0000 5.0000 3.900 99.300 3.800           3.953 3.837 99.400 99.300 8.075 8.019 0.057
DSCMET_421 2018-01-07 19:35:00 118749 348.800 0.0000 0.0000 5.0000 445.800 0.0000 0.0000 5.0000 399.500 0.0000 0.0000 5.0000 3.963 99.300 3.863           4.069 3.887 99.400 99.300 8.111 8.054 0.057
DSCMET_421 2018-01-07 19:30:00 118748 348.600 0.0000 0.0000 5.0000 445.400 0.0000 0.0000 5.0000 397.700 0.0000 0.0000 5.0000 4.008 99.300 3.908           4.053 3.937 99.400 99.300 8.137 8.080 0.057
DSCMET_421 2018-01-07 19:25:00 118747 348.500 0.0000 0.0000 5.0000 445.000 0.0000 0.0000 5.0000 395.000 0.0000 0.0000 5.0000 4.083 99.300 3.983           4.135 4.020 99.400 99.300 8.180 8.123 0.057
DSCMET_421 2018-01-07 19:20:00 118746 348.400 0.0000 0.0000 5.0000 444.400 0.0000 0.0000 5.0000 392.000 0.0000 0.0000 5.0000 4.136 99.300 4.036           4.168 4.101 99.300 99.300 8.210 8.153 0.057
DSCMET_421 2018-01-07 19:15:00 118745 348.200 0.0000 0.0000 5.0000 443.800 0.0000 0.0000 5.0000 389.200 0.0000 0.0000 5.0000 4.208 99.300 4.108           4.284 4.151 99.300 99.300 8.252 8.194 0.058
DSCMET_421 2018-01-07 19:10:00 118744 348.100 0.0000 0.0000 5.0000 443.100 0.0000 0.0000 5.0000 386.200 0.0000 0.0000 5.0000 4.264 99.300 4.164           4.316 4.200 99.400 99.300 8.285 8.227 0.058
DSCMET_421 2018-01-07 19:05:00 118743 347.800 0.0000 0.0000 5.0000 442.400 0.0000 0.0000 5.0000 383.100 0.0000 0.0000 5.0000 4.324 99.300 4.224           4.365 4.283 99.400 99.300 8.320 8.261 0.058
DSCMET_421 2018-01-07 19:00:00 118742 347.700 0.0000 0.0000 5.0000 441.900 0.0000 0.0000 5.0000 379.400 0.0000 0.0000 5.0000 4.420 99.300 4.320           4.498 4.365 99.400 99.300 8.376 8.317 0.059
DSCMET_421 2018-01-07 18:55:00 118741 347.200 0.0000 0.0000 5.0000 441.100 0.0000 0.0000 5.0000 375.300 0.0000 0.0000 5.0000 4.547 99.300 4.447           4.631 4.465 99.400 99.300 8.451 8.391 0.059
DSCMET_421 2018-01-07 18:50:00 118740 346.900 0.0000 0.0000 5.0000 440.300 0.0000 0.0000 5.0000 370.800 0.0000 0.0000 5.0000 4.694 99.300 4.594           4.845 4.547 99.300 99.300 8.538 8.478 0.060
DSCMET_421 2018-01-07 18:45:00 118739 346.800 0.0000 0.0000 5.0000 439.500 0.0000 0.0000 5.0000 366.900 0.0000 0.0000 5.0000 4.874 99.300 4.774           4.896 4.829 99.400 99.300 8.646 8.586 0.061
DSCMET_421 2018-01-07 18:40:00 118738 346.500 0.0000 0.0000 5.0000 438.700 0.0000 0.0000 5.0000 363.400 0.0000 0.0000 5.0000 4.924 99.300 4.823           4.995 4.845 99.400 99.300 8.676 8.616 0.061
DSCMET_421 2018-01-07 18:35:00 118737 346.300 0.0000 0.0000 5.0000 438.000 0.0000 0.0000 5.0000 359.700 0.0000 0.0000 5.0000 4.994 99.300 4.893           5.077 4.928 99.400 99.300 8.719 8.658 0.061
DSCMET_421 2018-01-07 18:30:00 118736 345.900 0.0000 0.0000 5.0000 437.300 0.0000 0.0000 5.0000 355.400 0.0000 0.0000 5.0000 5.110 99.300 5.009           5.192 4.977 99.400 99.300 8.790 8.728 0.062
DSCMET_421 2018-01-07 18:25:00 118735 345.700 0.0000 0.0000 5.0000 436.500 0.0000 0.0000 5.0000 351.500 0.0000 0.0000 5.0000 5.221 99.300 5.120           5.309 5.143 99.400 99.300 8.858 8.796 0.062
DSCMET_421 2018-01-07 18:20:00 118734 345.300 0.0000 0.0000 5.0000 435.900 0.0000 0.0000 5.0000 347.700 0.0000 0.0000 5.0000 5.316 99.300 5.215           5.408 5.225 99.400 99.300 8.917 8.855 0.062
DSCMET_421 2018-01-07 18:15:00 118733 345.100 0.0000 0.0000 5.0000 435.300 0.0000 0.0000 5.0000 344.300 0.0000 0.0000 5.0000 5.404 99.300 5.303           5.458 5.358 99.400 99.300 8.972 8.909 0.063
DSCMET_421 2018-01-07 18:10:00 118732 344.900 0.0000 0.0000 5.0000 434.600 0.0000 0.0000 5.0000 340.100 0.0000 0.0000 5.0000 5.435 99.300 5.334           5.474 5.391 99.400 99.300 8.991 8.928 0.063
DSCMET_421 2018-01-07 18:05:00 118731 344.600 0.0000 0.0000 5.0000 433.800 0.0000 0.0000 5.0000 335.500 0.0000 0.0000 5.0000 5.486 99.300 5.385           5.557 5.391 99.400 99.300 9.023 8.960 0.063
DSCMET_421 2018-01-07 18:00:00 118730 344.200 0.0000 0.0000 5.0000 432.900 0.0000 0.0000 5.0000 330.400 0.0000 0.0000 5.0000 5.608 99.300 5.507           5.674 5.541 99.400 99.300 9.100 9.036 0.064
DSCMET_421 2018-01-07 17:55:00 118729 343.900 0.0000 0.0000 5.0000 432.100 0.0000 0.0000 5.0000 325.300 0.0000 0.0000 5.0000 5.545 99.300 5.444           5.640 5.474 99.400 99.300 9.060 8.997 0.063
DSCMET_421 2018-01-07 17:50:00 118728 343.500 0.0000 0.0000 5.0000 431.500 0.0000 0.0000 5.0000 322.600 0.0000 0.0000 5.0000 5.601 99.300 5.500           5.822 5.507 99.400 99.300 9.095 9.032 0.064
DSCMET_421 2018-01-07 17:45:00 118727 343.500 0.0000 0.0000 5.0000 431.000 0.0000 0.0000 5.0000 319.700 0.0000 0.0000 5.0000 5.622 99.300 5.521           5.688 5.539 99.300 99.300 9.109 9.045 0.064
DSCMET_421 2018-01-07 17:40:00 118726 343.500 0.0000 0.0000 5.0000 430.600 0.0000 0.0000 5.0000 317.600 0.0000 0.0000 5.0000 5.682 99.300 5.581           5.722 5.639 99.300 99.300 9.147 9.083 0.064
DSCMET_421 2018-01-07 17:35:00 118725 343.400 0.0000 0.0000 5.0000 430.200 0.0000 0.0000 5.0000 315.500 0.0000 0.0000 5.0000 5.740 99.300 5.639           5.804 5.672 99.300 99.300 9.184 9.119 0.064
DSCMET_421 2018-01-07 17:30:00 118724 343.100 0.0000 0.0000 5.0000 429.600 0.0000 0.0000 5.0000 313.000 0.0000 0.0000 5.0000 5.778 99.300 5.677           5.803 5.720 99.400 99.300 9.208 9.143 0.064
DSCMET_421 2018-01-07 17:25:00 118723 343.100 0.0000 0.0000 5.0000 429.000 0.0000 0.0000 5.0000 310.900 0.0000 0.0000 5.0000 5.868 99.300 5.767           5.952 5.769 99.300 99.200 9.265 9.201 0.065
DSCMET_421 2018-01-07 17:20:00 118722 342.800 0.0000 0.0000 5.0000 428.400 0.0000 0.0000 5.0000 308.700 0.0000 0.0000 5.0000 5.981 99.300 5.880           6.035 5.919 99.400 99.300 9.338 9.273 0.065
DSCMET_421 2018-01-07 17:15:00 118721 342.700 0.0000 0.0000 5.0000 427.800 0.0000 0.0000 5.0000 306.500 0.0000 0.0000 5.0000 6.013 99.300 5.912           6.069 5.969 99.300 99.300 9.359 9.293 0.066
DSCMET_421 2018-01-07 17:10:00 118720 342.400 0.0000 0.0000 5.0000 427.000 0.0000 0.0000 5.0000 303.200 0.0000 0.0000 5.0000 6.004 99.300 5.903           6.052 5.968 99.400 99.300 9.353 9.288 0.065
DSCMET_421 2018-01-07 17:05:00 118719 342.100 0.0000 0.0000 5.0000 426.000 0.0000 0.0000 5.0000 299.700 0.0000 0.0000 5.0000 6.017 99.300 5.916           6.051 5.952 99.400 99.300 9.362 9.296 0.066
DSCMET_421 2018-01-07 17:00:00 118718 341.900 0.0000 0.0000 5.0000 425.100 0.0000 0.0000 5.0000 296.800 0.0000 0.0000 5.0000 6.182 99.300 6.080           6.349 6.051 99.300 99.300 9.469 9.403 0.066
DSCMET_421 2018-01-07 16:55:00 118717 341.400 0.0000 0.0000 5.0000 424.400 0.0000 0.0000 5.0000 293.100 0.0000 0.0000 5.0000 6.414 99.300 6.312           6.448 6.332 99.300 99.300 9.622 9.555 0.067
DSCMET_421 2018-01-07 16:50:00 118716 341.200 0.0000 0.0000 5.0000 423.600 0.0000 0.0000 5.0000 289.800 0.0000 0.0000 5.0000 6.409 99.300 6.307           6.481 6.315 99.400 99.300 9.619 9.551 0.067
DSCMET_421 2018-01-07 16:45:00 118715 340.900 0.0000 0.0000 5.0000 423.000 0.0000 0.0000 5.0000 285.900 0.0000 0.0000 5.0000 6.578 99.300 6.476           6.697 6.481 99.400 99.300 9.731 9.663 0.068
DSCMET_421 2018-01-07 16:40:00 118714 340.800 0.0000 0.0000 5.0000 422.500 0.0000 0.0000 5.0000 283.000 0.0000 5.0000 0.0000 6.669 99.300 6.567           6.747 6.614 99.300 99.300 9.793 9.724 0.069
DSCMET_421 2018-01-07 16:35:00 118713 340.500 0.0000 0.0000 5.0000 422.000 0.0000 0.0000 5.0000 280.200 0.0000 5.0000 0.0000 6.749 99.300 6.647           6.797 6.714 99.400 99.300 9.847 9.778 0.069
DSCMET_421 2018-01-07 16:30:00 118712 340.400 0.0000 0.0000 5.0000 421.200 0.0000 0.0000 5.0000 276.800 0.0000 5.0000 0.0000 6.866 99.300 6.764           6.980 6.747 99.400 99.300 9.926 9.857 0.069
DSCMET_421 2018-01-07 16:25:00 118711 340.100 0.0000 0.0000 5.0000 420.600 0.0000 0.0000 5.0000 273.900 2.5000 2.5000 0.0000 6.988 99.300 6.886           7.046 6.913 99.300 99.300 10.010 9.940 0.070
DSCMET_421 2018-01-07 16:20:00 118710 339.800 0.0000 0.0000 5.0000 420.100 0.0000 0.0000 5.0000 272.000 5.0000 0.0000 0.0000 7.081 99.300 6.979           7.145 6.996 99.300 99.300 10.074 10.003 0.071
DSCMET_421 2018-01-07 16:15:00 118709 339.600 0.0000 0.0000 5.0000 419.800 0.0000 0.0000 5.0000 270.800 5.0000 0.0000 0.0000 7.187 99.300 7.085           7.245 7.111 99.300 99.300 10.147 10.076 0.071
DSCMET_421 2018-01-07 16:10:00 118708 339.400 0.0000 0.0000 5.0000 419.800 0.0000 0.0000 5.0000 270.000 5.0000 0.0000 0.0000 7.242 99.300 7.140           7.294 7.211 99.400 99.300 10.186 10.114 0.071
DSCMET_421 2018-01-07 16:05:00 118707 339.400 0.0000 0.0000 5.0000 419.800 0.0000 0.0000 5.0000 269.700 5.0000 0.0000 0.0000 7.257 99.200 7.140           7.312 7.228 99.300 99.000 10.196 10.115 0.082
DSCMET_421 2018-01-07 16:00:00 118706 339.400 0.0000 0.0000 5.0000 419.800 0.0000 0.0000 5.0000 269.700 5.0000 0.0000 0.0000 7.380 99.000 7.233           7.444 7.312 99.100 98.900 10.282 10.180 0.103
DSCMET_421 2018-01-07 15:55:00 118705 339.400 0.0000 0.0000 5.0000 419.800 0.0000 0.0000 5.0000 269.600 5.0000 0.0000 0.0000 7.388 98.600 7.182           7.445 7.345 98.900 98.200 10.288 10.144 0.144
DSCMET_421 2018-01-07 15:50:00 118704 339.400 0.0000 0.0000 5.0000 419.800 0.0000 0.0000 5.0000 269.400 5.0000 0.0000 0.0000 7.427 97.900 7.117           7.478 7.378 98.200 97.700 10.316 10.099 0.217
DSCMET_421 2018-01-07 15:45:00 118703 339.400 0.0000 0.0000 5.0000 419.800 0.0000 0.0000 5.0000 269.400 5.0000 0.0000 0.0000 7.466 98.300 7.216           7.544 7.378 98.400 98.000 10.343 10.167 0.176
DSCMET_421 2018-01-07 15:40:00 118702 339.400 0.0000 0.0000 5.0000 419.800 0.0000 0.0000 5.0000 269.400 5.0000 0.0000 0.0000 7.393 98.000 7.098           7.461 7.344 98.300 97.900 10.292 10.086 0.206
DSCMET_421 2018-01-07 15:35:00 118701 339.400 0.0000 0.0000 5.0000 419.800 0.0000 0.0000 5.0000 269.400 5.0000 0.0000 0.0000 7.504 97.400 7.119           7.610 7.361 98.200 96.500 10.370 10.100 0.270
DSCMET_421 2018-01-07 15:30:00 118700 339.400 0.0000 0.0000 5.0000 419.800 0.0000 0.0000 5.0000 269.400 5.0000 0.0000 0.0000 7.490 96.900 7.030           7.577 7.345 97.600 96.300 10.360 10.039 0.321
DSCMET_421 2018-01-07 15:25:00 118699 339.500 0.0000 0.0000 5.0000 419.800 0.0000 0.0000 5.0000 269.400 5.0000 0.0000 0.0000 7.356 97.900 7.046           7.411 7.295 98.100 97.700 10.265 10.050 0.216
DSCMET_421 2018-01-07 15:20:00 118698 339.800 0.0000 0.0000 5.0000 419.900 0.0000 0.0000 5.0000 269.400 5.0000 0.0000 0.0000 7.267 98.100 6.987           7.361 7.195 98.100 97.900 10.203 10.009 0.194
DSCMET_421 2018-01-07 15:15:00 118697 339.900 0.0000 0.0000 5.0000 420.100 0.0000 0.0000 5.0000 269.400 5.0000 0.0000 0.0000 7.376 98.000 7.081           7.478 7.229 98.200 97.800 10.280 10.074 0.206
DSCMET_421 2018-01-07 15:10:00 118696 340.100 0.0000 0.0000 5.0000 420.100 0.0000 0.0000 5.0000 269.400 5.0000 0.0000 0.0000 7.396 97.900 7.086           7.461 7.329 98.200 96.800 10.294 10.077 0.216
DSCMET_421 2018-01-07 15:05:00 118695 340.100 0.0000 0.0000 5.0000 420.300 0.0000 0.0000 5.0000 269.300 5.0000 0.0000 0.0000 7.382 95.200 6.665           7.429 7.329 96.500 91.800 10.284 9.790 0.494
DSCMET_421 2018-01-07 15:00:00 118694 340.400 0.0000 0.0000 5.0000 420.500 0.0000 0.0000 5.0000 269.300 5.0000 0.0000 0.0000 7.319 93.500 6.342           7.347 7.281 94.100 91.800 10.240 9.574 0.666
DSCMET_421 2018-01-07 14:55:00 118693 340.400 0.0000 0.0000 5.0000 420.500 0.0000 0.0000 5.0000 269.400 5.0000 0.0000 0.0000 7.246 94.300 6.393           7.314 7.181 95.900 93.100 10.188 9.608 0.581
DSCMET_421 2018-01-07 14:50:00 118692 340.500 0.0000 0.0000 5.0000 420.500 0.0000 0.0000 5.0000 269.400 5.0000 0.0000 0.0000 7.335 97.100 6.906           7.463 7.247 97.500 96.500 10.251 9.953 0.297
DSCMET_421 2018-01-07 14:45:00 118691 340.800 0.0000 0.0000 5.0000 420.800 0.0000 0.0000 5.0000 269.400 5.0000 0.0000 0.0000 7.197 98.100 6.917           7.297 7.081 98.300 97.400 10.154 9.961 0.193
DSCMET_421 2018-01-07 14:40:00 118690 340.800 0.0000 0.0000 5.0000 420.800 0.0000 0.0000 5.0000 269.400 5.0000 0.0000 0.0000 7.170 97.500 6.801           7.264 7.065 98.000 96.700 10.136 9.882 0.253
DSCMET_421 2018-01-07 14:35:00 118689 340.900 0.0000 0.0000 5.0000 420.800 0.0000 0.0000 5.0000 269.400 5.0000 0.0000 0.0000 7.030 95.500 6.361           7.099 6.899 96.500 94.500 10.039 9.587 0.452
DSCMET_421 2018-01-07 14:30:00 118688 341.100 0.0000 0.0000 5.0000 421.100 0.0000 0.0000 5.0000 269.400 5.0000 0.0000 0.0000 6.977 97.300 6.579           7.098 6.883 97.800 96.400 10.002 9.732 0.270
DSCMET_421 2018-01-07 14:25:00 118687 341.200 0.0000 0.0000 5.0000 421.200 0.0000 0.0000 5.0000 269.400 5.0000 0.0000 0.0000 6.964 97.000 6.521           7.032 6.866 98.000 96.100 9.993 9.693 0.300
DSCMET_421 2018-01-07 14:20:00 118686 341.400 0.0000 0.0000 5.0000 421.200 0.0000 0.0000 5.0000 269.400 5.0000 0.0000 0.0000 6.941 98.400 6.706           6.999 6.882 98.800 98.000 9.977 9.818 0.160
DSCMET_421 2018-01-07 14:15:00 118685 341.500 0.0000 0.0000 5.0000 421.500 0.0000 0.0000 5.0000 269.400 5.0000 0.0000 0.0000 6.879 98.000 6.585           6.949 6.816 98.500 97.700 9.935 9.736 0.199
DSCMET_421 2018-01-07 14:10:00 118684 341.800 0.0000 0.0000 5.0000 421.500 0.0000 0.0000 5.0000 269.500 5.0000 0.0000 0.0000 6.851 97.600 6.498           6.933 6.766 97.900 97.400 9.916 9.678 0.238
DSCMET_421 2018-01-07 14:05:00 118683 341.800 0.0000 0.0000 5.0000 421.500 0.0000 0.0000 5.0000 269.600 5.0000 0.0000 0.0000 6.757 98.000 6.464           6.834 6.634 98.400 97.600 9.852 9.655 0.197
DSCMET_421 2018-01-07 14:00:00 118682 341.900 0.0000 0.0000 5.0000 421.800 0.0000 0.0000 5.0000 269.700 5.0000 0.0000 0.0000 6.730 98.600 6.525           6.867 6.602 98.800 98.300 9.834 9.696 0.138
DSCMET_421 2018-01-07 13:55:00 118681 342.100 0.0000 0.0000 5.0000 421.800 0.0000 0.0000 5.0000 269.400 5.0000 0.0000 0.0000 6.672 97.200 6.260           6.752 6.602 98.300 95.600 9.795 9.520 0.274
DSCMET_421 2018-01-07 13:50:00 118680 340.800 0.0000 0.0000 5.0000 421.800 0.0000 0.0000 5.0000 269.400 5.0000 0.0000 0.0000 6.719 93.900 5.808           6.785 6.651 95.400 93.100 9.826 9.227 0.599
DSCMET_421 2018-01-07 13:45:00 118679 340.800 0.0000 0.0000 5.0000 422.000 0.0000 0.0000 5.0000 269.400 5.0000 0.0000 0.0000 6.583 95.800 5.962           6.652 6.503 97.200 94.600 9.735 9.326 0.409
DSCMET_421 2018-01-07 13:40:00 118678 341.000 0.0000 0.0000 5.0000 422.400 0.0000 0.0000 5.0000 269.200 5.0000 0.0000 0.0000 6.636 95.700 5.999           6.686 6.603 97.200 94.700 9.770 9.350 0.420
DSCMET_421 2018-01-07 13:35:00 118677 341.100 0.0000 0.0000 5.0000 422.500 0.0000 0.0000 5.0000 269.300 5.0000 0.0000 0.0000 6.744 94.700 5.955           6.836 6.669 95.800 93.500 9.843 9.322 0.522
DSCMET_421 2018-01-07 13:30:00 118676 341.100 0.0000 0.0000 5.0000 422.500 0.0000 0.0000 5.0000 269.800 5.0000 0.0000 0.0000 6.705 92.600 5.593           6.786 6.620 94.600 90.900 9.817 9.090 0.726
DSCMET_421 2018-01-07 13:25:00 118675 340.900 0.0000 0.0000 5.0000 422.800 0.0000 0.0000 5.0000 271.100 5.0000 0.0000 0.0000 6.583 94.500 5.765           6.620 6.504 95.100 92.800 9.735 9.199 0.535
DSCMET_421 2018-01-07 13:20:00 118674 340.800 0.0000 0.0000 5.0000 423.200 0.0000 0.0000 5.0000 272.400 5.0000 0.0000 0.0000 6.625 94.900 5.867           6.770 6.537 95.300 93.800 9.763 9.265 0.498
DSCMET_421 2018-01-07 13:15:00 118673 340.800 0.0000 0.0000 5.0000 423.400 0.0000 0.0000 5.0000 274.900 1.2500 3.7500 0.0000 6.622 92.300 5.464           6.670 6.554 93.600 91.200 9.761 9.009 0.752
DSCMET_421 2018-01-07 13:10:00 118672 341.100 0.0000 0.0000 5.0000 423.600 0.0000 0.0000 5.0000 280.200 0.0000 5.0000 0.0000 6.534 94.400 5.701           6.637 6.421 96.900 90.900 9.702 9.159 0.543
DSCMET_421 2018-01-07 13:05:00 118671 341.100 0.0000 0.0000 5.0000 423.900 0.0000 0.0000 5.0000 285.200 0.0000 0.7500 4.2500 6.371 96.200 5.811           6.422 6.289 97.200 95.300 9.593 9.229 0.365
DSCMET_421 2018-01-07 13:00:00 118670 341.300 0.0000 0.0000 5.0000 424.000 0.0000 0.0000 5.0000 289.200 0.0000 0.0000 5.0000 6.295 95.600 5.645           6.422 6.222 96.800 93.700 9.543 9.123 0.420
DSCMET_421 2018-01-07 12:55:00 118669 341.500 0.0000 0.0000 5.0000 424.200 0.0000 0.0000 5.0000 293.600 0.0000 0.0000 5.0000 6.225 95.600 5.576           6.289 6.173 96.800 94.200 9.497 9.079 0.418
DSCMET_421 2018-01-07 12:50:00 118668 341.700 0.0000 0.0000 5.0000 424.700 0.0000 0.0000 5.0000 299.200 0.0000 0.0000 5.0000 6.159 95.800 5.540           6.223 6.090 97.100 94.200 9.454 9.057 0.397
DSCMET_421 2018-01-07 12:45:00 118667 341.900 0.0000 0.0000 5.0000 425.000 0.0000 0.0000 5.0000 304.000 0.0000 0.0000 5.0000 6.131 97.200 5.721           6.207 6.057 98.200 95.800 9.436 9.171 0.264
DSCMET_421 2018-01-07 12:40:00 118666 342.100 0.0000 0.0000 5.0000 425.400 0.0000 0.0000 5.0000 307.600 0.0000 0.0000 5.0000 6.175 98.600 5.971           6.256 6.090 98.800 98.200 9.464 9.332 0.133
DSCMET_421 2018-01-07 12:35:00 118665 342.200 0.0000 0.0000 5.0000 425.800 0.0000 0.0000 5.0000 310.800 0.0000 0.0000 5.0000 6.082 97.700 5.746           6.207 5.958 98.600 97.000 9.404 9.187 0.216
DSCMET_421 2018-01-07 12:30:00 118664 342.200 0.0000 0.0000 5.0000 426.100 0.0000 0.0000 5.0000 315.800 0.0000 0.0000 5.0000 6.029 97.000 5.590           6.108 5.975 97.800 95.800 9.369 9.088 0.281
DSCMET_421 2018-01-07 12:25:00 118663 342.300 0.0000 0.0000 5.0000 426.400 0.0000 0.0000 5.0000 319.900 0.0000 0.0000 5.0000 5.899 97.400 5.519           5.991 5.777 99.000 96.400 9.285 9.044 0.241
DSCMET_421 2018-01-07 12:20:00 118662 342.500 0.0000 0.0000 5.0000 426.900 0.0000 0.0000 5.0000 322.900 0.0000 0.0000 5.0000 5.882 98.900 5.722           5.977 5.793 99.100 98.500 9.274 9.172 0.102
DSCMET_421 2018-01-07 12:15:00 118661 342.500 0.0000 0.0000 5.0000 427.400 0.0000 0.0000 5.0000 325.900 0.0000 0.0000 5.0000 6.002 98.300 5.755           6.060 5.927 98.500 98.000 9.352 9.193 0.159
DSCMET_421 2018-01-07 12:10:00 118660 342.500 0.0000 0.0000 5.0000 427.700 0.0000 0.0000 5.0000 329.500 0.0000 0.0000 5.0000 6.087 95.500 5.423           6.209 5.976 98.000 91.400 9.407 8.984 0.423
DSCMET_421 2018-01-07 12:05:00 118659 342.600 0.0000 0.0000 5.0000 428.100 0.0000 0.0000 5.0000 333.900 0.0000 0.0000 5.0000 6.043 92.400 4.906           6.110 5.977 95.100 88.800 9.378 8.666 0.713
DSCMET_421 2018-01-07 12:00:00 118658 342.800 0.0000 0.0000 5.0000 429.500 0.0000 0.0000 5.0000 342.100 0.0000 0.0000 5.0000 5.947 92.800 4.873           6.027 5.895 96.300 90.500 9.316 8.646 0.671
DSCMET_421 2018-01-07 11:55:00 118657 342.800 0.0000 0.0000 5.0000 431.200 0.0000 0.0000 5.0000 346.700 0.0000 0.0000 5.0000 6.075 96.800 5.606           6.161 5.928 97.900 95.400 9.399 9.098 0.301
DSCMET_421 2018-01-07 11:50:00 118656 342.800 0.0000 0.0000 5.0000 432.200 0.0000 0.0000 5.0000 352.400 0.0000 0.0000 5.0000 6.021 94.600 5.222           6.161 5.945 96.500 92.800 9.364 8.858 0.506
DSCMET_421 2018-01-07 11:45:00 118655 343.200 0.0000 0.0000 5.0000 433.300 0.0000 0.0000 5.0000 357.400 0.0000 0.0000 5.0000 5.872 92.800 4.799           5.962 5.730 93.700 91.900 9.268 8.601 0.667
DSCMET_421 2018-01-07 11:40:00 118654 343.300 0.0000 0.0000 5.0000 435.500 0.0000 0.0000 5.0000 362.600 0.0000 0.0000 5.0000 5.756 95.300 5.064           5.831 5.664 97.300 93.000 9.194 8.762 0.432
DSCMET_421 2018-01-07 11:35:00 118653 343.500 0.0000 0.0000 5.0000 438.000 0.0000 0.0000 5.0000 366.700 0.0000 0.0000 5.0000 5.832 96.100 5.260           5.914 5.731 97.400 94.100 9.242 8.882 0.360
DSCMET_421 2018-01-07 11:30:00 118652 343.700 0.0000 0.0000 5.0000 439.400 0.0000 0.0000 5.0000 373.100 0.0000 0.0000 5.0000 5.775 96.500 5.262           5.915 5.666 97.300 95.900 9.206 8.884 0.322
DSCMET_421 2018-01-07 11:25:00 118651 344.100 0.0000 0.0000 5.0000 440.800 0.0000 0.0000 5.0000 378.000 0.0000 0.0000 5.0000 5.745 96.800 5.277           5.816 5.682 97.400 96.100 9.187 8.893 0.294
DSCMET_421 2018-01-07 11:20:00 118650 344.600 0.0000 0.0000 5.0000 442.200 0.0000 0.0000 5.0000 382.500 0.0000 0.0000 5.0000 5.600 96.000 5.014           5.750 5.468 96.700 95.000 9.095 8.731 0.364
DSCMET_421 2018-01-07 11:15:00 118649 345.100 0.0000 0.0000 5.0000 443.900 0.0000 0.0000 5.0000 387.500 0.0000 0.0000 5.0000 5.390 95.000 4.655           5.518 5.253 96.000 93.600 8.963 8.515 0.448
DSCMET_421 2018-01-07 11:10:00 118648 345.500 0.0000 0.0000 5.0000 446.700 0.0000 0.0000 5.0000 393.100 0.0000 0.0000 5.0000 5.243 97.100 4.821           5.337 5.170 98.300 94.100 8.872 8.614 0.257
DSCMET_421 2018-01-07 11:05:00 118647 346.100 0.0000 0.0000 5.0000 448.900 0.0000 0.0000 5.0000 397.100 0.0000 0.0000 5.0000 5.218 98.200 4.958           5.304 5.022 98.400 97.700 8.856 8.697 0.159
DSCMET_421 2018-01-07 11:00:00 118646 346.800 0.0000 0.0000 5.0000 450.500 0.0000 0.0000 5.0000 401.100 0.0000 0.0000 5.0000 4.889 97.400 4.513           5.055 4.724 97.900 97.200 8.655 8.430 0.225
DSCMET_421 2018-01-07 10:55:00 118645 347.600 0.0000 0.0000 5.0000 452.700 0.0000 0.0000 5.0000 406.400 0.0000 0.0000 5.0000 4.772 99.100 4.643           4.924 4.674 99.400 98.200 8.585 8.508 0.077
DSCMET_421 2018-01-07 10:50:00 118644 348.000 0.0000 0.0000 5.0000 454.100 0.0000 0.0000 5.0000 409.100 0.0000 0.0000 5.0000 4.798 99.200 4.683           4.857 4.692 99.300 98.900 8.600 8.532 0.069
DSCMET_421 2018-01-07 10:45:00 118643 348.500 0.0000 0.0000 5.0000 454.900 0.0000 0.0000 5.0000 411.900 0.0000 0.0000 5.0000 4.669 98.900 4.511           4.792 4.543 99.100 98.800 8.523 8.429 0.094
DSCMET_421 2018-01-07 10:40:00 118642 349.100 0.0000 0.0000 5.0000 455.900 0.0000 0.0000 5.0000 416.000 0.0000 0.0000 5.0000 4.496 99.000 4.353           4.709 4.311 99.300 98.600 8.421 8.336 0.084
DSCMET_421 2018-01-07 10:35:00 118641 349.800 0.0000 0.0000 5.0000 456.900 0.0000 0.0000 5.0000 420.600 0.0000 0.0000 5.0000 4.260 98.400 4.031           4.377 4.178 98.600 98.300 8.282 8.150 0.133
DSCMET_421 2018-01-07 10:30:00 118640 350.300 0.0000 0.0000 5.0000 457.600 0.0000 0.0000 5.0000 425.400 0.0000 0.0000 5.0000 4.106 98.800 3.934           4.178 3.995 99.100 98.400 8.193 8.095 0.098
DSCMET_421 2018-01-07 10:25:00 118639 351.000 0.0000 0.0000 5.0000 458.600 0.0000 0.0000 5.0000 429.700 0.0000 0.0000 5.0000 3.963 98.600 3.763           4.062 3.863 98.800 98.400 8.111 7.998 0.114
DSCMET_421 2018-01-07 10:20:00 118638 351.500 0.0000 0.0000 5.0000 459.400 0.0000 0.0000 5.0000 433.900 0.0000 0.0000 5.0000 3.905 98.200 3.647           3.947 3.864 98.500 97.900 8.078 7.933 0.145
DSCMET_421 2018-01-07 10:15:00 118637 351.900 0.0000 0.0000 5.0000 460.000 0.0000 0.0000 5.0000 438.700 0.0000 0.0000 5.0000 3.798 98.900 3.641           3.914 3.665 99.300 98.200 8.017 7.929 0.088
DSCMET_421 2018-01-07 10:10:00 118636 352.400 0.0000 0.0000 5.0000 460.700 0.0000 0.0000 5.0000 443.300 0.0000 0.0000 5.0000 3.720 98.600 3.520           3.765 3.665 99.200 97.500 7.973 7.862 0.112
DSCMET_421 2018-01-07 10:05:00 118635 353.000 0.0000 0.0000 5.0000 462.100 0.0000 0.0000 5.0000 447.800 0.0000 0.0000 5.0000 3.626 97.600 3.282           3.699 3.549 98.100 97.300 7.921 7.731 0.190
DSCMET_421 2018-01-07 10:00:00 118634 353.600 0.0000 0.0000 5.0000 463.400 0.0000 0.0000 5.0000 451.600 0.0000 0.0000 5.0000 3.579 98.800 3.408           3.732 3.483 99.100 98.200 7.894 7.800 0.095
DSCMET_421 2018-01-07 09:55:00 118633 354.000 0.0000 0.0000 5.0000 464.100 0.0000 0.0000 5.0000 453.900 0.0000 0.0000 5.0000 3.354 99.100 3.226           3.550 3.184 99.400 98.700 7.770 7.700 0.070
DSCMET_421 2018-01-07 09:50:00 118632 354.700 0.0000 0.0000 5.0000 465.200 0.0000 0.0000 5.0000 457.600 0.0000 0.0000 5.0000 3.181 99.300 3.082           3.251 3.101 99.400 99.300 7.675 7.621 0.054
DSCMET_421 2018-01-07 09:45:00 118631 355.100 0.0000 0.0000 5.0000 465.800 0.0000 0.0000 5.0000 460.400 0.0000 0.0000 5.0000 3.110 99.300 3.011           3.186 3.019 99.300 99.300 7.637 7.583 0.053
DSCMET_421 2018-01-07 09:40:00 118630 355.300 0.0000 0.0000 5.0000 466.200 0.0000 0.0000 5.0000 463.000 0.0000 0.0000 5.0000 3.002 99.300 2.903           3.069 2.903 99.300 99.300 7.578 7.525 0.053
DSCMET_421 2018-01-07 09:35:00 118629 355.700 0.0000 0.0000 5.0000 467.000 0.0000 0.0000 5.0000 465.200 0.0000 0.0000 5.0000 2.907 99.300 2.808           3.036 2.837 99.400 99.300 7.527 7.475 0.053
DSCMET_421 2018-01-07 09:30:00 118628 355.600 0.0000 0.0000 5.0000 467.700 0.0000 0.0000 5.0000 467.700 0.0000 0.0000 5.0000 2.764 99.300 2.665           2.838 2.705 99.400 99.300 7.451 7.399 0.052
DSCMET_421 2018-01-07 09:25:00 118627 355.900 0.0000 0.0000 5.0000 468.100 0.0000 0.0000 5.0000 469.300 0.0000 0.0000 5.0000 2.729 99.300 2.630           2.788 2.672 99.400 99.300 7.433 7.381 0.052
DSCMET_421 2018-01-07 09:20:00 118626 355.900 0.0000 0.0000 5.0000 468.200 0.0000 0.0000 5.0000 469.700 0.0000 0.0000 5.0000 2.612 99.300 2.513           2.721 2.539 99.400 99.300 7.371 7.320 0.052
DSCMET_421 2018-01-07 09:15:00 118625 356.200 0.0000 0.0000 5.0000 468.600 0.0000 0.0000 5.0000 470.200 0.0000 0.0000 5.0000 2.615 99.300 2.516           2.689 2.556 99.400 99.300 7.373 7.321 0.052
DSCMET_421 2018-01-07 09:10:00 118624 356.300 0.0000 0.0000 5.0000 468.800 0.0000 0.0000 5.0000 471.000 0.0000 0.0000 5.0000 2.538 99.300 2.439           2.589 2.456 99.300 99.300 7.332 7.281 0.051
DSCMET_421 2018-01-07 09:05:00 118623 356.400 0.0000 0.0000 5.0000 468.900 0.0000 0.0000 5.0000 471.700 0.0000 0.0000 5.0000 2.472 99.300 2.373           2.522 2.406 99.400 99.300 7.298 7.247 0.051
DSCMET_421 2018-01-07 09:00:00 118622 356.600 0.0000 0.0000 5.0000 468.900 0.0000 0.0000 5.0000 472.400 0.0000 0.0000 5.0000 2.365 99.300 2.267           2.406 2.306 99.400 99.300 7.243 7.192 0.051
DSCMET_421 2018-01-07 08:55:00 118621 356.600 0.0000 0.0000 5.0000 469.300 0.0000 0.0000 5.0000 473.000 0.0000 0.0000 5.0000 2.354 99.300 2.256           2.456 2.273 99.400 99.300 7.237 7.186 0.051
DSCMET_421 2018-01-07 08:50:00 118620 356.800 0.0000 0.0000 5.0000 469.600 0.0000 0.0000 5.0000 473.400 0.0000 0.0000 5.0000 2.328 99.300 2.230           2.389 2.273 99.400 99.200 7.223 7.173 0.051
DSCMET_421 2018-01-07 08:45:00 118619 356.800 0.0000 0.0000 5.0000 469.600 0.0000 0.0000 5.0000 473.900 0.0000 0.0000 5.0000 2.276 99.300 2.178           2.356 2.190 99.400 99.300 7.197 7.146 0.050
DSCMET_421 2018-01-07 08:40:00 118618 356.900 0.0000 0.0000 5.0000 469.900 0.0000 0.0000 5.0000 474.300 0.0000 0.0000 5.0000 2.257 99.300 2.159           2.290 2.190 99.400 99.300 7.187 7.137 0.050
DSCMET_421 2018-01-07 08:35:00 118617 357.000 0.0000 0.0000 5.0000 469.900 0.0000 0.0000 5.0000 474.600 0.0000 0.0000 5.0000 2.177 99.300 2.079           2.273 2.107 99.400 99.300 7.146 7.096 0.050
DSCMET_421 2018-01-07 08:30:00 118616 357.100 0.0000 0.0000 5.0000 469.900 0.0000 0.0000 5.0000 474.600 0.0000 0.0000 5.0000 2.123 99.300 2.025           2.173 2.057 99.400 99.300 7.118 7.069 0.050
DSCMET_421 2018-01-07 08:25:00 118615 356.900 0.0000 0.0000 5.0000 469.800 0.0000 0.0000 5.0000 474.400 0.0000 0.0000 5.0000 2.054 99.300 1.956           2.090 2.007 99.400 99.300 7.083 7.034 0.050
DSCMET_421 2018-01-07 08:20:00 118614 356.900 0.0000 0.0000 5.0000 469.500 0.0000 0.0000 5.0000 473.800 0.0000 0.0000 5.0000 2.060 99.300 1.962           2.090 2.024 99.400 99.300 7.086 7.037 0.050
DSCMET_421 2018-01-07 08:15:00 118613 356.900 0.0000 0.0000 5.0000 469.100 0.0000 0.0000 5.0000 472.900 0.0000 0.0000 5.0000 2.090 99.300 1.992           2.140 2.041 99.400 99.300 7.102 7.052 0.050
DSCMET_421 2018-01-07 08:10:00 118612 356.900 0.0000 0.0000 5.0000 468.700 0.0000 0.0000 5.0000 471.000 0.0000 0.0000 5.0000 2.085 99.300 1.987           2.124 2.057 99.400 99.200 7.099 7.049 0.050
DSCMET_421 2018-01-07 08:05:00 118611 356.600 0.0000 0.0000 5.0000 468.200 0.0000 0.0000 5.0000 469.000 0.0000 0.0000 5.0000 2.085 99.300 1.987           2.107 2.057 99.400 99.300 7.099 7.049 0.050
DSCMET_421 2018-01-07 08:00:00 118610 356.600 0.0000 0.0000 5.0000 467.800 0.0000 0.0000 5.0000 467.000 0.0000 0.0000 5.0000 2.122 99.300 2.024           2.190 2.057 99.400 99.300 7.118 7.068 0.050
DSCMET_421 2018-01-07 07:55:00 118609 356.600 0.0000 0.0000 5.0000 467.400 0.0000 0.0000 5.0000 465.400 0.0000 0.0000 5.0000 2.197 99.300 2.099           2.240 2.157 99.400 99.300 7.156 7.106 0.050
DSCMET_421 2018-01-07 07:50:00 118608 356.600 0.0000 0.0000 5.0000 467.200 0.0000 0.0000 5.0000 464.100 0.0000 0.0000 5.0000 2.234 99.300 2.136           2.306 2.140 99.400 99.300 7.175 7.125 0.050
DSCMET_421 2018-01-07 07:45:00 118607 356.500 0.0000 0.0000 5.0000 466.900 0.0000 0.0000 5.0000 463.100 0.0000 0.0000 5.0000 2.138 99.300 2.040           2.190 2.090 99.400 99.300 7.126 7.076 0.050
DSCMET_421 2018-01-07 07:40:00 118606 356.400 0.0000 0.0000 5.0000 466.700 0.0000 0.0000 5.0000 461.700 0.0000 0.0000 5.0000 2.060 99.300 1.962           2.090 2.024 99.400 99.300 7.086 7.037 0.050
DSCMET_421 2018-01-07 07:35:00 118605 356.300 0.0000 0.0000 5.0000 466.400 0.0000 0.0000 5.0000 460.700 0.0000 0.0000 5.0000 2.067 99.300 1.969           2.107 2.024 99.400 99.300 7.090 7.040 0.050
DSCMET_421 2018-01-07 07:30:00 118604 356.300 0.0000 0.0000 5.0000 466.100 0.0000 0.0000 5.0000 459.500 0.0000 0.0000 5.0000 2.132 99.300 2.034           2.223 2.057 99.400 99.200 7.123 7.073 0.050
DSCMET_421 2018-01-07 07:25:00 118603 356.300 0.0000 0.0000 5.0000 465.900 0.0000 0.0000 5.0000 458.700 0.0000 0.0000 5.0000 2.143 99.300 2.045           2.257 2.041 99.400 99.300 7.129 7.079 0.050
DSCMET_421 2018-01-07 07:20:00 118602 356.300 0.0000 0.0000 5.0000 465.700 0.0000 0.0000 5.0000 457.800 0.0000 0.0000 5.0000 2.061 99.300 1.963           2.124 2.007 99.400 99.300 7.087 7.037 0.050
DSCMET_421 2018-01-07 07:15:00 118601 356.300 0.0000 0.0000 5.0000 465.400 0.0000 0.0000 5.0000 456.200 0.0000 0.0000 5.0000 2.057 99.300 1.959           2.090 2.024 99.400 99.300 7.085 7.035 0.050
DSCMET_421 2018-01-07 07:10:00 118600 356.300 0.0000 0.0000 5.0000 465.000 0.0000 0.0000 5.0000 454.600 0.0000 0.0000 5.0000 2.108 99.300 2.010           2.190 2.057 99.400 99.300 7.111 7.061 0.050
DSCMET_421 2018-01-07 07:05:00 118599 356.300 0.0000 0.0000 5.0000 464.700 0.0000 0.0000 5.0000 453.500 0.0000 0.0000 5.0000 2.207 99.300 2.109           2.273 2.124 99.400 99.300 7.161 7.111 0.050
DSCMET_421 2018-01-07 07:00:00 118598 356.300 0.0000 0.0000 5.0000 464.400 0.0000 0.0000 5.0000 452.200 0.0000 0.0000 5.0000 2.224 99.300 2.126           2.290 2.157 99.400 99.300 7.170 7.120 0.050
DSCMET_421 2018-01-07 06:55:00 118597 356.300 0.0000 0.0000 5.0000 464.200 0.0000 0.0000 5.0000 450.800 0.0000 0.0000 5.0000 2.223 99.300 2.125           2.323 2.140 99.300 99.300 7.170 7.119 0.050
DSCMET_421 2018-01-07 06:50:00 118596 356.100 0.0000 0.0000 5.0000 463.500 0.0000 0.0000 5.0000 449.500 0.0000 0.0000 5.0000 2.183 99.300 2.085           2.223 2.123 99.400 99.300 7.149 7.099 0.050
DSCMET_421 2018-01-07 06:45:00 118595 356.200 0.0000 0.0000 5.0000 463.100 0.0000 0.0000 5.0000 447.700 0.0000 0.0000 5.0000 2.165 99.300 2.067           2.223 2.107 99.400 99.300 7.140 7.090 0.050
DSCMET_421 2018-01-07 06:40:00 118594 355.900 0.0000 0.0000 5.0000 462.700 0.0000 0.0000 5.0000 446.100 0.0000 0.0000 5.0000 2.178 99.300 2.080           2.289 2.090 99.400 99.300 7.147 7.096 0.050
DSCMET_421 2018-01-07 06:35:00 118593 355.900 0.0000 0.0000 5.0000 462.300 0.0000 0.0000 5.0000 445.000 0.0000 0.0000 5.0000 2.258 99.300 2.160           2.389 2.156 99.400 99.300 7.187 7.137 0.050
DSCMET_421 2018-01-07 06:30:00 118592 355.900 0.0000 0.0000 5.0000 462.000 0.0000 0.0000 5.0000 443.900 0.0000 0.0000 5.0000 2.231 99.300 2.133           2.273 2.173 99.300 99.300 7.174 7.123 0.050
DSCMET_421 2018-01-07 06:25:00 118591 355.900 0.0000 0.0000 5.0000 461.800 0.0000 0.0000 5.0000 442.500 0.0000 0.0000 5.0000 2.185 99.300 2.087           2.256 2.123 99.400 99.300 7.150 7.100 0.050
DSCMET_421 2018-01-07 06:20:00 118590 355.900 0.0000 0.0000 5.0000 461.500 0.0000 0.0000 5.0000 441.300 0.0000 0.0000 5.0000 2.226 99.300 2.128           2.272 2.173 99.400 99.300 7.171 7.121 0.050
DSCMET_421 2018-01-07 06:15:00 118589 355.900 0.0000 0.0000 5.0000 461.200 0.0000 0.0000 5.0000 440.300 0.0000 0.0000 5.0000 2.250 99.300 2.152           2.306 2.223 99.400 99.300 7.183 7.133 0.050
DSCMET_421 2018-01-07 06:10:00 118588 355.600 0.0000 0.0000 5.0000 460.900 0.0000 0.0000 5.0000 439.200 0.0000 0.0000 5.0000 2.238 99.300 2.140           2.289 2.206 99.400 99.300 7.177 7.127 0.050
DSCMET_421 2018-01-07 06:05:00 118587 355.600 0.0000 0.0000 5.0000 460.900 0.0000 0.0000 5.0000 438.400 0.0000 0.0000 5.0000 2.453 99.300 2.355           2.572 2.272 99.300 99.300 7.288 7.237 0.051
DSCMET_421 2018-01-07 06:00:00 118586 355.900 0.0000 0.0000 5.0000 461.000 0.0000 0.0000 5.0000 438.600 0.0000 0.0000 5.0000 2.307 99.300 2.209           2.488 2.173 99.300 99.300 7.213 7.162 0.050
DSCMET_421 2018-01-07 05:55:00 118585 355.900 0.0000 0.0000 5.0000 460.900 0.0000 0.0000 5.0000 437.400 0.0000 0.0000 5.0000 2.264 99.300 2.166           2.306 2.222 99.400 99.300 7.191 7.140 0.050
DSCMET_421 2018-01-07 05:50:00 118584 355.800 0.0000 0.0000 5.0000 460.700 0.0000 0.0000 5.0000 436.300 0.0000 0.0000 5.0000 2.271 99.300 2.173           2.322 2.223 99.400 99.300 7.194 7.144 0.050
DSCMET_421 2018-01-07 05:45:00 118583 355.700 0.0000 0.0000 5.0000 460.400 0.0000 0.0000 5.0000 435.100 0.0000 0.0000 5.0000 2.348 99.300 2.250           2.389 2.273 99.400 99.300 7.234 7.183 0.051
DSCMET_421 2018-01-07 05:40:00 118582 355.600 0.0000 0.0000 5.0000 460.200 0.0000 0.0000 5.0000 433.800 0.0000 0.0000 5.0000 2.307 99.300 2.209           2.373 2.256 99.400 99.300 7.213 7.162 0.050
DSCMET_421 2018-01-07 05:35:00 118581 355.600 0.0000 0.0000 5.0000 459.800 0.0000 0.0000 5.0000 433.000 0.0000 0.0000 5.0000 2.341 99.300 2.243           2.372 2.288 99.300 99.300 7.230 7.180 0.051
DSCMET_421 2018-01-07 05:30:00 118580 355.600 0.0000 0.0000 5.0000 459.600 0.0000 0.0000 5.0000 432.100 0.0000 0.0000 5.0000 2.436 99.300 2.338           2.522 2.322 99.400 99.200 7.279 7.228 0.051
DSCMET_421 2018-01-07 05:25:00 118579 355.600 0.0000 0.0000 5.0000 459.300 0.0000 0.0000 5.0000 431.600 0.0000 0.0000 5.0000 2.393 99.300 2.295           2.521 2.271 99.400 99.200 7.257 7.206 0.051
DSCMET_421 2018-01-07 05:20:00 118578 355.600 0.0000 0.0000 5.0000 459.200 0.0000 0.0000 5.0000 430.200 0.0000 0.0000 5.0000 2.243 99.300 2.145           2.288 2.188 99.400 99.200 7.180 7.130 0.050
DSCMET_421 2018-01-07 05:15:00 118577 355.300 0.0000 0.0000 5.0000 458.700 0.0000 0.0000 5.0000 428.600 0.0000 0.0000 5.0000 2.362 99.300 2.264           2.504 2.288 99.400 99.300 7.241 7.190 0.051
DSCMET_421 2018-01-07 05:10:00 118576 355.300 0.0000 0.0000 5.0000 458.300 0.0000 0.0000 5.0000 427.700 0.0000 0.0000 5.0000 2.412 99.300 2.314           2.504 2.305 99.300 99.300 7.267 7.216 0.051
DSCMET_421 2018-01-07 05:05:00 118575 355.300 0.0000 0.0000 5.0000 458.200 0.0000 0.0000 5.0000 427.100 0.0000 0.0000 5.0000 2.315 99.300 2.217           2.372 2.288 99.400 99.200 7.217 7.166 0.051
DSCMET_421 2018-01-07 05:00:00 118574 355.300 0.0000 0.0000 5.0000 458.000 0.0000 0.0000 5.0000 426.500 0.0000 0.0000 5.0000 2.288 99.300 2.190           2.338 2.255 99.400 99.300 7.203 7.152 0.050
DSCMET_421 2018-01-07 04:55:00 118573 355.500 0.0000 0.0000 5.0000 457.900 0.0000 0.0000 5.0000 425.600 0.0000 0.0000 5.0000 2.293 99.300 2.195           2.338 2.255 99.400 99.300 7.205 7.155 0.050
DSCMET_421 2018-01-07 04:50:00 118572 355.300 0.0000 0.0000 5.0000 457.900 0.0000 0.0000 5.0000 424.900 0.0000 0.0000 5.0000 2.307 99.300 2.209           2.355 2.255 99.300 99.300 7.213 7.162 0.050
DSCMET_421 2018-01-07 04:45:00 118571 355.300 0.0000 0.0000 5.0000 457.600 0.0000 0.0000 5.0000 424.100 0.0000 0.0000 5.0000 2.432 99.300 2.334           2.538 2.321 99.400 99.300 7.277 7.226 0.051
DSCMET_421 2018-01-07 04:40:00 118570 355.300 0.0000 0.0000 5.0000 457.400 0.0000 0.0000 5.0000 423.500 0.0000 0.0000 5.0000 2.408 99.300 2.310           2.504 2.338 99.400 99.300 7.265 7.214 0.051
DSCMET_421 2018-01-07 04:35:00 118569 355.200 0.0000 0.0000 5.0000 457.300 0.0000 0.0000 5.0000 422.900 0.0000 0.0000 5.0000 2.365 99.300 2.267           2.404 2.337 99.400 99.200 7.243 7.192 0.051
DSCMET_421 2018-01-07 04:30:00 118568 355.200 0.0000 0.0000 5.0000 457.100 0.0000 0.0000 5.0000 422.800 0.0000 0.0000 5.0000 2.460 99.300 2.362           2.603 2.387 99.300 99.200 7.292 7.241 0.051
DSCMET_421 2018-01-07 04:25:00 118567 355.200 0.0000 0.0000 5.0000 456.900 0.0000 0.0000 5.0000 422.900 0.0000 0.0000 5.0000 2.396 99.300 2.298           2.421 2.338 99.300 99.200 7.259 7.208 0.051
DSCMET_421 2018-01-07 04:20:00 118566 355.200 0.0000 0.0000 5.0000 456.700 0.0000 0.0000 5.0000 423.100 0.0000 0.0000 5.0000 2.389 99.300 2.291           2.421 2.338 99.400 99.200 7.255 7.204 0.051
DSCMET_421 2018-01-07 04:15:00 118565 355.200 0.0000 0.0000 5.0000 456.600 0.0000 0.0000 5.0000 423.400 0.0000 0.0000 5.0000 2.401 99.300 2.303           2.453 2.353 99.400 99.200 7.261 7.210 0.051
DSCMET_421 2018-01-07 04:10:00 118564 355.200 0.0000 0.0000 5.0000 456.600 0.0000 0.0000 5.0000 423.500 0.0000 0.0000 5.0000 2.392 99.300 2.294           2.437 2.338 99.400 99.200 7.257 7.206 0.051
DSCMET_421 2018-01-07 04:05:00 118563 355.200 0.0000 0.0000 5.0000 456.400 0.0000 0.0000 5.0000 423.400 0.0000 0.0000 5.0000 2.500 99.000 2.359           2.619 2.404 99.200 98.600 7.313 7.239 0.073
DSCMET_421 2018-01-07 04:00:00 118562 355.200 0.0000 0.0000 5.0000 456.200 0.0000 0.0000 5.0000 423.400 0.0000 0.0000 5.0000 2.651 99.000 2.510           2.769 2.570 99.400 98.600 7.392 7.318 0.074
DSCMET_421 2018-01-07 03:55:00 118561 355.200 0.0000 0.0000 5.0000 456.400 0.0000 0.0000 5.0000 423.400 0.0000 0.0000 5.0000 2.456 99.300 2.358           2.653 2.337 99.300 99.200 7.290 7.239 0.051
DSCMET_421 2018-01-07 03:50:00 118560 355.200 0.0000 0.0000 5.0000 456.000 0.0000 0.0000 5.0000 421.800 0.0000 0.0000 5.0000 2.431 99.300 2.333           2.587 2.320 99.400 99.200 7.277 7.226 0.051
DSCMET_421 2018-01-07 03:45:00 118559 355.200 0.0000 0.0000 5.0000 455.600 0.0000 0.0000 5.0000 420.500 0.0000 0.0000 5.0000 2.514 99.300 2.415           2.619 2.420 99.300 99.300 7.320 7.269 0.051
DSCMET_421 2018-01-07 03:40:00 118558 355.100 0.0000 0.0000 5.0000 455.200 0.0000 0.0000 5.0000 419.300 0.0000 0.0000 5.0000 2.519 99.300 2.420           2.652 2.420 99.400 99.300 7.323 7.271 0.051
DSCMET_421 2018-01-07 03:35:00 118557 354.900 0.0000 0.0000 5.0000 455.000 0.0000 0.0000 5.0000 418.000 0.0000 0.0000 5.0000 2.497 99.300 2.398           2.602 2.403 99.400 99.300 7.311 7.260 0.051
DSCMET_421 2018-01-07 03:30:00 118556 354.900 0.0000 0.0000 5.0000 454.700 0.0000 0.0000 5.0000 417.100 0.0000 0.0000 5.0000 2.600 99.300 2.501           2.702 2.502 99.300 99.300 7.365 7.313 0.052
DSCMET_421 2018-01-07 03:25:00 118555 355.000 0.0000 0.0000 5.0000 454.800 0.0000 0.0000 5.0000 416.200 0.0000 0.0000 5.0000 2.501 99.300 2.402           2.635 2.369 99.400 99.200 7.313 7.262 0.051
DSCMET_421 2018-01-07 03:20:00 118554 354.900 0.0000 0.0000 5.0000 454.500 0.0000 0.0000 5.0000 414.400 0.0000 0.0000 5.0000 2.399 99.300 2.301           2.453 2.336 99.400 99.300 7.260 7.209 0.051
DSCMET_421 2018-01-07 03:15:00 118553 354.900 0.0000 0.0000 5.0000 454.100 0.0000 0.0000 5.0000 412.000 0.0000 0.0000 5.0000 2.485 99.300 2.386           2.536 2.419 99.400 99.200 7.305 7.254 0.051
DSCMET_421 2018-01-07 03:10:00 118552 354.700 0.0000 0.0000 5.0000 453.500 0.0000 0.0000 5.0000 409.500 0.0000 0.0000 5.0000 2.537 99.300 2.438           2.569 2.519 99.400 99.300 7.332 7.281 0.051
DSCMET_421 2018-01-07 03:05:00 118551 354.600 0.0000 0.0000 5.0000 453.000 0.0000 0.0000 5.0000 407.200 0.0000 0.0000 5.0000 2.616 99.300 2.517           2.685 2.535 99.400 99.300 7.373 7.322 0.052
DSCMET_421 2018-01-07 03:00:00 118550 354.600 0.0000 0.0000 5.0000 452.600 0.0000 0.0000 5.0000 405.700 0.0000 0.0000 5.0000 2.667 99.300 2.568           2.718 2.602 99.400 99.200 7.400 7.348 0.052
DSCMET_421 2018-01-07 02:55:00 118549 354.600 0.0000 0.0000 5.0000 452.100 0.0000 0.0000 5.0000 404.100 0.0000 0.0000 5.0000 2.665 99.300 2.566           2.702 2.635 99.400 99.300 7.399 7.347 0.052
DSCMET_421 2018-01-07 02:50:00 118548 354.600 0.0000 0.0000 5.0000 451.700 0.0000 0.0000 5.0000 402.500 0.0000 0.0000 5.0000 2.673 99.300 2.574           2.735 2.619 99.400 99.300 7.403 7.351 0.052
DSCMET_421 2018-01-07 02:45:00 118547 354.600 0.0000 0.0000 5.0000 451.200 0.0000 0.0000 5.0000 401.200 0.0000 0.0000 5.0000 2.693 99.300 2.594           2.735 2.635 99.400 99.300 7.414 7.362 0.052
DSCMET_421 2018-01-07 02:40:00 118546 354.700 0.0000 0.0000 5.0000 450.400 0.0000 0.0000 5.0000 399.700 0.0000 0.0000 5.0000 2.685 99.300 2.586           2.734 2.634 99.400 99.300 7.410 7.358 0.052
DSCMET_421 2018-01-07 02:35:00 118545 355.700 0.0000 0.0000 5.0000 449.900 0.0000 0.0000 5.0000 397.900 0.0000 0.0000 5.0000 2.672 99.300 2.573           2.701 2.634 99.400 99.300 7.403 7.351 0.052
DSCMET_421 2018-01-07 02:30:00 118544 360.300 0.0000 0.0000 5.0000 449.400 0.0000 0.0000 5.0000 396.100 0.0000 0.0000 5.0000 2.672 99.300 2.573           2.734 2.601 99.400 99.300 7.403 7.351 0.052
DSCMET_421 2018-01-07 02:25:00 118543 359.800 0.0000 0.0000 5.0000 449.000 0.0000 0.0000 5.0000 394.200 0.0000 0.0000 5.0000 2.716 99.300 2.617           2.735 2.668 99.300 99.300 7.426 7.374 0.052
DSCMET_421 2018-01-07 02:20:00 118542 359.700 0.0000 0.0000 5.0000 448.600 0.0000 0.0000 5.0000 392.500 0.0000 0.0000 5.0000 2.743 99.300 2.644           2.784 2.701 99.400 99.200 7.440 7.388 0.052
DSCMET_421 2018-01-07 02:15:00 118541 359.400 0.0000 0.0000 5.0000 448.200 0.0000 0.0000 5.0000 390.700 0.0000 0.0000 5.0000 2.900 99.300 2.801           3.065 2.783 99.400 99.200 7.524 7.471 0.053
DSCMET_421 2018-01-07 02:10:00 118540 359.100 0.0000 0.0000 5.0000 447.900 0.0000 0.0000 5.0000 389.300 0.0000 0.0000 5.0000 3.048 99.300 2.949           3.215 2.883 99.400 99.300 7.603 7.550 0.053
DSCMET_421 2018-01-07 02:05:00 118539 359.400 0.0000 0.0000 5.0000 447.400 0.0000 0.0000 5.0000 388.300 0.0000 0.0000 5.0000 2.998 99.300 2.899           3.115 2.865 99.400 99.300 7.576 7.523 0.053
DSCMET_421 2018-01-07 02:00:00 118538 359.500 0.0000 0.0000 5.0000 446.900 0.0000 0.0000 5.0000 386.800 0.0000 0.0000 5.0000 2.937 99.300 2.838           2.965 2.882 99.400 99.300 7.544 7.491 0.053
DSCMET_421 2018-01-07 01:55:00 118537 358.900 0.0000 0.0000 5.0000 446.500 0.0000 0.0000 5.0000 384.900 0.0000 0.0000 5.0000 2.899 99.300 2.800           2.949 2.849 99.400 99.300 7.523 7.471 0.053
DSCMET_421 2018-01-07 01:50:00 118536 357.500 0.0000 0.0000 5.0000 446.000 0.0000 0.0000 5.0000 382.600 0.0000 0.0000 5.0000 2.937 99.300 2.838           2.998 2.866 99.400 99.300 7.544 7.491 0.053
DSCMET_421 2018-01-07 01:45:00 118535 357.500 0.0000 0.0000 5.0000 445.300 0.0000 0.0000 5.0000 380.400 0.0000 0.0000 5.0000 2.959 99.300 2.860           3.014 2.915 99.300 99.300 7.555 7.502 0.053
DSCMET_421 2018-01-07 01:40:00 118534 357.400 0.0000 0.0000 5.0000 444.700 0.0000 0.0000 5.0000 378.500 0.0000 0.0000 5.0000 2.966 99.300 2.867           2.998 2.931 99.400 99.300 7.559 7.506 0.053
DSCMET_421 2018-01-07 01:35:00 118533 357.100 0.0000 0.0000 5.0000 444.100 0.0000 0.0000 5.0000 376.500 0.0000 0.0000 5.0000 2.985 99.300 2.886           3.031 2.931 99.400 99.300 7.569 7.516 0.053
DSCMET_421 2018-01-07 01:30:00 118532 356.800 0.0000 0.0000 5.0000 443.700 0.0000 0.0000 5.0000 374.400 0.0000 0.0000 5.0000 3.012 99.300 2.913           3.064 2.948 99.400 99.300 7.584 7.531 0.053
DSCMET_421 2018-01-07 01:25:00 118531 356.500 0.0000 0.0000 5.0000 443.100 0.0000 0.0000 5.0000 372.600 0.0000 0.0000 5.0000 3.046 99.300 2.947           3.114 2.981 99.400 99.300 7.602 7.549 0.053
DSCMET_421 2018-01-07 01:20:00 118530 356.400 0.0000 0.0000 5.0000 442.600 0.0000 0.0000 5.0000 370.700 0.0000 0.0000 5.0000 3.098 99.300 2.999           3.164 3.047 99.400 99.300 7.630 7.577 0.053
DSCMET_421 2018-01-07 01:15:00 118529 356.200 0.0000 0.0000 5.0000 442.200 0.0000 0.0000 5.0000 368.800 0.0000 0.0000 5.0000 3.136 99.300 3.037           3.165 3.064 99.400 99.300 7.651 7.597 0.054
DSCMET_421 2018-01-07 01:10:00 118528 355.900 0.0000 0.0000 5.0000 441.800 0.0000 0.0000 5.0000 367.100 0.0000 0.0000 5.0000 3.151 99.300 3.052           3.214 3.064 99.400 99.300 7.659 7.605 0.054
DSCMET_421 2018-01-07 01:05:00 118527 355.700 0.0000 0.0000 5.0000 441.300 0.0000 0.0000 5.0000 365.900 0.0000 0.0000 5.0000 3.227 99.300 3.128           3.281 3.181 99.400 99.300 7.700 7.646 0.054
DSCMET_421 2018-01-07 01:00:00 118526 355.500 0.0000 0.0000 5.0000 441.000 0.0000 0.0000 5.0000 364.900 0.0000 0.0000 5.0000 3.397 99.300 3.298           3.613 3.198 99.400 99.300 7.793 7.739 0.055
DSCMET_421 2018-01-07 00:55:00 118525 355.500 0.0000 0.0000 5.0000 441.000 0.0000 0.0000 5.0000 364.600 0.0000 0.0000 5.0000 3.345 99.300 3.246           3.447 3.247 99.400 99.200 7.765 7.711 0.054
DSCMET_421 2018-01-07 00:50:00 118524 355.300 0.0000 0.0000 5.0000 440.700 0.0000 0.0000 5.0000 363.700 0.0000 0.0000 5.0000 3.238 99.300 3.139           3.280 3.181 99.400 99.300 7.706 7.652 0.054
DSCMET_421 2018-01-07 00:45:00 118523 355.100 0.0000 0.0000 5.0000 440.500 0.0000 0.0000 5.0000 362.200 0.0000 0.0000 5.0000 3.255 99.300 3.156           3.280 3.197 99.300 99.300 7.716 7.662 0.054
DSCMET_421 2018-01-07 00:40:00 118522 354.900 0.0000 0.0000 5.0000 440.100 0.0000 0.0000 5.0000 361.200 0.0000 0.0000 5.0000 3.324 99.300 3.225           3.396 3.230 99.400 99.300 7.753 7.699 0.054
DSCMET_421 2018-01-07 00:35:00 118521 354.700 0.0000 0.0000 5.0000 439.800 0.0000 0.0000 5.0000 360.600 0.0000 0.0000 5.0000 3.331 99.300 3.232           3.396 3.246 99.400 99.300 7.757 7.703 0.054
DSCMET_421 2018-01-07 00:30:00 118520 354.500 0.0000 0.0000 5.0000 439.500 0.0000 0.0000 5.0000 359.900 0.0000 0.0000 5.0000 3.349 99.300 3.250           3.396 3.313 99.400 99.300 7.767 7.713 0.054
DSCMET_421 2018-01-07 00:25:00 118519 354.300 0.0000 0.0000 5.0000 439.000 0.0000 0.0000 5.0000 358.600 0.0000 0.0000 5.0000 3.338 99.300 3.239           3.362 3.311 99.400 99.300 7.761 7.707 0.054
DSCMET_421 2018-01-07 00:20:00 118518 354.200 0.0000 0.0000 5.0000 438.500 0.0000 0.0000 5.0000 357.200 0.0000 0.0000 5.0000 3.346 99.300 3.247           3.378 3.312 99.400 99.300 7.765 7.711 0.054
DSCMET_421 2018-01-07 00:15:00 118517 354.200 0.0000 0.0000 5.0000 437.900 0.0000 0.0000 5.0000 355.200 0.0000 0.0000 5.0000 3.340 99.300 3.241           3.395 3.262 99.400 99.300 7.762 7.708 0.054
DSCMET_421 2018-01-07 00:10:00 118516 353.900 0.0000 0.0000 5.0000 437.200 0.0000 0.0000 5.0000 353.300 0.0000 0.0000 5.0000 3.379 99.300 3.280           3.477 3.295 99.400 99.300 7.784 7.729 0.054
DSCMET_421 2018-01-07 00:05:00 118515 353.500 0.0000 0.0000 5.0000 436.900 0.0000 0.0000 5.0000 351.500 0.0000 0.0000 5.0000 3.458 99.300 3.359           3.494 3.378 99.300 99.200 7.827 7.772 0.055
DSCMET_421 2018-01-07 00:00:00 118514 353.700 0.0000 0.0000 5.0000 436.900 0.0000 0.0000 5.0000 350.000 0.0000 0.0000 5.0000 3.563 99.000 3.421           3.627 3.478 99.300 98.400 7.885 7.807 0.079
DSCMET_421 2018-01-06 23:55:00 118513 353.600 0.0000 0.0000 5.0000 437.000 0.0000 0.0000 5.0000 350.100 0.0000 0.0000 5.0000 3.747 97.800 3.432           3.909 3.610 99.300 96.400 7.989 7.813 0.176
DSCMET_421 2018-01-06 23:50:00 118512 353.900 0.0000 0.0000 5.0000 437.600 0.0000 0.0000 5.0000 352.000 0.0000 0.0000 5.0000 3.526 99.300 3.427           3.611 3.478 99.300 99.300 7.865 7.810 0.055
DSCMET_421 2018-01-06 23:45:00 118511 354.200 0.0000 0.0000 5.0000 437.900 0.0000 0.0000 5.0000 352.900 0.0000 0.0000 5.0000 3.509 99.200 3.395           3.544 3.477 99.300 99.000 7.855 7.793 0.063
DSCMET_421 2018-01-06 23:40:00 118510 354.200 0.0000 0.0000 5.0000 438.000 0.0000 0.0000 5.0000 353.800 0.0000 0.0000 5.0000 3.632 98.300 3.389           3.727 3.494 99.000 97.600 7.924 7.789 0.135
DSCMET_421 2018-01-06 23:35:00 118509 354.300 0.0000 0.0000 5.0000 438.400 0.0000 0.0000 5.0000 355.700 0.0000 0.0000 5.0000 3.664 98.800 3.493           3.810 3.494 99.300 97.400 7.942 7.847 0.095
DSCMET_421 2018-01-06 23:30:00 118508 354.500 0.0000 0.0000 5.0000 438.900 0.0000 0.0000 5.0000 356.700 0.0000 0.0000 5.0000 3.510 99.200 3.396           3.577 3.444 99.300 98.700 7.856 7.793 0.063
DSCMET_421 2018-01-06 23:25:00 118507 354.500 0.0000 0.0000 5.0000 439.200 0.0000 0.0000 5.0000 356.500 0.0000 0.0000 5.0000 3.714 98.000 3.428           3.859 3.543 98.700 97.400 7.970 7.811 0.159
DSCMET_421 2018-01-06 23:20:00 118506 354.500 0.0000 0.0000 5.0000 439.600 0.0000 0.0000 5.0000 358.000 0.0000 0.0000 5.0000 3.675 98.500 3.461           3.776 3.577 98.900 97.900 7.948 7.829 0.119
DSCMET_421 2018-01-06 23:15:00 118505 354.300 0.0000 0.0000 5.0000 439.900 0.0000 0.0000 5.0000 359.600 0.0000 0.0000 5.0000 3.602 98.600 3.403           3.693 3.493 99.100 97.500 7.907 7.797 0.111
DSCMET_421 2018-01-06 23:10:00 118504 354.200 0.0000 0.0000 5.0000 440.000 0.0000 0.0000 5.0000 360.500 0.0000 0.0000 5.0000 3.754 97.600 3.410           3.842 3.626 99.200 96.600 7.992 7.801 0.192
DSCMET_421 2018-01-06 23:05:00 118503 354.400 0.0000 0.0000 5.0000 440.700 0.0000 0.0000 5.0000 362.000 0.0000 0.0000 5.0000 3.581 99.300 3.482           3.643 3.542 99.400 99.300 7.895 7.840 0.055
DSCMET_421 2018-01-06 23:00:00 118502 354.700 0.0000 0.0000 5.0000 441.200 0.0000 0.0000 5.0000 362.800 0.0000 0.0000 5.0000 3.601 99.300 3.502           3.692 3.526 99.400 99.300 7.907 7.851 0.055
DSCMET_421 2018-01-06 22:55:00 118501 354.800 0.0000 0.0000 5.0000 441.200 0.0000 0.0000 5.0000 363.200 0.0000 0.0000 5.0000 3.673 99.000 3.531           3.709 3.608 99.300 98.300 7.947 7.867 0.079
DSCMET_421 2018-01-06 22:50:00 118500 354.800 0.0000 0.0000 5.0000 441.600 0.0000 0.0000 5.0000 363.500 0.0000 0.0000 5.0000 3.758 97.900 3.457           3.857 3.658 98.800 97.400 7.995 7.827 0.168
DSCMET_421 2018-01-06 22:45:00 118499 355.100 0.0000 0.0000 5.0000 441.800 0.0000 0.0000 5.0000 364.600 0.0000 0.0000 5.0000 3.679 98.400 3.451           3.708 3.642 98.700 98.300 7.950 7.823 0.127
DSCMET_421 2018-01-06 22:40:00 118498 354.900 0.0000 0.0000 5.0000 442.000 0.0000 0.0000 5.0000 365.600 0.0000 0.0000 5.0000 3.717 98.400 3.489           3.775 3.675 98.800 98.200 7.972 7.844 0.128
DSCMET_421 2018-01-06 22:35:00 118497 355.200 0.0000 0.0000 5.0000 442.300 0.0000 0.0000 5.0000 367.200 0.0000 0.0000 5.0000 3.666 99.100 3.538           3.742 3.608 99.200 98.800 7.943 7.872 0.071
DSCMET_421 2018-01-06 22:30:00 118496 355.200 0.0000 0.0000 5.0000 442.600 0.0000 0.0000 5.0000 368.000 0.0000 0.0000 5.0000 3.715 97.900 3.415           3.808 3.675 98.800 96.600 7.971 7.803 0.167
DSCMET_421 2018-01-06 22:25:00 118495 355.500 0.0000 0.0000 5.0000 443.000 0.0000 0.0000 5.0000 370.100 0.0000 0.0000 5.0000 3.823 96.600 3.333           3.874 3.758 97.200 96.100 8.031 7.758 0.273
DSCMET_421 2018-01-06 22:20:00 118494 356.100 0.0000 0.0000 5.0000 444.900 0.0000 0.0000 5.0000 373.900 0.0000 0.0000 5.0000 3.787 97.500 3.428           3.891 3.691 98.200 96.700 8.011 7.811 0.200
DSCMET_421 2018-01-06 22:15:00 118493 356.800 0.0000 0.0000 5.0000 446.400 0.0000 0.0000 5.0000 377.100 0.0000 0.0000 5.0000 3.731 97.900 3.430           3.775 3.675 98.000 97.700 7.980 7.812 0.168
DSCMET_421 2018-01-06 22:10:00 118492 357.300 0.0000 0.0000 5.0000 447.400 0.0000 0.0000 5.0000 379.600 0.0000 0.0000 5.0000 3.793 97.000 3.362           3.891 3.708 97.800 96.200 8.014 7.774 0.240
DSCMET_421 2018-01-06 22:05:00 118491 358.100 0.0000 0.0000 5.0000 448.800 0.0000 0.0000 5.0000 383.100 0.0000 0.0000 5.0000 3.879 96.000 3.301           3.991 3.791 96.600 95.200 8.063 7.741 0.323
DSCMET_421 2018-01-06 22:00:00 118490 359.800 0.0000 0.0000 5.0000 451.400 0.0000 0.0000 5.0000 388.100 0.0000 0.0000 5.0000 3.954 96.200 3.405           4.090 3.858 97.700 95.300 8.106 7.798 0.308
DSCMET_421 2018-01-06 21:55:00 118489 361.300 0.0000 0.0000 5.0000 454.300 0.0000 0.0000 5.0000 392.900 0.0000 0.0000 5.0000 3.852 98.000 3.566           3.907 3.808 98.300 97.700 8.048 7.887 0.161
DSCMET_421 2018-01-06 21:50:00 118488 361.900 0.0000 0.0000 5.0000 455.300 0.0000 0.0000 5.0000 395.600 0.0000 0.0000 5.0000 3.898 97.800 3.583           3.941 3.841 98.100 97.500 8.074 7.896 0.178
DSCMET_421 2018-01-06 21:45:00 118487 363.000 0.0000 0.0000 5.0000 456.800 0.0000 0.0000 5.0000 399.100 0.0000 0.0000 5.0000 3.874 98.800 3.703           3.924 3.825 99.300 98.100 8.060 7.964 0.097
DSCMET_421 2018-01-06 21:40:00 118486 363.900 0.0000 0.0000 5.0000 458.600 0.0000 0.0000 5.0000 401.700 0.0000 0.0000 5.0000 3.900 99.300 3.800           3.941 3.825 99.300 99.300 8.075 8.019 0.057
DSCMET_421 2018-01-06 21:35:00 118485 364.500 0.0000 0.0000 5.0000 459.800 0.0000 0.0000 5.0000 403.800 0.0000 0.0000 5.0000 3.962 99.300 3.862           4.041 3.908 99.400 99.300 8.110 8.054 0.057
DSCMET_421 2018-01-06 21:30:00 118484 365.400 0.0000 0.0000 5.0000 461.500 0.0000 0.0000 5.0000 405.900 0.0000 0.0000 5.0000 4.007 99.300 3.907           4.057 3.957 99.400 99.200 8.136 8.079 0.057
DSCMET_421 2018-01-06 21:25:00 118483 366.100 0.0000 0.0000 5.0000 463.000 0.0000 0.0000 5.0000 407.800 0.0000 0.0000 5.0000 3.937 99.300 3.837           4.024 3.857 99.400 99.300 8.096 8.040 0.057
DSCMET_421 2018-01-06 21:20:00 118482 366.100 0.0000 0.0000 5.0000 463.200 0.0000 0.0000 5.0000 407.800 0.0000 0.0000 5.0000 3.938 99.300 3.838           3.990 3.857 99.400 99.300 8.097 8.040 0.057
DSCMET_421 2018-01-06 21:15:00 118481 366.000 0.0000 0.0000 5.0000 462.900 0.0000 0.0000 5.0000 407.300 0.0000 0.0000 5.0000 3.989 99.300 3.889           4.040 3.941 99.400 99.300 8.126 8.069 0.057
DSCMET_421 2018-01-06 21:10:00 118480 365.900 0.0000 0.0000 5.0000 462.800 0.0000 0.0000 5.0000 406.700 0.0000 0.0000 5.0000 3.947 99.300 3.847           4.007 3.891 99.400 99.300 8.102 8.045 0.057
DSCMET_421 2018-01-06 21:05:00 118479 365.800 0.0000 0.0000 5.0000 462.800 0.0000 0.0000 5.0000 406.000 0.0000 0.0000 5.0000 3.955 99.300 3.855           4.024 3.874 99.400 99.300 8.106 8.050 0.057
DSCMET_421 2018-01-06 21:00:00 118478 365.800 0.0000 0.0000 5.0000 462.600 0.0000 0.0000 5.0000 405.500 0.0000 0.0000 5.0000 3.979 99.300 3.879           4.024 3.924 99.400 99.300 8.120 8.063 0.057
DSCMET_421 2018-01-06 20:55:00 118477 365.800 0.0000 0.0000 5.0000 462.700 0.0000 0.0000 5.0000 405.200 0.0000 0.0000 5.0000 3.970 99.300 3.870           4.007 3.940 99.400 99.300 8.115 8.058 0.057
DSCMET_421 2018-01-06 20:50:00 118476 365.800 0.0000 0.0000 5.0000 462.300 0.0000 0.0000 5.0000 404.900 0.0000 0.0000 5.0000 3.932 99.300 3.832           4.023 3.874 99.400 99.300 8.093 8.037 0.057
DSCMET_421 2018-01-06 20:45:00 118475 365.800 0.0000 0.0000 5.0000 462.100 0.0000 0.0000 5.0000 404.300 0.0000 0.0000 5.0000 3.871 99.300 3.771           3.924 3.791 99.400 99.300 8.059 8.002 0.056
DSCMET_421 2018-01-06 20:40:00 118474 365.800 0.0000 0.0000 5.0000 462.200 0.0000 0.0000 5.0000 403.900 0.0000 0.0000 5.0000 3.882 99.300 3.782           3.941 3.841 99.300 99.300 8.065 8.008 0.056
DSCMET_421 2018-01-06 20:35:00 118473 365.600 0.0000 0.0000 5.0000 462.100 0.0000 0.0000 5.0000 403.200 0.0000 0.0000 5.0000 3.914 99.300 3.814           3.957 3.857 99.400 99.300 8.083 8.027 0.057
DSCMET_421 2018-01-06 20:30:00 118472 365.400 0.0000 0.0000 5.0000 461.800 0.0000 0.0000 5.0000 401.900 0.0000 0.0000 5.0000 3.921 99.300 3.821           3.974 3.874 99.400 99.300 8.087 8.030 0.057
DSCMET_421 2018-01-06 20:25:00 118471 365.100 0.0000 0.0000 5.0000 461.600 0.0000 0.0000 5.0000 400.400 0.0000 0.0000 5.0000 3.904 99.300 3.804           3.957 3.857 99.400 99.300 8.077 8.021 0.057
DSCMET_421 2018-01-06 20:20:00 118470 365.100 0.0000 0.0000 5.0000 461.500 0.0000 0.0000 5.0000 399.600 0.0000 0.0000 5.0000 3.881 99.300 3.781           3.908 3.841 99.400 99.300 8.064 8.008 0.056
DSCMET_421 2018-01-06 20:15:00 118469 365.100 0.0000 0.0000 5.0000 461.300 0.0000 0.0000 5.0000 398.600 0.0000 0.0000 5.0000 3.904 99.300 3.804           3.974 3.841 99.400 99.200 8.077 8.021 0.057
DSCMET_421 2018-01-06 20:10:00 118468 365.100 0.0000 0.0000 5.0000 461.000 0.0000 0.0000 5.0000 397.400 0.0000 0.0000 5.0000 3.916 99.300 3.816           3.957 3.857 99.400 99.300 8.084 8.028 0.057
DSCMET_421 2018-01-06 20:05:00 118467 365.100 0.0000 0.0000 5.0000 460.800 0.0000 0.0000 5.0000 396.300 0.0000 0.0000 5.0000 3.858 99.300 3.758           3.908 3.808 99.300 99.300 8.051 7.995 0.056
DSCMET_421 2018-01-06 20:00:00 118466 365.100 0.0000 0.0000 5.0000 460.400 0.0000 0.0000 5.0000 395.000 0.0000 0.0000 5.0000 3.830 99.300 3.730           3.890 3.740 99.400 99.300 8.035 7.979 0.056
DSCMET_421 2018-01-06 19:55:00 118465 365.100 0.0000 0.0000 5.0000 460.100 0.0000 0.0000 5.0000 393.400 0.0000 0.0000 5.0000 3.753 99.300 3.653           3.790 3.708 99.400 99.300 7.992 7.936 0.056
DSCMET_421 2018-01-06 19:50:00 118464 365.100 0.0000 0.0000 5.0000 459.600 0.0000 0.0000 5.0000 391.300 0.0000 0.0000 5.0000 3.769 99.300 3.669           3.824 3.708 99.400 99.300 8.001 7.945 0.056
DSCMET_421 2018-01-06 19:45:00 118463 364.800 0.0000 0.0000 5.0000 458.900 0.0000 0.0000 5.0000 387.900 0.0000 0.0000 5.0000 3.770 99.300 3.670           3.840 3.724 99.400 99.300 8.002 7.945 0.056
DSCMET_421 2018-01-06 19:40:00 118462 364.100 0.0000 0.0000 5.0000 457.500 0.0000 0.0000 5.0000 382.500 0.0000 0.0000 5.0000 3.836 99.300 3.736           3.873 3.790 99.300 99.300 8.039 7.983 0.056
DSCMET_421 2018-01-06 19:35:00 118461 363.600 0.0000 0.0000 5.0000 456.100 0.0000 0.0000 5.0000 376.000 0.0000 0.0000 5.0000 3.836 99.300 3.736           3.888 3.773 99.400 99.300 8.039 7.983 0.056
DSCMET_421 2018-01-06 19:30:00 118460 363.300 0.0000 0.0000 5.0000 455.100 0.0000 0.0000 5.0000 369.900 0.0000 0.0000 5.0000 3.900 99.300 3.800           3.937 3.821 99.400 99.200 8.075 8.019 0.057
DSCMET_421 2018-01-06 19:25:00 118459 363.100 0.0000 0.0000 5.0000 454.100 0.0000 0.0000 5.0000 364.600 0.0000 0.0000 5.0000 3.923 99.300 3.823           4.037 3.838 99.300 99.300 8.088 8.032 0.057
DSCMET_421 2018-01-06 19:20:00 118458 362.800 0.0000 0.0000 5.0000 453.300 0.0000 0.0000 5.0000 359.800 0.0000 0.0000 5.0000 4.035 99.300 3.935           4.103 3.987 99.400 99.300 8.152 8.095 0.057
DSCMET_421 2018-01-06 19:15:00 118457 362.200 0.0000 0.0000 5.0000 452.400 0.0000 0.0000 5.0000 356.000 0.0000 0.0000 5.0000 4.072 99.300 3.972           4.136 4.020 99.400 99.300 8.174 8.116 0.057
DSCMET_421 2018-01-06 19:10:00 118456 361.900 0.0000 0.0000 5.0000 451.800 0.0000 0.0000 5.0000 352.800 0.0000 0.0000 5.0000 4.052 99.300 3.952           4.120 3.987 99.400 99.300 8.162 8.105 0.057
DSCMET_421 2018-01-06 19:05:00 118455 361.800 0.0000 0.0000 5.0000 451.200 0.0000 0.0000 5.0000 350.800 0.0000 0.0000 5.0000 4.116 99.300 4.016           4.186 4.053 99.400 99.300 8.199 8.141 0.057
DSCMET_421 2018-01-06 19:00:00 118454 361.000 0.0000 0.0000 5.0000 450.500 0.0000 0.0000 5.0000 347.300 0.0000 0.0000 5.0000 4.182 99.300 4.082           4.252 4.086 99.400 99.300 8.237 8.179 0.058
DSCMET_421 2018-01-06 18:55:00 118453 360.800 0.0000 0.0000 5.0000 449.700 0.0000 0.0000 5.0000 343.200 0.0000 0.0000 5.0000 4.183 99.300 4.083           4.235 4.119 99.400 99.300 8.238 8.180 0.058
DSCMET_421 2018-01-06 18:50:00 118452 360.300 0.0000 0.0000 5.0000 449.000 0.0000 0.0000 5.0000 338.800 0.0000 0.0000 5.0000 4.184 99.300 4.084           4.285 4.052 99.400 99.300 8.238 8.180 0.058
DSCMET_421 2018-01-06 18:45:00 118451 359.900 0.0000 0.0000 5.0000 447.400 0.0000 0.0000 5.0000 333.900 0.0000 0.0000 5.0000 4.187 99.300 4.087           4.268 4.102 99.400 99.300 8.240 8.182 0.058
DSCMET_421 2018-01-06 18:40:00 118450 359.500 0.0000 0.0000 5.0000 446.300 0.0000 0.0000 5.0000 329.300 0.0000 0.0000 5.0000 4.290 99.300 4.190           4.384 4.152 99.400 99.300 8.300 8.242 0.058
DSCMET_421 2018-01-06 18:35:00 118449 359.000 0.0000 0.0000 5.0000 445.400 0.0000 0.0000 5.0000 324.600 0.0000 0.0000 5.0000 4.390 99.300 4.290           4.433 4.318 99.400 99.300 8.358 8.300 0.059
DSCMET_421 2018-01-06 18:30:00 118448 358.700 0.0000 0.0000 5.0000 444.700 0.0000 0.0000 5.0000 320.400 0.0000 0.0000 5.0000 4.447 99.300 4.347           4.500 4.367 99.400 99.200 8.392 8.333 0.059
DSCMET_421 2018-01-06 18:25:00 118447 358.500 0.0000 0.0000 5.0000 443.800 0.0000 0.0000 5.0000 316.800 0.0000 0.0000 5.0000 4.512 99.300 4.412           4.649 4.433 99.300 99.300 8.430 8.371 0.059
DSCMET_421 2018-01-06 18:20:00 118446 358.200 0.0000 0.0000 5.0000 443.000 0.0000 0.0000 5.0000 313.900 0.0000 0.0000 5.0000 4.641 99.300 4.541           4.699 4.599 99.300 99.300 8.506 8.447 0.060
DSCMET_421 2018-01-06 18:15:00 118445 358.100 0.0000 0.0000 5.0000 442.400 0.0000 0.0000 5.0000 311.400 0.0000 0.0000 5.0000 4.593 99.300 4.493           4.649 4.498 99.400 99.300 8.478 8.419 0.059
DSCMET_421 2018-01-06 18:10:00 118444 358.000 0.0000 0.0000 5.0000 441.800 0.0000 0.0000 5.0000 309.700 0.0000 0.0000 5.0000 4.678 99.300 4.578           4.781 4.498 99.400 99.300 8.529 8.469 0.060
DSCMET_421 2018-01-06 18:05:00 118443 357.800 0.0000 0.0000 5.0000 441.300 0.0000 0.0000 5.0000 306.800 0.0000 0.0000 5.0000 4.650 99.300 4.550           4.681 4.598 99.400 99.300 8.512 8.452 0.060
DSCMET_421 2018-01-06 18:00:00 118442 357.300 0.0000 0.0000 5.0000 440.900 0.0000 0.0000 5.0000 304.700 0.0000 0.0000 5.0000 4.706 99.300 4.606           4.814 4.648 99.400 99.300 8.545 8.485 0.060
DSCMET_421 2018-01-06 17:55:00 118441 357.100 0.0000 0.0000 5.0000 440.400 0.0000 0.0000 5.0000 303.100 0.0000 0.0000 5.0000 4.742 99.300 4.642           4.830 4.681 99.300 99.300 8.567 8.507 0.060
DSCMET_421 2018-01-06 17:50:00 118440 357.100 0.0000 0.0000 5.0000 440.100 0.0000 0.0000 5.0000 301.700 0.0000 0.0000 5.0000 4.841 99.300 4.741           4.913 4.731 99.400 99.300 8.626 8.566 0.060
DSCMET_421 2018-01-06 17:45:00 118439 356.900 0.0000 0.0000 5.0000 440.000 0.0000 0.0000 5.0000 300.700 0.0000 0.0000 5.0000 4.731 99.300 4.631           4.813 4.680 99.400 99.300 8.560 8.500 0.060
DSCMET_421 2018-01-06 17:40:00 118438 356.800 0.0000 0.0000 5.0000 439.500 0.0000 0.0000 5.0000 300.200 0.0000 0.0000 5.0000 4.831 99.300 4.731           4.879 4.763 99.400 99.200 8.620 8.560 0.060
DSCMET_421 2018-01-06 17:35:00 118437 356.700 0.0000 0.0000 5.0000 439.500 0.0000 0.0000 5.0000 299.400 0.0000 0.0000 5.0000 4.758 99.300 4.658           4.862 4.697 99.400 99.300 8.576 8.516 0.060
DSCMET_421 2018-01-06 17:30:00 118436 356.500 0.0000 0.0000 5.0000 439.400 0.0000 0.0000 5.0000 298.400 0.0000 0.0000 5.0000 4.735 99.300 4.635           4.812 4.679 99.400 99.300 8.563 8.503 0.060
DSCMET_421 2018-01-06 17:25:00 118435 356.400 0.0000 0.0000 5.0000 439.100 0.0000 0.0000 5.0000 297.800 0.0000 0.0000 5.0000 4.750 99.300 4.650           4.795 4.679 99.300 99.300 8.572 8.512 0.060
DSCMET_421 2018-01-06 17:20:00 118434 356.400 0.0000 0.0000 5.0000 439.100 0.0000 0.0000 5.0000 297.400 0.0000 0.0000 5.0000 4.741 99.300 4.641           4.827 4.694 99.400 99.300 8.566 8.506 0.060
DSCMET_421 2018-01-06 17:15:00 118433 356.400 0.0000 0.0000 5.0000 438.900 0.0000 0.0000 5.0000 296.800 0.0000 0.0000 5.0000 4.802 99.300 4.702           4.843 4.760 99.400 99.300 8.603 8.543 0.060
DSCMET_421 2018-01-06 17:10:00 118432 356.400 0.0000 0.0000 5.0000 438.800 0.0000 0.0000 5.0000 296.600 0.0000 0.0000 5.0000 4.752 99.300 4.652           4.777 4.710 99.400 99.300 8.573 8.513 0.060
DSCMET_421 2018-01-06 17:05:00 118431 356.400 0.0000 0.0000 5.0000 438.800 0.0000 0.0000 5.0000 296.400 0.0000 0.0000 5.0000 4.728 99.300 4.628           4.792 4.676 99.400 99.300 8.558 8.499 0.060
DSCMET_421 2018-01-06 17:00:00 118430 356.400 0.0000 0.0000 5.0000 438.600 0.0000 0.0000 5.0000 296.300 0.0000 0.0000 5.0000 4.728 99.300 4.628           4.775 4.659 99.400 99.300 8.558 8.499 0.060
DSCMET_421 2018-01-06 16:55:00 118429 356.100 0.0000 0.0000 5.0000 438.400 0.0000 0.0000 5.0000 296.300 0.0000 0.0000 5.0000 4.762 99.300 4.662           4.807 4.708 99.400 99.300 8.579 8.519 0.060
DSCMET_421 2018-01-06 16:50:00 118428 356.000 0.0000 0.0000 5.0000 438.100 0.0000 0.0000 5.0000 295.900 0.0000 0.0000 5.0000 4.776 99.300 4.676           4.840 4.706 99.300 99.200 8.587 8.527 0.060
DSCMET_421 2018-01-06 16:45:00 118427 355.700 0.0000 0.0000 5.0000 437.600 0.0000 0.0000 5.0000 294.400 0.0000 0.0000 5.0000 4.786 99.300 4.686           4.839 4.740 99.400 99.300 8.593 8.533 0.060
DSCMET_421 2018-01-06 16:40:00 118426 355.500 0.0000 0.0000 5.0000 436.700 0.0000 0.0000 5.0000 291.200 0.0000 0.0000 5.0000 4.824 99.300 4.724           4.888 4.738 99.400 99.300 8.616 8.556 0.060
DSCMET_421 2018-01-06 16:35:00 118425 355.200 0.0000 0.0000 5.0000 435.800 0.0000 0.0000 5.0000 287.200 0.0000 0.0000 5.0000 4.925 99.300 4.824           5.003 4.837 99.300 99.300 8.677 8.616 0.061
DSCMET_421 2018-01-06 16:30:00 118424 354.900 0.0000 0.0000 5.0000 435.000 0.0000 0.0000 5.0000 283.800 0.0000 3.0000 2.0000 5.017 99.300 4.916           5.085 4.919 99.300 99.300 8.733 8.672 0.061
DSCMET_421 2018-01-06 16:25:00 118423 354.400 0.0000 0.0000 5.0000 434.100 0.0000 0.0000 5.0000 280.400 0.0000 5.0000 0.0000 5.110 99.300 5.009           5.199 5.050 99.400 99.300 8.790 8.728 0.062
DSCMET_421 2018-01-06 16:20:00 118422 353.800 0.0000 0.0000 5.0000 433.000 0.0000 0.0000 5.0000 278.000 0.0000 5.0000 0.0000 5.178 99.300 5.077           5.248 5.082 99.400 99.200 8.832 8.770 0.062
DSCMET_421 2018-01-06 16:15:00 118421 353.500 0.0000 0.0000 5.0000 431.800 0.0000 0.0000 5.0000 275.400 0.0000 5.0000 0.0000 5.329 99.100 5.199           5.529 5.164 99.300 98.900 8.925 8.845 0.080
DSCMET_421 2018-01-06 16:10:00 118420 353.200 0.0000 0.0000 5.0000 430.500 0.0000 0.0000 5.0000 273.000 4.7500 0.2500 0.0000 5.571 98.500 5.354           5.661 5.479 98.900 98.200 9.076 8.940 0.136
DSCMET_421 2018-01-06 16:05:00 118419 352.800 0.0000 0.0000 5.0000 429.600 0.0000 0.0000 5.0000 270.900 5.0000 0.0000 0.0000 5.594 97.800 5.274           5.759 5.510 98.100 97.500 9.091 8.891 0.200
DSCMET_421 2018-01-06 16:00:00 118418 352.500 0.0000 0.0000 5.0000 428.800 0.0000 0.0000 5.0000 269.400 5.0000 0.0000 0.0000 5.775 96.900 5.322           5.875 5.692 97.600 96.100 9.206 8.921 0.285
DSCMET_421 2018-01-06 15:55:00 118417 352.200 0.0000 0.0000 5.0000 428.100 0.0000 0.0000 5.0000 267.800 5.0000 0.0000 0.0000 6.015 92.900 4.956           6.124 5.858 96.500 91.300 9.360 8.696 0.665
DSCMET_421 2018-01-06 15:50:00 118416 352.000 0.0000 0.0000 5.0000 427.800 0.0000 0.0000 5.0000 267.700 5.0000 0.0000 0.0000 6.164 91.500 4.886           6.306 6.090 94.700 88.400 9.457 8.653 0.804
DSCMET_421 2018-01-06 15:45:00 118415 351.700 0.0000 0.0000 5.0000 427.400 0.0000 0.0000 5.0000 267.600 5.0000 0.0000 0.0000 6.432 90.000 4.914           6.853 6.057 93.800 84.300 9.634 8.671 0.963
DSCMET_421 2018-01-06 15:40:00 118414 351.600 0.0000 0.0000 5.0000 427.300 0.0000 0.0000 5.0000 267.600 5.0000 0.0000 0.0000 6.889 87.500 4.961           6.986 6.687 90.400 83.800 9.942 8.699 1.243
DSCMET_421 2018-01-06 15:35:00 118413 351.600 0.0000 0.0000 5.0000 427.300 0.0000 0.0000 5.0000 267.600 5.0000 0.0000 0.0000 6.911 89.300 5.275           7.201 6.553 92.700 84.700 9.957 8.892 1.065
DSCMET_421 2018-01-06 15:30:00 118412 351.400 0.0000 0.0000 5.0000 427.300 0.0000 0.0000 5.0000 267.400 5.0000 0.0000 0.0000 7.150 86.900 5.120           7.250 7.001 91.300 85.300 10.122 8.796 1.326
DSCMET_421 2018-01-06 15:25:00 118411 351.600 0.0000 0.0000 5.0000 427.400 0.0000 0.0000 5.0000 267.400 5.0000 0.0000 0.0000 7.077 87.800 5.195           7.233 6.984 89.300 86.700 10.071 8.842 1.229
DSCMET_421 2018-01-06 15:20:00 118410 351.600 0.0000 0.0000 5.0000 427.700 0.0000 0.0000 5.0000 267.400 5.0000 0.0000 0.0000 7.007 87.900 5.143           7.100 6.885 91.900 85.500 10.023 8.810 1.213
DSCMET_421 2018-01-06 15:15:00 118409 351.600 0.0000 0.0000 5.0000 427.700 0.0000 0.0000 5.0000 267.300 5.0000 0.0000 0.0000 7.233 87.300 5.267           7.399 7.084 90.600 84.800 10.179 8.887 1.293
DSCMET_421 2018-01-06 15:10:00 118408 351.700 0.0000 0.0000 5.0000 428.000 0.0000 0.0000 5.0000 267.300 5.0000 0.0000 0.0000 7.706 85.800 5.483           7.881 7.516 90.800 83.000 10.514 9.021 1.493
DSCMET_421 2018-01-06 15:05:00 118407 351.900 0.0000 0.0000 5.0000 428.200 0.0000 0.0000 5.0000 267.300 5.0000 0.0000 0.0000 7.784 85.800 5.560           7.898 7.616 90.400 82.700 10.570 9.069 1.501
DSCMET_421 2018-01-06 15:00:00 118406 352.300 0.0000 0.0000 5.0000 428.300 0.0000 0.0000 5.0000 267.500 5.0000 0.0000 0.0000 7.839 85.400 5.546           7.949 7.650 90.300 81.900 10.610 9.061 1.549
DSCMET_421 2018-01-06 14:55:00 118405 352.400 0.0000 0.0000 5.0000 428.700 0.0000 0.0000 5.0000 267.400 5.0000 0.0000 0.0000 8.120 86.800 6.057           8.310 7.865 92.100 82.500 10.815 9.387 1.428
DSCMET_421 2018-01-06 14:50:00 118404 352.600 0.0000 0.0000 5.0000 429.000 0.0000 0.0000 5.0000 267.500 5.0000 0.0000 0.0000 8.180 88.900 6.462           8.450 7.983 93.300 83.700 10.859 9.654 1.205
DSCMET_421 2018-01-06 14:45:00 118403 352.600 0.0000 0.0000 5.0000 429.000 0.0000 0.0000 5.0000 267.600 5.0000 0.0000 0.0000 8.110 87.700 6.196           8.380 7.834 91.100 83.900 10.808 9.478 1.329
DSCMET_421 2018-01-06 14:40:00 118402 352.700 0.0000 0.0000 5.0000 429.100 0.0000 0.0000 5.0000 267.600 5.0000 0.0000 0.0000 8.260 86.200 6.094           8.380 7.967 92.100 82.600 10.918 9.412 1.507
DSCMET_421 2018-01-06 14:35:00 118401 352.900 0.0000 0.0000 5.0000 429.600 0.0000 0.0000 5.0000 267.700 5.0000 0.0000 0.0000 8.170 85.000 5.803           8.350 7.984 91.200 82.300 10.852 9.224 1.628
DSCMET_421 2018-01-06 14:30:00 118400 353.400 0.0000 0.0000 5.0000 429.900 0.0000 0.0000 5.0000 267.700 5.0000 0.0000 0.0000 8.330 86.800 6.263           8.530 8.180 92.400 78.730 10.970 9.522 1.448
DSCMET_421 2018-01-06 14:25:00 118399 353.700 0.0000 0.0000 5.0000 430.200 0.0000 0.0000 5.0000 268.000 5.0000 0.0000 0.0000 8.450 85.800 6.213           8.630 8.180 91.200 82.300 11.060 9.490 1.571
DSCMET_421 2018-01-06 14:20:00 118398 354.100 0.0000 0.0000 5.0000 431.000 0.0000 0.0000 5.0000 268.200 5.0000 0.0000 0.0000 8.590 83.600 5.975           8.810 8.380 89.300 80.700 11.166 9.335 1.831
DSCMET_421 2018-01-06 14:15:00 118397 354.500 0.0000 0.0000 5.0000 431.300 0.0000 0.0000 5.0000 268.000 5.0000 0.0000 0.0000 8.260 82.800 5.514           8.420 8.120 86.200 78.380 10.918 9.040 1.878
DSCMET_421 2018-01-06 14:10:00 118396 354.600 0.0000 0.0000 5.0000 431.600 0.0000 0.0000 5.0000 267.900 5.0000 0.0000 0.0000 8.380 82.700 5.614           8.710 8.030 90.500 77.460 11.008 9.103 1.904
DSCMET_421 2018-01-06 14:05:00 118395 355.400 0.0000 0.0000 5.0000 431.900 0.0000 0.0000 5.0000 267.900 5.0000 0.0000 0.0000 8.500 82.300 5.661           8.730 8.230 87.900 77.260 11.098 9.133 1.964
DSCMET_421 2018-01-06 14:00:00 118394 356.300 0.0000 0.0000 5.0000 432.700 0.0000 0.0000 5.0000 268.800 5.0000 0.0000 0.0000 8.530 86.500 6.410           8.930 7.719 94.000 78.290 11.120 9.619 1.501
DSCMET_421 2018-01-06 13:55:00 118393 356.800 0.0000 0.0000 5.0000 433.100 0.0000 0.0000 5.0000 269.300 5.0000 0.0000 0.0000 7.556 91.400 6.247           7.686 7.404 94.300 86.200 10.407 9.512 0.895
DSCMET_421 2018-01-06 13:50:00 118392 357.200 0.0000 0.0000 5.0000 433.100 0.0000 0.0000 5.0000 270.600 5.0000 0.0000 0.0000 7.855 80.700 4.750           7.969 7.587 89.300 77.090 10.622 8.572 2.050
DSCMET_421 2018-01-06 13:45:00 118391 358.000 0.0000 0.0000 5.0000 433.900 0.0000 0.0000 5.0000 275.700 1.0000 4.0000 0.0000 7.991 88.000 6.128           8.170 7.704 93.500 80.800 10.720 9.434 1.286
DSCMET_421 2018-01-06 13:40:00 118390 358.600 0.0000 0.0000 5.0000 434.400 0.0000 0.0000 5.0000 285.600 0.0000 2.2500 2.7500 8.420 86.000 6.218           8.620 8.270 93.100 77.920 11.038 9.492 1.545
DSCMET_421 2018-01-06 13:35:00 118389 359.900 0.0000 0.0000 5.0000 435.300 0.0000 0.0000 5.0000 304.600 0.0000 0.0000 5.0000 8.760 87.800 6.853           9.170 8.480 95.000 79.000 11.295 9.917 1.378
DSCMET_421 2018-01-06 13:30:00 118388 361.200 0.0000 0.0000 5.0000 436.500 0.0000 0.0000 5.0000 325.700 0.0000 0.0000 5.0000 7.604 94.100 6.717           8.350 7.256 97.700 88.300 10.441 9.825 0.616
DSCMET_421 2018-01-06 13:25:00 118387 356.700 0.0000 0.0000 5.0000 437.300 0.0000 0.0000 5.0000 335.700 0.0000 0.0000 5.0000 7.046 95.200 6.331           7.207 6.924 97.700 89.900 10.050 9.567 0.482
DSCMET_421 2018-01-06 13:20:00 118386 346.000 0.0000 0.0000 5.0000 437.700 0.0000 0.0000 5.0000 341.600 0.0000 0.0000 5.0000 7.103 97.500 6.735           7.357 6.941 98.500 96.500 10.089 9.837 0.252
DSCMET_421 2018-01-06 13:15:00 118385 346.200 0.0000 0.0000 5.0000 437.500 0.0000 0.0000 5.0000 346.000 0.0000 0.0000 5.0000 7.094 96.600 6.591           7.207 6.941 98.000 93.800 10.083 9.740 0.343
DSCMET_421 2018-01-06 13:10:00 118384 346.400 0.0000 0.0000 5.0000 437.900 0.0000 0.0000 5.0000 349.800 0.0000 0.0000 5.0000 7.312 91.200 5.974           7.408 7.125 93.100 89.600 10.235 9.334 0.901
DSCMET_421 2018-01-06 13:05:00 118383 346.600 0.0000 0.0000 5.0000 438.200 0.0000 0.0000 5.0000 345.700 0.0000 0.0000 5.0000 7.340 90.100 5.827           7.590 7.059 93.900 85.400 10.254 9.239 1.015
DSCMET_421 2018-01-06 13:00:00 118382 345.000 0.0000 0.0000 5.0000 436.600 0.0000 0.0000 5.0000 305.000 0.0000 0.0000 5.0000 7.488 95.100 6.756           7.840 7.059 96.500 93.200 10.359 9.851 0.508
DSCMET_421 2018-01-06 12:55:00 118381 344.300 0.0000 0.0000 5.0000 436.300 0.0000 0.0000 5.0000 271.800 4.0000 0.7500 0.2500 7.233 94.700 6.441           7.326 7.060 95.600 93.400 10.179 9.640 0.540
DSCMET_421 2018-01-06 12:50:00 118380 344.900 0.0000 0.0000 5.0000 436.900 0.0000 0.0000 5.0000 268.700 5.0000 0.0000 0.0000 7.268 94.700 6.476           7.475 7.043 98.200 92.200 10.204 9.663 0.541
DSCMET_421 2018-01-06 12:45:00 118379 346.500 0.0000 0.0000 5.0000 437.500 0.0000 0.0000 5.0000 268.900 5.0000 0.0000 0.0000 6.255 96.500 5.740           7.059 5.946 99.300 92.200 9.517 9.184 0.333
DSCMET_421 2018-01-06 12:40:00 118378 350.000 0.0000 0.0000 5.0000 439.000 0.0000 0.0000 5.0000 269.400 5.0000 0.0000 0.0000 5.931 99.300 5.830           6.245 5.746 99.300 99.200 9.306 9.241 0.065
DSCMET_421 2018-01-06 12:35:00 118377 351.000 0.0000 0.0000 5.0000 439.400 0.0000 0.0000 5.0000 269.000 5.0000 0.0000 0.0000 5.626 99.300 5.525           5.796 5.546 99.300 99.200 9.111 9.047 0.064
DSCMET_421 2018-01-06 12:30:00 118376 351.200 0.0000 0.0000 5.0000 439.600 0.0000 0.0000 5.0000 269.000 5.0000 0.0000 0.0000 5.568 99.300 5.467           5.646 5.480 99.400 99.200 9.075 9.011 0.064
DSCMET_421 2018-01-06 12:25:00 118375 351.300 0.0000 0.0000 5.0000 439.500 0.0000 0.0000 5.0000 268.800 5.0000 0.0000 0.0000 5.571 99.300 5.470           5.612 5.512 99.300 99.300 9.076 9.013 0.064
DSCMET_421 2018-01-06 12:20:00 118374 351.600 0.0000 0.0000 5.0000 439.500 0.0000 0.0000 5.0000 268.700 5.0000 0.0000 0.0000 5.577 99.300 5.476           5.677 5.528 99.400 99.300 9.080 9.017 0.064
DSCMET_421 2018-01-06 12:15:00 118373 351.400 0.0000 0.0000 5.0000 439.600 0.0000 0.0000 5.0000 268.600 5.0000 0.0000 0.0000 5.563 99.200 5.447           5.710 5.495 99.300 99.000 9.071 8.999 0.073
DSCMET_421 2018-01-06 12:10:00 118372 353.700 0.0000 0.0000 5.0000 439.800 0.0000 0.0000 5.0000 268.500 5.0000 0.0000 0.0000 5.541 98.100 5.265           5.660 5.477 98.900 97.500 9.058 8.885 0.172
DSCMET_421 2018-01-06 12:05:00 118371 355.200 0.0000 0.0000 5.0000 440.000 0.0000 0.0000 5.0000 268.300 5.0000 0.0000 0.0000 5.745 98.000 5.454           5.975 5.527 98.600 97.400 9.187 9.003 0.184
DSCMET_421 2018-01-06 12:00:00 118370 356.800 0.0000 0.0000 5.0000 439.800 0.0000 0.0000 5.0000 268.000 5.0000 0.0000 0.0000 5.723 98.000 5.432           5.875 5.609 98.600 97.500 9.173 8.989 0.183
DSCMET_421 2018-01-06 11:55:00 118369 350.200 0.0000 0.0000 5.0000 439.500 0.0000 0.0000 5.0000 268.100 5.0000 0.0000 0.0000 5.922 97.700 5.587           6.406 5.642 99.200 97.000 9.300 9.086 0.214
DSCMET_421 2018-01-06 11:50:00 118368 353.200 0.0000 0.0000 5.0000 439.900 0.0000 0.0000 5.0000 268.800 5.0000 0.0000 0.0000 5.644 98.500 5.427           6.240 5.477 99.100 98.300 9.123 8.986 0.137
DSCMET_421 2018-01-06 11:45:00 118367 354.000 0.0000 0.0000 5.0000 440.700 0.0000 0.0000 5.0000 268.400 5.0000 0.0000 0.0000 5.425 98.100 5.150           5.477 5.360 98.400 97.400 8.985 8.814 0.171
DSCMET_421 2018-01-06 11:40:00 118366 353.700 0.0000 0.0000 5.0000 440.400 0.0000 0.0000 5.0000 268.200 5.0000 0.0000 0.0000 5.695 96.400 5.168           6.059 5.461 97.500 95.100 9.155 8.825 0.330
DSCMET_421 2018-01-06 11:35:00 118365 353.800 0.0000 0.0000 5.0000 440.300 0.0000 0.0000 5.0000 268.300 5.0000 0.0000 0.0000 6.056 97.400 5.676           6.243 5.844 98.400 96.100 9.387 9.143 0.244
DSCMET_421 2018-01-06 11:30:00 118364 354.100 0.0000 0.0000 5.0000 440.100 0.0000 0.0000 5.0000 267.600 5.0000 0.0000 0.0000 6.176 96.600 5.677           6.460 5.927 97.500 95.100 9.465 9.143 0.322
DSCMET_421 2018-01-06 11:25:00 118363 354.500 0.0000 0.0000 5.0000 439.700 0.0000 0.0000 5.0000 268.000 5.0000 0.0000 0.0000 6.285 94.700 5.499           6.527 6.063 96.100 93.300 9.537 9.031 0.505
DSCMET_421 2018-01-06 11:20:00 118362 355.900 0.0000 0.0000 5.0000 440.300 0.0000 0.0000 5.0000 268.300 5.0000 0.0000 0.0000 6.464 97.600 6.112           6.976 5.881 98.400 94.700 9.655 9.423 0.232
DSCMET_421 2018-01-06 11:15:00 118361 357.100 0.0000 0.0000 5.0000 441.500 0.0000 0.0000 5.0000 268.700 5.0000 0.0000 0.0000 6.199 96.700 5.714           6.812 5.914 99.100 95.600 9.480 9.167 0.313
DSCMET_421 2018-01-06 11:10:00 118360 358.200 0.0000 0.0000 5.0000 443.200 0.0000 0.0000 5.0000 269.200 5.0000 0.0000 0.0000 5.628 98.400 5.396           6.812 5.103 99.300 97.400 9.112 8.967 0.146
DSCMET_421 2018-01-06 11:05:00 118359 359.000 0.0000 0.0000 5.0000 443.500 0.0000 0.0000 5.0000 268.200 5.0000 0.0000 0.0000 5.482 96.300 4.941           5.852 5.203 97.300 95.400 9.020 8.687 0.334
DSCMET_421 2018-01-06 11:00:00 118358 359.300 0.0000 0.0000 5.0000 443.300 0.0000 0.0000 5.0000 268.300 5.0000 0.0000 0.0000 6.318 94.400 5.486           6.767 5.752 95.600 92.200 9.558 9.023 0.535
DSCMET_421 2018-01-06 10:55:00 118357 363.900 0.0000 0.0000 5.0000 444.100 0.0000 0.0000 5.0000 268.300 5.0000 0.0000 0.0000 6.400 89.100 4.739           6.636 6.219 91.400 87.800 9.613 8.565 1.048
DSCMET_421 2018-01-06 10:50:00 118356 368.100 0.0000 0.0000 5.0000 446.900 0.0000 0.0000 5.0000 269.100 5.0000 0.0000 0.0000 6.372 95.700 5.737           6.670 5.758 99.000 89.900 9.594 9.182 0.413
DSCMET_421 2018-01-06 10:45:00 118355 367.600 0.0000 0.0000 5.0000 451.700 0.0000 0.0000 5.0000 269.300 5.0000 0.0000 0.0000 6.061 97.900 5.755           6.341 5.758 98.400 97.500 9.390 9.193 0.197
DSCMET_421 2018-01-06 10:40:00 118354 371.000 0.0000 0.0000 5.0000 458.000 0.0000 0.0000 5.0000 270.800 5.0000 0.0000 0.0000 5.943 99.100 5.813           6.341 5.428 99.400 98.100 9.314 9.230 0.084
DSCMET_421 2018-01-06 10:35:00 118353 372.400 0.0000 0.0000 5.0000 465.200 0.0000 0.0000 5.0000 273.800 3.0000 2.0000 0.0000 5.392 99.300 5.291           5.496 5.329 99.300 99.300 8.964 8.901 0.063
DSCMET_421 2018-01-06 10:30:00 118352 373.200 0.0000 0.0000 5.0000 469.100 0.0000 0.0000 5.0000 276.800 0.0000 5.0000 0.0000 5.448 99.300 5.347           5.696 5.247 99.300 99.200 8.999 8.936 0.063
DSCMET_421 2018-01-06 10:25:00 118351 374.300 0.0000 0.0000 5.0000 470.200 0.0000 0.0000 5.0000 290.600 0.0000 1.2500 3.7500 5.055 99.300 4.954           5.180 4.931 99.400 99.300 8.756 8.695 0.061
DSCMET_421 2018-01-06 10:20:00 118350 376.000 0.0000 0.0000 5.0000 471.600 0.0000 0.0000 5.0000 303.500 0.0000 0.0000 5.0000 4.897 99.300 4.796           4.981 4.832 99.300 99.200 8.660 8.600 0.061
DSCMET_421 2018-01-06 10:15:00 118349 377.300 0.0000 0.0000 5.0000 472.900 0.0000 0.0000 5.0000 303.800 0.0000 0.0000 5.0000 4.942 99.300 4.841           4.998 4.882 99.300 99.300 8.687 8.627 0.061
DSCMET_421 2018-01-06 10:10:00 118348 377.800 0.0000 0.0000 5.0000 472.600 0.0000 0.0000 5.0000 301.400 0.0000 0.0000 5.0000 4.965 99.300 4.864           5.048 4.899 99.300 99.300 8.701 8.640 0.061
DSCMET_421 2018-01-06 10:05:00 118347 378.400 0.0000 0.0000 5.0000 472.500 0.0000 0.0000 5.0000 296.400 0.0000 0.0000 5.0000 5.037 99.200 4.922           5.098 4.932 99.300 99.000 8.745 8.675 0.070
DSCMET_421 2018-01-06 10:00:00 118346 378.400 0.0000 0.0000 5.0000 472.600 0.0000 0.0000 5.0000 293.200 0.0000 0.0000 5.0000 5.006 98.900 4.848           5.081 4.932 99.100 98.700 8.726 8.630 0.096
DSCMET_421 2018-01-06 09:55:00 118345 374.800 0.0000 0.0000 5.0000 472.400 0.0000 0.0000 5.0000 291.200 0.0000 0.0000 5.0000 5.049 98.900 4.891           5.098 4.998 99.200 98.700 8.753 8.656 0.096
DSCMET_421 2018-01-06 09:50:00 118344 376.100 0.0000 0.0000 5.0000 469.500 0.0000 0.0000 5.0000 289.200 0.0000 0.0000 5.0000 5.118 98.900 4.959           5.214 5.032 99.000 98.800 8.795 8.698 0.097
DSCMET_421 2018-01-06 09:45:00 118343 378.000 0.0000 0.0000 5.0000 468.200 0.0000 0.0000 5.0000 287.000 0.0000 0.0000 5.0000 5.145 99.300 5.044           5.248 5.081 99.300 99.100 8.811 8.750 0.062
DSCMET_421 2018-01-06 09:40:00 118342 378.500 0.0000 0.0000 5.0000 469.400 0.0000 0.0000 5.0000 287.300 0.0000 0.0000 5.0000 5.191 98.900 5.032           5.248 5.082 99.200 98.700 8.840 8.742 0.097
DSCMET_421 2018-01-06 09:35:00 118341 378.700 0.0000 0.0000 5.0000 470.300 0.0000 0.0000 5.0000 289.700 0.0000 0.0000 5.0000 5.111 98.900 4.952           5.198 5.065 99.100 98.700 8.790 8.694 0.097
DSCMET_421 2018-01-06 09:30:00 118340 380.000 0.0000 0.0000 5.0000 471.700 0.0000 0.0000 5.0000 292.900 0.0000 0.0000 5.0000 5.152 97.800 4.833           5.232 5.033 98.900 96.700 8.816 8.622 0.194
DSCMET_421 2018-01-06 09:25:00 118339 378.200 0.0000 0.0000 5.0000 478.400 0.0000 0.0000 5.0000 300.600 0.0000 0.0000 5.0000 5.042 99.300 4.941           5.099 4.982 99.300 99.100 8.748 8.687 0.061
DSCMET_421 2018-01-06 09:20:00 118338 377.000 0.0000 0.0000 5.0000 482.000 0.0000 0.0000 5.0000 306.900 0.0000 0.0000 5.0000 4.980 99.300 4.879           5.049 4.883 99.400 99.300 8.710 8.650 0.061
DSCMET_421 2018-01-06 09:15:00 118337 373.900 0.0000 0.0000 5.0000 479.100 0.0000 0.0000 5.0000 315.500 0.0000 0.0000 5.0000 4.869 99.300 4.769           4.933 4.783 99.300 99.300 8.643 8.583 0.061
DSCMET_421 2018-01-06 09:10:00 118336 375.400 0.0000 0.0000 5.0000 481.100 0.0000 0.0000 5.0000 323.000 0.0000 0.0000 5.0000 4.791 99.300 4.691           4.866 4.734 99.400 99.300 8.596 8.536 0.060
DSCMET_421 2018-01-06 09:05:00 118335 376.000 0.0000 0.0000 5.0000 487.400 0.0000 0.0000 5.0000 330.800 0.0000 0.0000 5.0000 4.690 99.300 4.590           4.751 4.635 99.400 99.300 8.536 8.476 0.060
DSCMET_421 2018-01-06 09:00:00 118334 377.500 0.0000 0.0000 5.0000 486.700 0.0000 0.0000 5.0000 338.400 0.0000 0.0000 5.0000 4.720 99.300 4.620           4.867 4.618 99.400 99.300 8.554 8.494 0.060
DSCMET_421 2018-01-06 08:55:00 118333 378.300 0.0000 0.0000 5.0000 478.900 0.0000 0.0000 5.0000 345.300 0.0000 0.0000 5.0000 4.801 99.300 4.701           4.850 4.734 99.400 99.300 8.602 8.542 0.060
DSCMET_421 2018-01-06 08:50:00 118332 375.200 0.0000 0.0000 5.0000 479.600 0.0000 0.0000 5.0000 347.600 0.0000 0.0000 5.0000 4.773 99.300 4.673           4.834 4.734 99.400 99.300 8.585 8.525 0.060
DSCMET_421 2018-01-06 08:45:00 118331 378.500 0.0000 0.0000 5.0000 480.800 0.0000 0.0000 5.0000 338.400 0.0000 0.0000 5.0000 4.680 99.300 4.580           4.751 4.635 99.400 99.300 8.530 8.470 0.060
DSCMET_421 2018-01-06 08:40:00 118330 379.800 0.0000 0.0000 5.0000 484.000 0.0000 0.0000 5.0000 340.200 0.0000 0.0000 5.0000 4.671 99.300 4.571           4.734 4.634 99.400 99.300 8.524 8.465 0.060
DSCMET_421 2018-01-06 08:35:00 118329 374.400 0.0000 0.0000 5.0000 483.000 0.0000 0.0000 5.0000 340.100 0.0000 0.0000 5.0000 4.654 99.300 4.554           4.684 4.634 99.400 99.300 8.514 8.455 0.060
DSCMET_421 2018-01-06 08:30:00 118328 373.800 0.0000 0.0000 5.0000 484.900 0.0000 0.0000 5.0000 343.800 0.0000 0.0000 5.0000 4.647 99.300 4.547           4.684 4.618 99.400 99.300 8.510 8.450 0.060
DSCMET_421 2018-01-06 08:25:00 118327 374.300 0.0000 0.0000 5.0000 485.800 0.0000 0.0000 5.0000 344.200 0.0000 0.0000 5.0000 4.656 99.300 4.556           4.701 4.601 99.400 99.300 8.515 8.456 0.060
DSCMET_421 2018-01-06 08:20:00 118326 387.200 0.0000 0.0000 5.0000 484.300 0.0000 0.0000 5.0000 345.600 0.0000 0.0000 5.0000 4.665 99.300 4.565           4.717 4.601 99.400 99.300 8.521 8.461 0.060
DSCMET_421 2018-01-06 08:15:00 118325 390.800 0.0000 0.0000 5.0000 477.900 0.0000 0.0000 5.0000 348.100 0.0000 0.0000 5.0000 4.643 99.300 4.543           4.684 4.618 99.400 99.300 8.508 8.448 0.060
DSCMET_421 2018-01-06 08:10:00 118324 393.500 0.0000 0.0000 5.0000 476.200 0.0000 0.0000 5.0000 351.600 0.0000 0.0000 5.0000 4.639 99.300 4.539           4.684 4.585 99.400 99.300 8.505 8.446 0.060
DSCMET_421 2018-01-06 08:05:00 118323 394.900 0.0000 0.0000 5.0000 476.100 0.0000 0.0000 5.0000 351.500 0.0000 0.0000 5.0000 4.626 99.300 4.526           4.668 4.584 99.400 99.300 8.498 8.438 0.059
DSCMET_421 2018-01-06 08:00:00 118322 394.700 0.0000 0.0000 5.0000 475.900 0.0000 0.0000 5.0000 363.100 0.0000 0.0000 5.0000 4.597 99.300 4.497           4.634 4.551 99.400 99.300 8.480 8.421 0.059
DSCMET_421 2018-01-06 07:55:00 118321 396.600 0.0000 0.0000 5.0000 477.700 0.0000 0.0000 5.0000 356.700 0.0000 0.0000 5.0000 4.645 99.300 4.545           4.701 4.601 99.400 99.300 8.509 8.449 0.060
DSCMET_421 2018-01-06 07:50:00 118320 394.600 0.0000 0.0000 5.0000 482.000 0.0000 0.0000 5.0000 360.100 0.0000 0.0000 5.0000 4.645 99.300 4.545           4.701 4.601 99.400 99.300 8.509 8.449 0.060
DSCMET_421 2018-01-06 07:45:00 118319 396.500 0.0000 0.0000 5.0000 485.900 0.0000 0.0000 5.0000 364.600 0.0000 0.0000 5.0000 4.643 99.300 4.543           4.700 4.601 99.400 99.300 8.508 8.448 0.060
DSCMET_421 2018-01-06 07:40:00 118318 400.400 0.0000 0.0000 5.0000 488.900 0.0000 0.0000 5.0000 373.100 0.0000 0.0000 5.0000 4.669 99.300 4.569           4.717 4.617 99.400 99.300 8.523 8.463 0.060
DSCMET_421 2018-01-06 07:35:00 118317 397.800 0.0000 0.0000 5.0000 494.300 0.0000 0.0000 5.0000 384.700 0.0000 0.0000 5.0000 4.707 99.200 4.592           4.767 4.666 99.400 98.600 8.546 8.477 0.068
DSCMET_421 2018-01-06 07:30:00 118316 398.000 0.0000 0.0000 5.0000 507.500 0.0000 0.0000 5.0000 402.000 0.0000 0.0000 5.0000 4.750 96.800 4.286           4.849 4.650 98.500 95.400 8.572 8.297 0.274
DSCMET_421 2018-01-06 07:25:00 118315 401.900 0.0000 0.0000 5.0000 515.400 0.0000 0.0000 5.0000 418.200 0.0000 0.0000 5.0000 4.764 98.500 4.548           4.833 4.683 99.300 95.700 8.580 8.451 0.129
DSCMET_421 2018-01-06 07:20:00 118314 391.200 0.0000 0.0000 5.0000 499.300 0.0000 0.0000 5.0000 411.000 0.0000 0.0000 5.0000 4.766 99.300 4.666           4.800 4.733 99.400 99.300 8.581 8.521 0.060
DSCMET_421 2018-01-06 07:15:00 118313 391.900 0.0000 0.0000 5.0000 487.400 0.0000 0.0000 5.0000 376.200 0.0000 0.0000 5.0000 4.737 99.300 4.637           4.783 4.650 99.300 99.300 8.564 8.504 0.060
DSCMET_421 2018-01-06 07:10:00 118312 391.400 0.0000 0.0000 5.0000 489.300 0.0000 0.0000 5.0000 368.800 0.0000 0.0000 5.0000 4.762 99.300 4.662           4.832 4.716 99.300 99.300 8.579 8.519 0.060
DSCMET_421 2018-01-06 07:05:00 118311 389.200 0.0000 0.0000 5.0000 485.400 0.0000 0.0000 5.0000 342.300 0.0000 0.0000 5.0000 4.800 99.300 4.700           4.865 4.749 99.400 99.300 8.602 8.541 0.060
DSCMET_421 2018-01-06 07:00:00 118310 384.800 0.0000 0.0000 5.0000 489.500 0.0000 0.0000 5.0000 329.400 0.0000 0.0000 5.0000 4.811 99.300 4.711           4.865 4.766 99.300 99.200 8.608 8.548 0.060
DSCMET_421 2018-01-06 06:55:00 118309 385.500 0.0000 0.0000 5.0000 497.400 0.0000 0.0000 5.0000 333.800 0.0000 0.0000 5.0000 4.764 99.300 4.664           4.816 4.699 99.300 99.300 8.580 8.520 0.060
DSCMET_421 2018-01-06 06:50:00 118308 386.000 0.0000 0.0000 5.0000 496.700 0.0000 0.0000 5.0000 337.900 0.0000 0.0000 5.0000 4.773 99.300 4.673           4.832 4.716 99.400 99.300 8.585 8.525 0.060
DSCMET_421 2018-01-06 06:45:00 118307 391.700 0.0000 0.0000 5.0000 480.700 0.0000 0.0000 5.0000 337.800 0.0000 0.0000 5.0000 4.809 99.300 4.709           4.865 4.749 99.400 99.300 8.607 8.547 0.060
DSCMET_421 2018-01-06 06:40:00 118306 403.400 0.0000 0.0000 5.0000 486.500 0.0000 0.0000 5.0000 339.200 0.0000 0.0000 5.0000 4.839 99.300 4.739           4.898 4.782 99.400 99.200 8.625 8.565 0.060
DSCMET_421 2018-01-06 06:35:00 118305 396.600 0.0000 0.0000 5.0000 480.800 0.0000 0.0000 5.0000 344.100 0.0000 0.0000 5.0000 4.795 99.300 4.695           4.847 4.731 99.400 99.300 8.599 8.538 0.060
DSCMET_421 2018-01-06 06:30:00 118304 397.900 0.0000 0.0000 5.0000 473.600 0.0000 0.0000 5.0000 344.400 0.0000 0.0000 5.0000 4.843 99.300 4.743           4.897 4.781 99.300 99.300 8.628 8.567 0.060
DSCMET_421 2018-01-06 06:25:00 118303 401.200 0.0000 0.0000 5.0000 474.100 0.0000 0.0000 5.0000 344.800 0.0000 0.0000 5.0000 4.893 99.300 4.792           4.931 4.798 99.400 99.300 8.658 8.597 0.061
DSCMET_421 2018-01-06 06:20:00 118302 402.600 0.0000 0.0000 5.0000 473.900 0.0000 0.0000 5.0000 360.500 0.0000 0.0000 5.0000 4.906 99.300 4.805           4.981 4.847 99.300 98.900 8.666 8.605 0.061
DSCMET_421 2018-01-06 06:15:00 118301 406.400 0.0000 0.0000 5.0000 474.200 0.0000 0.0000 5.0000 343.000 0.0000 0.0000 5.0000 5.066 98.000 4.777           5.146 4.980 98.800 97.100 8.763 8.588 0.175
DSCMET_421 2018-01-06 06:10:00 118300 406.300 0.0000 0.0000 5.0000 473.600 0.0000 0.0000 5.0000 342.800 0.0000 0.0000 5.0000 5.019 99.300 4.918           5.063 4.980 99.300 99.000 8.734 8.673 0.061
DSCMET_421 2018-01-06 06:05:00 118299 402.700 0.0000 0.0000 5.0000 471.400 0.0000 0.0000 5.0000 345.000 0.0000 0.0000 5.0000 5.042 99.300 4.941           5.079 4.980 99.300 99.200 8.748 8.687 0.061
DSCMET_421 2018-01-06 06:00:00 118298 404.000 0.0000 0.0000 5.0000 471.200 0.0000 0.0000 5.0000 348.100 0.0000 0.0000 5.0000 5.025 99.300 4.924           5.129 4.930 99.400 99.300 8.738 8.677 0.061
DSCMET_421 2018-01-06 05:55:00 118297 398.300 0.0000 0.0000 5.0000 470.100 0.0000 0.0000 5.0000 348.600 0.0000 0.0000 5.0000 5.149 99.300 5.048           5.195 5.112 99.300 99.200 8.814 8.752 0.062
DSCMET_421 2018-01-06 05:50:00 118296 398.500 0.0000 0.0000 5.0000 474.800 0.0000 0.0000 5.0000 351.900 0.0000 0.0000 5.0000 5.173 99.100 5.043           5.261 5.129 99.400 98.600 8.829 8.749 0.079
DSCMET_421 2018-01-06 05:45:00 118295 399.500 0.0000 0.0000 5.0000 476.000 0.0000 0.0000 5.0000 356.700 0.0000 0.0000 5.0000 5.332 97.300 4.939           5.428 5.212 98.500 95.900 8.927 8.686 0.241
DSCMET_421 2018-01-06 05:40:00 118294 399.000 0.0000 0.0000 5.0000 479.600 0.0000 0.0000 5.0000 374.200 0.0000 0.0000 5.0000 5.467 94.900 4.716           5.544 5.311 97.200 93.000 9.011 8.552 0.460
DSCMET_421 2018-01-06 05:35:00 118293 400.500 0.0000 0.0000 5.0000 483.400 0.0000 0.0000 5.0000 384.200 0.0000 0.0000 5.0000 5.475 96.500 4.964           5.559 5.377 97.500 95.200 9.016 8.701 0.316
DSCMET_421 2018-01-06 05:30:00 118292 407.500 0.0000 0.0000 5.0000 478.900 0.0000 0.0000 5.0000 389.600 0.0000 0.0000 5.0000 5.671 93.700 4.737           5.742 5.543 95.500 92.800 9.140 8.564 0.576
DSCMET_421 2018-01-06 05:25:00 118291 435.100 0.0000 0.0000 5.0000 481.800 0.0000 0.0000 5.0000 379.100 0.0000 0.0000 5.0000 5.705 93.700 4.771           5.759 5.642 94.800 92.900 9.161 8.584 0.577
DSCMET_421 2018-01-06 05:20:00 118290 408.900 0.0000 0.0000 5.0000 487.200 0.0000 0.0000 5.0000 374.200 0.0000 0.0000 5.0000 5.712 95.300 5.020           5.759 5.609 97.200 94.600 9.166 8.735 0.431
DSCMET_421 2018-01-06 05:15:00 118289 426.000 0.0000 0.0000 5.0000 506.000 0.0000 0.0000 5.0000 383.700 0.0000 0.0000 5.0000 5.622 98.300 5.375           5.676 5.526 99.300 97.700 9.109 8.954 0.155
DSCMET_421 2018-01-06 05:10:00 118288 429.400 0.0000 0.0000 5.0000 517.200 0.0000 0.0000 5.0000 414.600 0.0000 0.0000 5.0000 5.671 99.300 5.570           5.742 5.593 99.400 99.300 9.140 9.076 0.064
DSCMET_421 2018-01-06 05:05:00 118287 435.200 0.0000 0.0000 5.0000 514.200 0.0000 0.0000 5.0000 409.900 0.0000 0.0000 5.0000 5.734 99.300 5.633           5.825 5.675 99.400 99.300 9.180 9.116 0.064
DSCMET_421 2018-01-06 05:00:00 118286 443.100 0.0000 0.0000 5.0000 521.300 0.0000 0.0000 5.0000 431.500 0.0000 0.0000 5.0000 5.682 99.300 5.581           5.726 5.609 99.400 99.300 9.147 9.083 0.064
DSCMET_421 2018-01-06 04:55:00 118285 450.700 0.0000 0.0000 5.0000 519.500 0.0000 0.0000 5.0000 430.300 0.0000 0.0000 5.0000 5.729 99.300 5.628           5.776 5.676 99.400 99.300 9.177 9.112 0.064
DSCMET_421 2018-01-06 04:50:00 118284 452.500 0.0000 0.0000 5.0000 529.900 0.0000 0.0000 5.0000 480.600 0.0000 0.0000 5.0000 5.743 99.300 5.642           5.809 5.693 99.400 99.300 9.185 9.121 0.064
DSCMET_421 2018-01-06 04:45:00 118283 466.600 0.0000 0.0000 5.0000 532.700 0.0000 0.0000 5.0000 472.400 0.0000 0.0000 5.0000 5.730 99.300 5.629           5.759 5.659 99.400 99.300 9.177 9.113 0.064
DSCMET_421 2018-01-06 04:40:00 118282 426.600 0.0000 0.0000 5.0000 518.600 0.0000 0.0000 5.0000 408.700 0.0000 0.0000 5.0000 5.740 99.300 5.639           5.776 5.709 99.400 99.300 9.184 9.119 0.064
DSCMET_421 2018-01-06 04:35:00 118281 409.100 0.0000 0.0000 5.0000 503.800 0.0000 0.0000 5.0000 401.000 0.0000 0.0000 5.0000 5.725 99.300 5.624           5.759 5.676 99.400 99.300 9.174 9.110 0.064
DSCMET_421 2018-01-06 04:30:00 118280 412.800 0.0000 0.0000 5.0000 500.100 0.0000 0.0000 5.0000 425.700 0.0000 0.0000 5.0000 5.739 99.300 5.638           5.791 5.692 99.400 99.300 9.183 9.119 0.064
DSCMET_421 2018-01-06 04:25:00 118279 408.400 0.0000 0.0000 5.0000 507.200 0.0000 0.0000 5.0000 467.200 0.0000 0.0000 5.0000 5.752 99.300 5.651           5.808 5.675 99.300 99.300 9.191 9.127 0.064
DSCMET_421 2018-01-06 04:20:00 118278 408.600 0.0000 0.0000 5.0000 491.600 0.0000 0.0000 5.0000 424.300 0.0000 0.0000 5.0000 5.752 99.300 5.651           5.791 5.708 99.400 99.300 9.191 9.127 0.064
DSCMET_421 2018-01-06 04:15:00 118277 410.900 0.0000 0.0000 5.0000 497.300 0.0000 0.0000 5.0000 431.800 0.0000 0.0000 5.0000 5.776 99.300 5.675           5.841 5.724 99.400 99.300 9.207 9.142 0.064
DSCMET_421 2018-01-06 04:10:00 118276 406.000 0.0000 0.0000 5.0000 497.300 0.0000 0.0000 5.0000 480.700 0.0000 0.0000 5.0000 5.735 99.300 5.634           5.791 5.708 99.400 99.300 9.180 9.116 0.064
DSCMET_421 2018-01-06 04:05:00 118275 398.100 0.0000 0.0000 5.0000 487.500 0.0000 0.0000 5.0000 516.500 0.0000 0.0000 5.0000 5.741 99.300 5.640           5.774 5.708 99.400 99.300 9.184 9.120 0.064
DSCMET_421 2018-01-06 04:00:00 118274 390.000 0.0000 0.0000 5.0000 471.000 0.0000 0.0000 5.0000 404.400 0.0000 0.0000 5.0000 5.739 99.300 5.638           5.791 5.691 99.400 99.300 9.183 9.119 0.064
DSCMET_421 2018-01-06 03:55:00 118273 391.400 0.0000 0.0000 5.0000 480.200 0.0000 0.0000 5.0000 401.000 0.0000 0.0000 5.0000 5.753 99.300 5.652           5.824 5.674 99.400 99.300 9.192 9.128 0.064
DSCMET_421 2018-01-06 03:50:00 118272 393.700 0.0000 0.0000 5.0000 487.300 0.0000 0.0000 5.0000 413.700 0.0000 0.0000 5.0000 5.737 99.300 5.636           5.774 5.707 99.400 99.300 9.182 9.117 0.064
DSCMET_421 2018-01-06 03:45:00 118271 390.700 0.0000 0.0000 5.0000 496.300 0.0000 0.0000 5.0000 402.900 0.0000 0.0000 5.0000 5.785 99.300 5.684           5.856 5.724 99.400 99.300 9.212 9.148 0.064
DSCMET_421 2018-01-06 03:40:00 118270 390.700 0.0000 0.0000 5.0000 501.400 0.0000 0.0000 5.0000 384.300 0.0000 0.0000 5.0000 5.857 99.300 5.756           5.906 5.790 99.400 99.300 9.258 9.194 0.065
DSCMET_421 2018-01-06 03:35:00 118269 381.000 0.0000 0.0000 5.0000 504.100 0.0000 0.0000 5.0000 380.900 0.0000 0.0000 5.0000 5.873 99.200 5.757           5.973 5.790 99.300 99.000 9.269 9.195 0.074
DSCMET_421 2018-01-06 03:30:00 118268 378.600 0.0000 0.0000 5.0000 497.400 0.0000 0.0000 5.0000 368.500 0.0000 0.0000 5.0000 5.964 98.900 5.804           6.006 5.923 99.200 98.800 9.327 9.225 0.103
DSCMET_421 2018-01-06 03:25:00 118267 376.500 0.0000 0.0000 5.0000 489.800 0.0000 0.0000 5.0000 364.800 0.0000 0.0000 5.0000 6.008 98.400 5.775           6.139 5.906 99.100 97.800 9.356 9.206 0.150
DSCMET_421 2018-01-06 03:20:00 118266 369.200 0.0000 0.0000 5.0000 485.900 0.0000 0.0000 5.0000 365.100 0.0000 0.0000 5.0000 6.027 98.900 5.867           6.106 5.989 99.200 98.200 9.368 9.265 0.103
DSCMET_421 2018-01-06 03:15:00 118265 367.000 0.0000 0.0000 5.0000 486.100 0.0000 0.0000 5.0000 368.000 0.0000 0.0000 5.0000 6.011 99.300 5.910           6.039 5.973 99.300 99.200 9.358 9.292 0.066
DSCMET_421 2018-01-06 03:10:00 118264 362.500 0.0000 0.0000 5.0000 479.800 0.0000 0.0000 5.0000 376.400 0.0000 0.0000 5.0000 5.976 99.300 5.875           6.023 5.923 99.300 99.300 9.335 9.270 0.065
DSCMET_421 2018-01-06 03:05:00 118263 362.100 0.0000 0.0000 5.0000 475.600 0.0000 0.0000 5.0000 390.100 0.0000 0.0000 5.0000 5.955 99.300 5.854           5.989 5.857 99.400 99.300 9.321 9.256 0.065
DSCMET_421 2018-01-06 03:00:00 118262 360.500 0.0000 0.0000 5.0000 472.100 0.0000 0.0000 5.0000 390.600 0.0000 0.0000 5.0000 5.965 99.300 5.864           6.006 5.906 99.300 99.300 9.328 9.263 0.065
DSCMET_421 2018-01-06 02:55:00 118261 358.200 0.0000 0.0000 5.0000 471.100 0.0000 0.0000 5.0000 375.800 0.0000 0.0000 5.0000 5.970 99.300 5.869           6.023 5.923 99.400 99.300 9.331 9.266 0.065
DSCMET_421 2018-01-06 02:50:00 118260 359.600 0.0000 0.0000 5.0000 470.300 0.0000 0.0000 5.0000 356.400 0.0000 0.0000 5.0000 5.982 99.300 5.881           6.039 5.939 99.400 99.300 9.339 9.274 0.065
DSCMET_421 2018-01-06 02:45:00 118259 377.400 0.0000 0.0000 5.0000 470.900 0.0000 0.0000 5.0000 338.100 0.0000 0.0000 5.0000 5.966 99.300 5.865           6.039 5.923 99.400 99.300 9.329 9.263 0.065
DSCMET_421 2018-01-06 02:40:00 118258 376.800 0.0000 0.0000 5.0000 471.600 0.0000 0.0000 5.0000 338.500 0.0000 0.0000 5.0000 5.956 99.300 5.855           5.989 5.906 99.400 99.300 9.322 9.257 0.065
DSCMET_421 2018-01-06 02:35:00 118257 378.300 0.0000 0.0000 5.0000 473.900 0.0000 0.0000 5.0000 341.300 0.0000 0.0000 5.0000 5.939 99.300 5.838           5.989 5.873 99.400 99.300 9.311 9.246 0.065
DSCMET_421 2018-01-06 02:30:00 118256 379.900 0.0000 0.0000 5.0000 473.600 0.0000 0.0000 5.0000 343.800 0.0000 0.0000 5.0000 5.972 99.300 5.871           6.006 5.906 99.400 99.300 9.332 9.267 0.065
DSCMET_421 2018-01-06 02:25:00 118255 379.900 0.0000 0.0000 5.0000 472.300 0.0000 0.0000 5.0000 345.100 0.0000 0.0000 5.0000 5.970 99.300 5.869           6.006 5.923 99.400 99.300 9.331 9.266 0.065
DSCMET_421 2018-01-06 02:20:00 118254 380.800 0.0000 0.0000 5.0000 473.000 0.0000 0.0000 5.0000 348.500 0.0000 0.0000 5.0000 5.986 99.300 5.885           6.039 5.939 99.400 99.300 9.341 9.276 0.065
DSCMET_421 2018-01-06 02:15:00 118253 384.100 0.0000 0.0000 5.0000 474.900 0.0000 0.0000 5.0000 353.200 0.0000 0.0000 5.0000 6.017 99.300 5.916           6.072 5.972 99.400 99.300 9.362 9.296 0.066
DSCMET_421 2018-01-06 02:10:00 118252 390.100 0.0000 0.0000 5.0000 477.400 0.0000 0.0000 5.0000 359.200 0.0000 0.0000 5.0000 6.038 99.200 5.922           6.072 5.972 99.300 98.800 9.375 9.300 0.075
DSCMET_421 2018-01-06 02:05:00 118251 392.600 0.0000 0.0000 5.0000 481.400 0.0000 0.0000 5.0000 366.000 0.0000 0.0000 5.0000 6.072 98.600 5.868           6.155 5.955 98.800 98.400 9.397 9.266 0.132
DSCMET_421 2018-01-06 02:00:00 118250 398.100 0.0000 0.0000 5.0000 489.900 0.0000 0.0000 5.0000 376.900 0.0000 0.0000 5.0000 6.195 97.400 5.814           6.271 6.072 98.300 97.000 9.478 9.231 0.246
DSCMET_421 2018-01-06 01:55:00 118249 394.400 0.0000 0.0000 5.0000 501.000 0.0000 0.0000 5.0000 383.700 0.0000 0.0000 5.0000 6.160 98.200 5.898           6.238 6.071 98.700 97.300 9.455 9.284 0.170
DSCMET_421 2018-01-06 01:50:00 118248 386.900 0.0000 0.0000 5.0000 490.100 0.0000 0.0000 5.0000 362.500 0.0000 0.0000 5.0000 6.195 98.000 5.903           6.304 6.089 98.600 97.100 9.478 9.288 0.190
DSCMET_421 2018-01-06 01:45:00 118247 380.100 0.0000 0.0000 5.0000 473.200 0.0000 0.0000 5.0000 329.800 0.0000 0.0000 5.0000 6.276 97.600 5.925           6.420 6.105 99.300 95.700 9.531 9.302 0.229
DSCMET_421 2018-01-06 01:40:00 118246 380.800 0.0000 0.0000 5.0000 472.300 0.0000 0.0000 5.0000 335.000 0.0000 0.0000 5.0000 6.097 99.300 5.995           6.172 6.055 99.300 99.100 9.414 9.348 0.066
DSCMET_421 2018-01-06 01:35:00 118245 380.600 0.0000 0.0000 5.0000 471.100 0.0000 0.0000 5.0000 328.300 0.0000 0.0000 5.0000 6.221 97.900 5.914           6.437 6.039 99.000 96.600 9.495 9.295 0.199
DSCMET_421 2018-01-06 01:30:00 118244 378.900 0.0000 0.0000 5.0000 469.000 0.0000 0.0000 5.0000 321.200 0.0000 0.0000 5.0000 6.404 96.100 5.829           6.570 6.205 98.200 94.600 9.615 9.240 0.375
DSCMET_421 2018-01-06 01:25:00 118243 380.900 0.0000 0.0000 5.0000 472.600 0.0000 0.0000 5.0000 329.600 0.0000 0.0000 5.0000 6.358 96.900 5.903           6.586 6.238 98.100 94.600 9.585 9.288 0.297
DSCMET_421 2018-01-06 01:20:00 118242 382.000 0.0000 0.0000 5.0000 478.000 0.0000 0.0000 5.0000 339.000 0.0000 0.0000 5.0000 6.423 96.000 5.833           6.586 6.254 97.700 94.300 9.628 9.243 0.385
DSCMET_421 2018-01-06 01:15:00 118241 384.400 0.0000 0.0000 5.0000 486.100 0.0000 0.0000 5.0000 352.600 0.0000 0.0000 5.0000 6.424 96.500 5.909           6.502 6.270 97.700 95.100 9.629 9.292 0.337
DSCMET_421 2018-01-06 01:10:00 118240 387.700 0.0000 0.0000 5.0000 494.900 0.0000 0.0000 5.0000 361.200 0.0000 0.0000 5.0000 6.422 96.600 5.922           6.553 6.303 97.400 95.500 9.627 9.300 0.327
DSCMET_421 2018-01-06 01:05:00 118239 386.300 0.0000 0.0000 5.0000 485.900 0.0000 0.0000 5.0000 347.000 0.0000 0.0000 5.0000 6.429 96.500 5.914           6.586 6.253 98.000 95.000 9.632 9.295 0.337
DSCMET_421 2018-01-06 01:00:00 118238 385.600 0.0000 0.0000 5.0000 473.900 0.0000 0.0000 5.0000 336.700 0.0000 0.0000 5.0000 6.365 98.000 6.073           6.453 6.270 99.300 96.700 9.589 9.398 0.192
DSCMET_421 2018-01-06 00:55:00 118237 388.000 0.0000 0.0000 5.0000 472.600 0.0000 0.0000 5.0000 340.000 0.0000 0.0000 5.0000 6.256 99.300 6.154           6.353 6.188 99.400 99.300 9.518 9.451 0.067
DSCMET_421 2018-01-06 00:50:00 118236 383.600 0.0000 0.0000 5.0000 474.900 0.0000 0.0000 5.0000 348.900 0.0000 0.0000 5.0000 6.269 99.300 6.167           6.353 6.203 99.400 99.300 9.526 9.459 0.067
DSCMET_421 2018-01-06 00:45:00 118235 380.100 0.0000 0.0000 5.0000 477.100 0.0000 0.0000 5.0000 357.500 0.0000 0.0000 5.0000 6.264 99.300 6.162           6.336 6.187 99.400 99.300 9.523 9.456 0.067
DSCMET_421 2018-01-06 00:40:00 118234 379.100 0.0000 0.0000 5.0000 486.300 0.0000 0.0000 5.0000 365.100 0.0000 0.0000 5.0000 6.238 99.300 6.136           6.320 6.170 99.300 99.300 9.506 9.439 0.067
DSCMET_421 2018-01-06 00:35:00 118233 378.900 0.0000 0.0000 5.0000 483.700 0.0000 0.0000 5.0000 351.100 0.0000 0.0000 5.0000 6.236 99.300 6.134           6.303 6.170 99.400 99.200 9.504 9.438 0.067
DSCMET_421 2018-01-06 00:30:00 118232 378.600 0.0000 0.0000 5.0000 484.500 0.0000 0.0000 5.0000 360.700 0.0000 0.0000 5.0000 6.260 99.300 6.158           6.320 6.203 99.300 99.300 9.520 9.454 0.067
DSCMET_421 2018-01-06 00:25:00 118231 379.400 0.0000 0.0000 5.0000 480.500 0.0000 0.0000 5.0000 341.800 0.0000 0.0000 5.0000 6.280 99.300 6.178           6.320 6.236 99.400 99.300 9.533 9.467 0.067
DSCMET_421 2018-01-06 00:20:00 118230 382.600 0.0000 0.0000 5.0000 477.400 0.0000 0.0000 5.0000 344.700 0.0000 0.0000 5.0000 6.283 99.300 6.181           6.320 6.237 99.400 99.300 9.535 9.469 0.067
DSCMET_421 2018-01-06 00:15:00 118229 374.800 0.0000 0.0000 5.0000 476.900 0.0000 0.0000 5.0000 342.600 0.0000 0.0000 5.0000 6.275 99.300 6.173           6.319 6.220 99.400 99.300 9.530 9.463 0.067
DSCMET_421 2018-01-06 00:10:00 118228 372.900 0.0000 0.0000 5.0000 479.000 0.0000 0.0000 5.0000 346.100 0.0000 0.0000 5.0000 6.283 99.300 6.181           6.336 6.219 99.400 99.300 9.535 9.469 0.067
DSCMET_421 2018-01-06 00:05:00 118227 372.300 0.0000 0.0000 5.0000 478.000 0.0000 0.0000 5.0000 351.200 0.0000 0.0000 5.0000 6.313 99.300 6.211           6.368 6.253 99.400 99.300 9.555 9.488 0.067
DSCMET_421 2018-01-06 00:00:00 118226 372.200 0.0000 0.0000 5.0000 478.600 0.0000 0.0000 5.0000 353.900 0.0000 0.0000 5.0000 6.349 99.300 6.247           6.402 6.302 99.300 99.300 9.579 9.512 0.067
DSCMET_421 2018-01-05 23:55:00 118225 375.600 0.0000 0.0000 5.0000 478.000 0.0000 0.0000 5.0000 358.800 0.0000 0.0000 5.0000 6.349 99.300 6.247           6.385 6.319 99.400 99.300 9.579 9.512 0.067
DSCMET_421 2018-01-05 23:50:00 118224 377.800 0.0000 0.0000 5.0000 476.900 0.0000 0.0000 5.0000 363.000 0.0000 0.0000 5.0000 6.369 99.300 6.267           6.418 6.319 99.400 99.300 9.592 9.525 0.067
DSCMET_421 2018-01-05 23:45:00 118223 379.500 0.0000 0.0000 5.0000 476.900 0.0000 0.0000 5.0000 366.900 0.0000 0.0000 5.0000 6.381 99.300 6.279           6.434 6.318 99.300 99.300 9.600 9.533 0.067
DSCMET_421 2018-01-05 23:40:00 118222 381.600 0.0000 0.0000 5.0000 476.600 0.0000 0.0000 5.0000 376.300 0.0000 0.0000 5.0000 6.431 99.300 6.329           6.501 6.368 99.400 99.300 9.633 9.566 0.067
DSCMET_421 2018-01-05 23:35:00 118221 380.400 0.0000 0.0000 5.0000 478.200 0.0000 0.0000 5.0000 389.600 0.0000 0.0000 5.0000 6.416 99.300 6.314           6.484 6.368 99.400 99.300 9.623 9.556 0.067
DSCMET_421 2018-01-05 23:30:00 118220 386.000 0.0000 0.0000 5.0000 477.400 0.0000 0.0000 5.0000 380.000 0.0000 0.0000 5.0000 6.465 99.300 6.363           6.500 6.434 99.400 99.300 9.656 9.588 0.068
DSCMET_421 2018-01-05 23:25:00 118219 388.500 0.0000 0.0000 5.0000 478.700 0.0000 0.0000 5.0000 349.700 0.0000 0.0000 5.0000 6.449 99.300 6.347           6.517 6.401 99.400 99.300 9.645 9.578 0.068
DSCMET_421 2018-01-05 23:20:00 118218 388.200 0.0000 0.0000 5.0000 480.400 0.0000 0.0000 5.0000 350.000 0.0000 0.0000 5.0000 6.447 99.300 6.345           6.484 6.401 99.400 99.300 9.644 9.576 0.068
DSCMET_421 2018-01-05 23:15:00 118217 385.900 0.0000 0.0000 5.0000 474.700 0.0000 0.0000 5.0000 350.100 0.0000 0.0000 5.0000 6.488 99.300 6.386           6.533 6.434 99.400 99.300 9.671 9.603 0.068
DSCMET_421 2018-01-05 23:10:00 118216 386.500 0.0000 0.0000 5.0000 475.700 0.0000 0.0000 5.0000 351.300 0.0000 0.0000 5.0000 6.498 99.300 6.396           6.534 6.451 99.400 99.300 9.678 9.610 0.068
DSCMET_421 2018-01-05 23:05:00 118215 388.100 0.0000 0.0000 5.0000 477.100 0.0000 0.0000 5.0000 356.100 0.0000 0.0000 5.0000 6.516 99.300 6.414           6.534 6.451 99.400 99.300 9.690 9.622 0.068
DSCMET_421 2018-01-05 23:00:00 118214 389.300 0.0000 0.0000 5.0000 477.400 0.0000 0.0000 5.0000 339.700 0.0000 0.0000 5.0000 6.520 99.300 6.418           6.551 6.450 99.400 99.300 9.693 9.625 0.068
DSCMET_421 2018-01-05 22:55:00 118213 393.500 0.0000 0.0000 5.0000 479.100 0.0000 0.0000 5.0000 334.700 0.0000 0.0000 5.0000 6.558 99.300 6.456           6.600 6.517 99.400 99.300 9.718 9.650 0.068
DSCMET_421 2018-01-05 22:50:00 118212 378.800 0.0000 0.0000 5.0000 488.600 0.0000 0.0000 5.0000 333.000 0.0000 0.0000 5.0000 6.570 99.300 6.468           6.633 6.517 99.400 99.300 9.726 9.658 0.068
DSCMET_421 2018-01-05 22:45:00 118211 379.100 0.0000 0.0000 5.0000 476.200 0.0000 0.0000 5.0000 332.900 0.0000 0.0000 5.0000 6.589 99.300 6.487           6.633 6.533 99.300 99.300 9.739 9.671 0.068
DSCMET_421 2018-01-05 22:40:00 118210 370.500 0.0000 0.0000 5.0000 479.300 0.0000 0.0000 5.0000 331.500 0.0000 0.0000 5.0000 6.613 99.300 6.511           6.666 6.566 99.400 99.300 9.755 9.687 0.068
DSCMET_421 2018-01-05 22:35:00 118209 371.400 0.0000 0.0000 5.0000 478.200 0.0000 0.0000 5.0000 330.200 0.0000 0.0000 5.0000 6.576 99.300 6.474           6.632 6.532 99.400 99.300 9.730 9.662 0.068
DSCMET_421 2018-01-05 22:30:00 118208 378.300 0.0000 0.0000 5.0000 478.300 0.0000 0.0000 5.0000 330.800 0.0000 0.0000 5.0000 6.640 99.300 6.538           6.700 6.600 99.400 99.300 9.773 9.705 0.068
DSCMET_421 2018-01-05 22:25:00 118207 391.900 0.0000 0.0000 5.0000 475.200 0.0000 0.0000 5.0000 330.100 0.0000 0.0000 5.0000 6.641 99.300 6.539           6.716 6.583 99.300 99.300 9.774 9.705 0.068
DSCMET_421 2018-01-05 22:20:00 118206 392.500 0.0000 0.0000 5.0000 488.300 0.0000 0.0000 5.0000 331.900 0.0000 0.0000 5.0000 6.639 99.300 6.537           6.716 6.550 99.300 99.300 9.772 9.704 0.068
DSCMET_421 2018-01-05 22:15:00 118205 394.800 0.0000 0.0000 5.0000 494.400 0.0000 0.0000 5.0000 331.200 0.0000 0.0000 5.0000 6.714 99.300 6.612           6.765 6.633 99.400 99.300 9.823 9.754 0.069
DSCMET_421 2018-01-05 22:10:00 118204 399.300 0.0000 0.0000 5.0000 483.100 0.0000 0.0000 5.0000 327.800 0.0000 0.0000 5.0000 6.730 99.300 6.628           6.783 6.683 99.300 99.300 9.834 9.765 0.069
DSCMET_421 2018-01-05 22:05:00 118203 394.600 0.0000 0.0000 5.0000 482.600 0.0000 0.0000 5.0000 326.800 0.0000 0.0000 5.0000 6.754 99.300 6.652           6.815 6.666 99.300 99.200 9.850 9.781 0.069
DSCMET_421 2018-01-05 22:00:00 118202 398.200 0.0000 0.0000 5.0000 482.700 0.0000 0.0000 5.0000 327.000 0.0000 0.0000 5.0000 6.780 99.300 6.678           6.832 6.716 99.300 99.300 9.868 9.799 0.069
DSCMET_421 2018-01-05 21:55:00 118201 396.900 0.0000 0.0000 5.0000 486.500 0.0000 0.0000 5.0000 327.300 0.0000 0.0000 5.0000 6.759 99.300 6.657           6.832 6.666 99.300 99.300 9.853 9.784 0.069
DSCMET_421 2018-01-05 21:50:00 118200 396.900 0.0000 0.0000 5.0000 491.600 0.0000 0.0000 5.0000 329.500 0.0000 0.0000 5.0000 6.816 99.300 6.714           6.898 6.731 99.300 99.300 9.892 9.823 0.069
DSCMET_421 2018-01-05 21:45:00 118199 390.100 0.0000 0.0000 5.0000 488.800 0.0000 0.0000 5.0000 331.900 0.0000 0.0000 5.0000 6.893 99.300 6.791           6.964 6.815 99.300 99.300 9.945 9.875 0.070
DSCMET_421 2018-01-05 21:40:00 118198 386.100 0.0000 0.0000 5.0000 497.200 0.0000 0.0000 5.0000 334.700 0.0000 0.0000 5.0000 6.914 99.300 6.812           7.030 6.847 99.400 99.300 9.959 9.889 0.070
DSCMET_421 2018-01-05 21:35:00 118197 387.400 0.0000 0.0000 5.0000 489.900 0.0000 0.0000 5.0000 334.700 0.0000 0.0000 5.0000 6.851 99.300 6.749           6.880 6.814 99.400 99.300 9.916 9.847 0.069
DSCMET_421 2018-01-05 21:30:00 118196 387.300 0.0000 0.0000 5.0000 492.900 0.0000 0.0000 5.0000 332.100 0.0000 0.0000 5.0000 6.885 99.300 6.783           6.929 6.846 99.300 99.300 9.939 9.870 0.070
DSCMET_421 2018-01-05 21:25:00 118195 386.800 0.0000 0.0000 5.0000 483.500 0.0000 0.0000 5.0000 330.800 0.0000 0.0000 5.0000 6.882 99.300 6.780           6.930 6.830 99.300 99.300 9.937 9.868 0.070
DSCMET_421 2018-01-05 21:20:00 118194 388.200 0.0000 0.0000 5.0000 485.700 0.0000 0.0000 5.0000 329.700 0.0000 0.0000 5.0000 6.922 99.300 6.820           6.946 6.880 99.400 99.300 9.964 9.895 0.070
DSCMET_421 2018-01-05 21:15:00 118193 396.500 0.0000 0.0000 5.0000 488.100 0.0000 0.0000 5.0000 329.200 0.0000 0.0000 5.0000 6.897 99.300 6.795           6.946 6.830 99.400 99.300 9.947 9.878 0.070
DSCMET_421 2018-01-05 21:10:00 118192 396.400 0.0000 0.0000 5.0000 485.700 0.0000 0.0000 5.0000 329.200 0.0000 0.0000 5.0000 6.909 99.300 6.807           6.963 6.863 99.400 99.300 9.956 9.886 0.070
DSCMET_421 2018-01-05 21:05:00 118191 398.500 0.0000 0.0000 5.0000 488.300 0.0000 0.0000 5.0000 330.700 0.0000 0.0000 5.0000 6.927 99.300 6.825           6.979 6.896 99.400 99.300 9.968 9.898 0.070
DSCMET_421 2018-01-05 21:00:00 118190 405.300 0.0000 0.0000 5.0000 485.500 0.0000 0.0000 5.0000 329.800 0.0000 0.0000 5.0000 6.957 99.300 6.855           6.996 6.913 99.300 99.300 9.988 9.919 0.070
DSCMET_421 2018-01-05 20:55:00 118189 400.800 0.0000 0.0000 5.0000 487.400 0.0000 0.0000 5.0000 330.300 0.0000 0.0000 5.0000 7.000 99.300 6.898           7.029 6.963 99.400 99.300 10.018 9.948 0.070
DSCMET_421 2018-01-05 20:50:00 118188 402.500 0.0000 0.0000 5.0000 490.000 0.0000 0.0000 5.0000 332.800 0.0000 0.0000 5.0000 7.002 99.300 6.900           7.046 6.962 99.300 99.300 10.019 9.949 0.070
DSCMET_421 2018-01-05 20:45:00 118187 404.700 0.0000 0.0000 5.0000 485.800 0.0000 0.0000 5.0000 333.300 0.0000 0.0000 5.0000 7.130 98.200 6.865           7.279 6.980 99.200 97.200 10.108 9.926 0.182
DSCMET_421 2018-01-05 20:40:00 118186 402.000 0.0000 0.0000 5.0000 484.400 0.0000 0.0000 5.0000 339.400 0.0000 0.0000 5.0000 7.096 99.000 6.950           7.179 7.046 99.200 98.500 10.084 9.983 0.101
DSCMET_421 2018-01-05 20:35:00 118185 404.000 0.0000 0.0000 5.0000 484.200 0.0000 0.0000 5.0000 342.300 0.0000 0.0000 5.0000 7.214 98.600 7.008           7.361 7.096 99.300 98.000 10.166 10.024 0.142
DSCMET_421 2018-01-05 20:30:00 118184 399.000 0.0000 0.0000 5.0000 490.100 0.0000 0.0000 5.0000 352.300 0.0000 0.0000 5.0000 7.090 99.300 6.988           7.228 6.963 99.300 99.200 10.080 10.009 0.071
DSCMET_421 2018-01-05 20:25:00 118183 396.600 0.0000 0.0000 5.0000 500.100 0.0000 0.0000 5.0000 362.900 0.0000 0.0000 5.0000 7.181 99.300 7.079           7.510 7.011 99.400 99.300 10.143 10.072 0.071
DSCMET_421 2018-01-05 20:20:00 118182 395.200 0.0000 0.0000 5.0000 491.900 0.0000 0.0000 5.0000 374.700 0.0000 0.0000 5.0000 7.104 99.300 7.002           7.161 7.045 99.400 99.300 10.090 10.019 0.071
DSCMET_421 2018-01-05 20:15:00 118181 402.700 0.0000 0.0000 5.0000 498.900 0.0000 0.0000 5.0000 365.900 0.0000 0.0000 5.0000 7.107 99.300 7.005           7.209 7.027 99.400 99.300 10.092 10.021 0.071
DSCMET_421 2018-01-05 20:10:00 118180 411.000 0.0000 0.0000 5.0000 498.800 0.0000 0.0000 5.0000 370.600 0.0000 0.0000 5.0000 7.137 99.300 7.035           7.209 7.060 99.300 99.300 10.113 10.042 0.071
DSCMET_421 2018-01-05 20:05:00 118179 410.700 0.0000 0.0000 5.0000 491.900 0.0000 0.0000 5.0000 370.900 0.0000 0.0000 5.0000 7.175 99.300 7.073           7.242 7.092 99.400 99.300 10.139 10.068 0.071
DSCMET_421 2018-01-05 20:00:00 118178 413.200 0.0000 0.0000 5.0000 486.300 0.0000 0.0000 5.0000 373.200 0.0000 0.0000 5.0000 7.205 99.300 7.103           7.275 7.158 99.300 99.300 10.160 10.089 0.071
DSCMET_421 2018-01-05 19:55:00 118177 415.900 0.0000 0.0000 5.0000 481.600 0.0000 0.0000 5.0000 362.500 0.0000 0.0000 5.0000 7.258 99.300 7.156           7.308 7.208 99.300 99.300 10.197 10.125 0.071
DSCMET_421 2018-01-05 19:50:00 118176 414.000 0.0000 0.0000 5.0000 493.600 0.0000 0.0000 5.0000 377.600 0.0000 0.0000 5.0000 7.300 99.300 7.197           7.341 7.241 99.300 99.300 10.226 10.155 0.072
DSCMET_421 2018-01-05 19:45:00 118175 397.700 0.0000 0.0000 5.0000 485.300 0.0000 0.0000 5.0000 395.600 0.0000 0.0000 5.0000 7.337 99.300 7.234           7.390 7.291 99.300 99.300 10.252 10.180 0.072
DSCMET_421 2018-01-05 19:40:00 118174 405.900 0.0000 0.0000 5.0000 495.200 0.0000 0.0000 5.0000 391.700 0.0000 0.0000 5.0000 7.348 99.300 7.245           7.390 7.257 99.300 99.300 10.260 10.188 0.072
DSCMET_421 2018-01-05 19:35:00 118173 408.900 0.0000 0.0000 5.0000 507.500 0.0000 0.0000 5.0000 388.700 0.0000 0.0000 5.0000 7.396 99.300 7.293           7.456 7.340 99.300 99.300 10.294 10.222 0.072
DSCMET_421 2018-01-05 19:30:00 118172 410.800 0.0000 0.0000 5.0000 501.900 0.0000 0.0000 5.0000 370.000 0.0000 0.0000 5.0000 7.456 99.300 7.353           7.505 7.422 99.300 99.300 10.336 10.264 0.072
DSCMET_421 2018-01-05 19:25:00 118171 390.500 0.0000 0.0000 5.0000 497.600 0.0000 0.0000 5.0000 376.400 0.0000 0.0000 5.0000 7.501 99.300 7.398           7.572 7.439 99.300 99.300 10.368 10.295 0.073
DSCMET_421 2018-01-05 19:20:00 118170 401.800 0.0000 0.0000 5.0000 509.100 0.0000 0.0000 5.0000 409.400 0.0000 0.0000 5.0000 7.549 99.300 7.446           7.638 7.489 99.300 99.300 10.402 10.329 0.073
DSCMET_421 2018-01-05 19:15:00 118169 412.200 0.0000 0.0000 5.0000 508.100 0.0000 0.0000 5.0000 390.900 0.0000 0.0000 5.0000 7.612 99.300 7.509           7.655 7.555 99.300 99.300 10.447 10.374 0.073
DSCMET_421 2018-01-05 19:10:00 118168 409.200 0.0000 0.0000 5.0000 508.600 0.0000 0.0000 5.0000 402.700 0.0000 0.0000 5.0000 7.691 99.300 7.588           7.820 7.637 99.400 99.300 10.503 10.430 0.074
DSCMET_421 2018-01-05 19:05:00 118167 409.000 0.0000 0.0000 5.0000 508.000 0.0000 0.0000 5.0000 407.800 0.0000 0.0000 5.0000 7.772 99.300 7.669           7.837 7.688 99.400 99.300 10.562 10.488 0.074
DSCMET_421 2018-01-05 19:00:00 118166 405.600 0.0000 0.0000 5.0000 507.900 0.0000 0.0000 5.0000 394.300 0.0000 0.0000 5.0000 7.834 99.300 7.731           7.886 7.753 99.400 99.300 10.606 10.532 0.074
DSCMET_421 2018-01-05 18:55:00 118165 412.100 0.0000 0.0000 5.0000 521.500 0.0000 0.0000 5.0000 396.700 0.0000 0.0000 5.0000 7.933 99.300 7.830           8.020 7.853 99.400 99.300 10.678 10.603 0.075
DSCMET_421 2018-01-05 18:50:00 118164 409.500 0.0000 0.0000 5.0000 505.300 0.0000 0.0000 5.0000 428.200 0.0000 0.0000 5.0000 8.070 99.300 7.967           8.130 8.020 99.400 99.300 10.778 10.703 0.075
DSCMET_421 2018-01-05 18:45:00 118163 438.000 0.0000 0.0000 5.0000 501.600 0.0000 0.0000 5.0000 433.000 0.0000 0.0000 5.0000 8.110 99.300 8.007           8.150 8.070 99.300 99.300 10.808 10.732 0.076
DSCMET_421 2018-01-05 18:40:00 118162 458.400 0.0000 0.0000 5.0000 498.700 0.0000 0.0000 5.0000 425.300 0.0000 0.0000 5.0000 8.220 98.500 7.998           8.330 8.150 99.300 97.300 10.889 10.725 0.163
DSCMET_421 2018-01-05 18:35:00 118161 431.500 0.0000 0.0000 5.0000 499.900 0.0000 0.0000 5.0000 447.100 0.0000 0.0000 5.0000 8.190 99.300 8.087           8.270 8.130 99.300 99.100 10.867 10.791 0.076
DSCMET_421 2018-01-05 18:30:00 118160 431.900 0.0000 0.0000 5.0000 525.500 0.0000 0.0000 5.0000 423.500 0.0000 0.0000 5.0000 8.190 99.300 8.087           8.230 8.120 99.300 99.300 10.867 10.791 0.076
DSCMET_421 2018-01-05 18:25:00 118159 435.900 0.0000 0.0000 5.0000 534.100 0.0000 0.0000 5.0000 449.800 0.0000 0.0000 5.0000 8.220 99.300 8.117           8.280 8.170 99.400 99.300 10.889 10.813 0.076
DSCMET_421 2018-01-05 18:20:00 118158 439.600 0.0000 0.0000 5.0000 528.600 0.0000 0.0000 5.0000 438.600 0.0000 0.0000 5.0000 8.270 99.300 8.167           8.320 8.230 99.400 99.300 10.926 10.849 0.076
DSCMET_421 2018-01-05 18:15:00 118157 449.300 0.0000 0.0000 5.0000 522.600 0.0000 0.0000 5.0000 440.800 0.0000 0.0000 5.0000 8.310 99.300 8.207           8.350 8.270 99.400 99.300 10.956 10.879 0.077
DSCMET_421 2018-01-05 18:10:00 118156 430.100 0.0000 0.0000 5.0000 526.500 0.0000 0.0000 5.0000 428.300 0.0000 0.0000 5.0000 8.370 99.300 8.267           8.450 8.300 99.300 99.300 11.000 10.923 0.077
DSCMET_421 2018-01-05 18:05:00 118155 427.600 0.0000 0.0000 5.0000 522.900 0.0000 0.0000 5.0000 448.000 0.0000 0.0000 5.0000 8.360 99.300 8.257           8.450 8.300 99.400 99.300 10.993 10.916 0.077
DSCMET_421 2018-01-05 18:00:00 118154 464.300 0.0000 0.0000 5.0000 545.800 0.0000 0.0000 5.0000 466.900 0.0000 0.0000 5.0000 8.380 99.300 8.277           8.450 8.300 99.400 99.300 11.008 10.931 0.077
DSCMET_421 2018-01-05 17:55:00 118153 418.900 0.0000 0.0000 5.0000 536.800 0.0000 0.0000 5.0000 447.300 0.0000 0.0000 5.0000 8.440 99.300 8.337           8.500 8.380 99.400 99.300 11.053 10.975 0.077
DSCMET_421 2018-01-05 17:50:00 118152 419.500 0.0000 0.0000 5.0000 507.900 0.0000 0.0000 5.0000 458.200 0.0000 0.0000 5.0000 8.430 99.300 8.327           8.560 8.320 99.400 99.300 11.045 10.968 0.077
DSCMET_421 2018-01-05 17:45:00 118151 395.300 0.0000 0.0000 5.0000 475.000 0.0000 0.0000 5.0000 454.900 0.0000 0.0000 5.0000 8.560 99.300 8.456           8.600 8.510 99.400 99.200 11.143 11.065 0.078
DSCMET_421 2018-01-05 17:40:00 118150 376.000 0.0000 0.0000 5.0000 462.000 0.0000 0.0000 5.0000 361.500 0.0000 0.0000 5.0000 8.590 99.300 8.486           8.650 8.530 99.400 99.300 11.166 11.088 0.078
DSCMET_421 2018-01-05 17:35:00 118149 375.000 0.0000 0.0000 5.0000 461.500 0.0000 0.0000 5.0000 357.100 0.0000 0.0000 5.0000 8.590 99.300 8.486           8.630 8.560 99.400 99.300 11.166 11.088 0.078
DSCMET_421 2018-01-05 17:30:00 118148 375.400 0.0000 0.0000 5.0000 462.800 0.0000 0.0000 5.0000 356.900 0.0000 0.0000 5.0000 8.610 99.300 8.506           8.660 8.530 99.300 99.300 11.181 11.103 0.078
DSCMET_421 2018-01-05 17:25:00 118147 378.400 0.0000 0.0000 5.0000 464.500 0.0000 0.0000 5.0000 356.200 0.0000 0.0000 5.0000 8.650 99.300 8.546           8.690 8.590 99.400 99.300 11.211 11.133 0.078
DSCMET_421 2018-01-05 17:20:00 118146 378.000 0.0000 0.0000 5.0000 464.100 0.0000 0.0000 5.0000 354.900 0.0000 0.0000 5.0000 8.690 99.300 8.586           8.740 8.630 99.400 99.300 11.242 11.163 0.079
DSCMET_421 2018-01-05 17:15:00 118145 378.200 0.0000 0.0000 5.0000 465.000 0.0000 0.0000 5.0000 354.500 0.0000 0.0000 5.0000 8.770 99.300 8.666           8.830 8.710 99.400 99.300 11.303 11.224 0.079
DSCMET_421 2018-01-05 17:10:00 118144 377.800 0.0000 0.0000 5.0000 466.600 0.0000 0.0000 5.0000 352.500 0.0000 0.0000 5.0000 8.800 99.300 8.696           8.860 8.680 99.300 99.200 11.326 11.246 0.079
DSCMET_421 2018-01-05 17:05:00 118143 376.300 0.0000 0.0000 5.0000 468.000 0.0000 0.0000 5.0000 348.800 0.0000 0.0000 5.0000 8.880 99.300 8.776           8.940 8.810 99.300 99.300 11.387 11.307 0.080
DSCMET_421 2018-01-05 17:00:00 118142 378.100 0.0000 0.0000 5.0000 468.100 0.0000 0.0000 5.0000 347.600 0.0000 0.0000 5.0000 8.970 99.300 8.866           9.060 8.860 99.300 99.200 11.457 11.376 0.080
DSCMET_421 2018-01-05 16:55:00 118141 381.600 0.0000 0.0000 5.0000 471.100 0.0000 0.0000 5.0000 347.000 0.0000 0.0000 5.0000 8.990 99.300 8.886           9.070 8.910 99.400 99.200 11.472 11.392 0.080
DSCMET_421 2018-01-05 16:50:00 118140 382.700 0.0000 0.0000 5.0000 474.200 0.0000 0.0000 5.0000 345.400 0.0000 0.0000 5.0000 9.070 99.300 8.966           9.140 8.990 99.300 99.300 11.534 11.453 0.081
DSCMET_421 2018-01-05 16:45:00 118139 385.500 0.0000 0.0000 5.0000 479.500 0.0000 0.0000 5.0000 342.500 0.0000 0.0000 5.0000 9.120 99.300 9.016           9.170 9.040 99.400 99.300 11.573 11.492 0.081
DSCMET_421 2018-01-05 16:40:00 118138 390.800 0.0000 0.0000 5.0000 482.500 0.0000 0.0000 5.0000 334.900 0.0000 0.0000 5.0000 9.220 99.300 9.116           9.300 9.090 99.400 99.300 11.652 11.570 0.082
DSCMET_421 2018-01-05 16:35:00 118137 393.400 0.0000 0.0000 5.0000 486.400 0.0000 0.0000 5.0000 331.100 0.0000 0.0000 5.0000 9.380 99.300 9.276           9.450 9.240 99.400 99.300 11.778 11.695 0.082
DSCMET_421 2018-01-05 16:30:00 118136 383.700 0.0000 0.0000 5.0000 485.800 0.0000 0.0000 5.0000 324.000 0.0000 0.0000 5.0000 9.470 99.300 9.366           9.550 9.400 99.300 99.300 11.849 11.766 0.083
DSCMET_421 2018-01-05 16:25:00 118135 389.200 0.0000 0.0000 5.0000 480.600 0.0000 0.0000 5.0000 317.800 0.0000 0.0000 5.0000 9.560 99.300 9.456           9.630 9.500 99.400 99.300 11.921 11.838 0.083
DSCMET_421 2018-01-05 16:20:00 118134 372.300 0.0000 0.0000 5.0000 476.600 0.0000 0.0000 5.0000 305.400 0.0000 0.0000 5.0000 9.650 99.300 9.546           9.700 9.570 99.400 99.300 11.994 11.910 0.084
DSCMET_421 2018-01-05 16:15:00 118133 369.200 0.0000 0.0000 5.0000 470.100 0.0000 0.0000 5.0000 298.300 0.0000 0.0000 5.0000 9.670 99.300 9.565           9.720 9.600 99.400 99.300 12.010 11.926 0.084
DSCMET_421 2018-01-05 16:10:00 118132 368.400 0.0000 0.0000 5.0000 464.100 0.0000 0.0000 5.0000 292.300 0.0000 0.0000 5.0000 9.670 99.300 9.565           9.700 9.600 99.400 99.300 12.010 11.926 0.084
DSCMET_421 2018-01-05 16:05:00 118131 366.100 0.0000 0.0000 5.0000 461.100 0.0000 0.0000 5.0000 289.600 0.0000 0.0000 5.0000 9.780 99.300 9.675           9.870 9.720 99.400 99.300 12.099 12.014 0.085
DSCMET_421 2018-01-05 16:00:00 118130 365.200 0.0000 0.0000 5.0000 460.600 0.0000 0.0000 5.0000 284.900 0.0000 2.2500 2.7500 9.780 99.300 9.675           9.830 9.730 99.400 99.300 12.099 12.014 0.085
DSCMET_421 2018-01-05 15:55:00 118129 365.600 0.0000 0.0000 5.0000 460.600 0.0000 0.0000 5.0000 280.500 0.0000 5.0000 0.0000 9.680 99.300 9.575           9.800 9.620 99.400 99.300 12.018 11.934 0.084
DSCMET_421 2018-01-05 15:50:00 118128 366.500 0.0000 0.0000 5.0000 461.700 0.0000 0.0000 5.0000 280.900 0.0000 5.0000 0.0000 9.680 99.300 9.575           9.730 9.630 99.400 99.300 12.018 11.934 0.084
DSCMET_421 2018-01-05 15:45:00 118127 367.600 0.0000 0.0000 5.0000 461.000 0.0000 0.0000 5.0000 281.100 0.0000 5.0000 0.0000 9.720 99.300 9.615           9.820 9.620 99.400 99.300 12.050 11.966 0.084
DSCMET_421 2018-01-05 15:40:00 118126 368.100 0.0000 0.0000 5.0000 461.500 0.0000 0.0000 5.0000 281.400 0.0000 5.0000 0.0000 9.740 99.300 9.635           9.800 9.670 99.300 99.300 12.066 11.982 0.084
DSCMET_421 2018-01-05 15:35:00 118125 369.400 0.0000 0.0000 5.0000 461.900 0.0000 0.0000 5.0000 281.400 0.0000 5.0000 0.0000 9.680 99.300 9.575           9.780 9.620 99.400 99.300 12.018 11.934 0.084
DSCMET_421 2018-01-05 15:30:00 118124 368.400 0.0000 0.0000 5.0000 462.200 0.0000 0.0000 5.0000 281.400 0.0000 5.0000 0.0000 9.750 99.300 9.645           9.830 9.680 99.300 99.300 12.075 11.990 0.085
DSCMET_421 2018-01-05 15:25:00 118123 369.000 0.0000 0.0000 5.0000 462.600 0.0000 0.0000 5.0000 281.800 0.0000 5.0000 0.0000 9.940 99.200 9.820           10.120 9.800 99.300 99.000 12.229 12.132 0.098
DSCMET_421 2018-01-05 15:20:00 118122 371.100 0.0000 0.0000 5.0000 464.000 0.0000 0.0000 5.0000 283.200 0.0000 5.0000 0.0000 9.960 99.300 9.855           10.120 9.850 99.300 99.200 12.246 12.160 0.086
DSCMET_421 2018-01-05 15:15:00 118121 373.900 0.0000 0.0000 5.0000 464.500 0.0000 0.0000 5.0000 284.200 0.0000 1.2500 3.7500 9.950 99.300 9.845           10.070 9.900 99.300 99.300 12.238 12.152 0.086
DSCMET_421 2018-01-05 15:10:00 118120 373.600 0.0000 0.0000 5.0000 465.200 0.0000 0.0000 5.0000 285.000 0.0000 0.0000 5.0000 10.220 99.300 10.115           10.320 10.070 99.300 99.300 12.461 12.374 0.087
DSCMET_421 2018-01-05 15:05:00 118119 366.200 0.0000 0.0000 5.0000 465.900 0.0000 0.0000 5.0000 285.000 0.0000 0.5000 4.5000 10.210 99.300 10.105           10.300 10.120 99.400 99.300 12.453 12.365 0.087
DSCMET_421 2018-01-05 15:00:00 118118 366.600 0.0000 0.0000 5.0000 466.300 0.0000 0.0000 5.0000 284.400 0.0000 2.0000 3.0000 10.300 99.300 10.195           10.370 10.230 99.400 99.300 12.528 12.440 0.088
DSCMET_421 2018-01-05 14:55:00 118117 367.500 0.0000 0.0000 5.0000 466.700 0.0000 0.0000 5.0000 286.200 0.0000 0.0000 5.0000 10.310 99.300 10.205           10.430 10.200 99.400 99.300 12.536 12.448 0.088
DSCMET_421 2018-01-05 14:50:00 118116 368.400 0.0000 0.0000 5.0000 467.500 0.0000 0.0000 5.0000 289.400 0.0000 0.0000 5.0000 10.130 99.300 10.025           10.250 10.030 99.300 99.300 12.386 12.299 0.087
DSCMET_421 2018-01-05 14:45:00 118115 369.100 0.0000 0.0000 5.0000 468.100 0.0000 0.0000 5.0000 290.300 0.0000 0.0000 5.0000 10.130 99.300 10.025           10.220 10.030 99.400 99.300 12.386 12.299 0.087
DSCMET_421 2018-01-05 14:40:00 118114 370.500 0.0000 0.0000 5.0000 469.300 0.0000 0.0000 5.0000 290.800 0.0000 0.0000 5.0000 10.040 99.300 9.935           10.120 9.980 99.400 99.300 12.312 12.225 0.086
DSCMET_421 2018-01-05 14:35:00 118113 370.000 0.0000 0.0000 5.0000 471.300 0.0000 0.0000 5.0000 292.100 0.0000 0.0000 5.0000 10.160 99.300 10.055           10.300 10.050 99.400 99.300 12.411 12.324 0.087
DSCMET_421 2018-01-05 14:30:00 118112 369.900 0.0000 0.0000 5.0000 466.100 0.0000 0.0000 5.0000 293.100 0.0000 0.0000 5.0000 10.280 99.300 10.175           10.370 10.200 99.400 99.300 12.511 12.423 0.088
DSCMET_421 2018-01-05 14:25:00 118111 369.400 0.0000 0.0000 5.0000 466.600 0.0000 0.0000 5.0000 293.600 0.0000 0.0000 5.0000 10.130 99.300 10.025           10.170 10.080 99.400 99.300 12.386 12.299 0.087
DSCMET_421 2018-01-05 14:20:00 118110 369.500 0.0000 0.0000 5.0000 467.100 0.0000 0.0000 5.0000 295.700 0.0000 0.0000 5.0000 10.130 99.300 10.025           10.220 10.050 99.400 99.300 12.386 12.299 0.087
DSCMET_421 2018-01-05 14:15:00 118109 369.500 0.0000 0.0000 5.0000 469.000 0.0000 0.0000 5.0000 292.300 0.0000 0.0000 5.0000 10.060 99.300 9.955           10.150 10.000 99.400 99.300 12.328 12.242 0.086
DSCMET_421 2018-01-05 14:10:00 118108 369.400 0.0000 0.0000 5.0000 471.000 0.0000 0.0000 5.0000 295.700 0.0000 0.0000 5.0000 10.010 99.300 9.905           10.050 9.950 99.400 99.300 12.287 12.201 0.086
DSCMET_421 2018-01-05 14:05:00 118107 370.600 0.0000 0.0000 5.0000 473.700 0.0000 0.0000 5.0000 299.800 0.0000 0.0000 5.0000 10.020 99.300 9.915           10.100 9.920 99.300 99.300 12.295 12.209 0.086
DSCMET_421 2018-01-05 14:00:00 118106 372.300 0.0000 0.0000 5.0000 477.200 0.0000 0.0000 5.0000 301.700 0.0000 0.0000 5.0000 9.990 99.300 9.885           10.070 9.920 99.400 99.300 12.271 12.185 0.086
DSCMET_421 2018-01-05 13:55:00 118105 372.800 0.0000 0.0000 5.0000 481.400 0.0000 0.0000 5.0000 302.700 0.0000 0.0000 5.0000 9.950 99.300 9.845           10.040 9.870 99.400 99.300 12.238 12.152 0.086
DSCMET_421 2018-01-05 13:50:00 118104 371.300 0.0000 0.0000 5.0000 472.100 0.0000 0.0000 5.0000 304.400 0.0000 0.0000 5.0000 9.980 99.300 9.875           10.020 9.920 99.300 99.300 12.262 12.176 0.086
DSCMET_421 2018-01-05 13:45:00 118103 373.400 0.0000 0.0000 5.0000 478.200 0.0000 0.0000 5.0000 307.600 0.0000 0.0000 5.0000 10.030 99.300 9.925           10.140 9.910 99.400 99.300 12.303 12.217 0.086
DSCMET_421 2018-01-05 13:40:00 118102 373.900 0.0000 0.0000 5.0000 466.200 0.0000 0.0000 5.0000 310.400 0.0000 0.0000 5.0000 10.010 99.300 9.905           10.120 9.900 99.400 99.300 12.287 12.201 0.086
DSCMET_421 2018-01-05 13:35:00 118101 376.000 0.0000 0.0000 5.0000 467.900 0.0000 0.0000 5.0000 313.200 0.0000 0.0000 5.0000 9.890 99.300 9.785           10.070 9.810 99.400 99.300 12.189 12.103 0.085
DSCMET_421 2018-01-05 13:30:00 118100 377.400 0.0000 0.0000 5.0000 466.100 0.0000 0.0000 5.0000 319.900 0.0000 0.0000 5.0000 9.800 99.300 9.695           9.910 9.710 99.400 99.300 12.115 12.030 0.085
DSCMET_421 2018-01-05 13:25:00 118099 378.000 0.0000 0.0000 5.0000 468.200 0.0000 0.0000 5.0000 313.600 0.0000 0.0000 5.0000 9.830 99.300 9.725           9.940 9.740 99.300 99.300 12.140 12.055 0.085
DSCMET_421 2018-01-05 13:20:00 118098 376.000 0.0000 0.0000 5.0000 470.800 0.0000 0.0000 5.0000 313.600 0.0000 0.0000 5.0000 9.850 99.300 9.745           9.940 9.810 99.300 99.300 12.156 12.071 0.085
DSCMET_421 2018-01-05 13:15:00 118097 374.100 0.0000 0.0000 5.0000 478.200 0.0000 0.0000 5.0000 320.800 0.0000 0.0000 5.0000 9.890 99.300 9.785           9.990 9.820 99.400 99.300 12.189 12.103 0.085
DSCMET_421 2018-01-05 13:10:00 118096 374.600 0.0000 0.0000 5.0000 479.100 0.0000 0.0000 5.0000 333.500 0.0000 0.0000 5.0000 9.790 99.300 9.685           9.910 9.660 99.400 99.300 12.107 12.022 0.085
DSCMET_421 2018-01-05 13:05:00 118095 379.800 0.0000 0.0000 5.0000 477.800 0.0000 0.0000 5.0000 328.400 0.0000 0.0000 5.0000 9.660 99.300 9.555           9.780 9.590 99.400 99.300 12.002 11.918 0.084
DSCMET_421 2018-01-05 13:00:00 118094 383.400 0.0000 0.0000 5.0000 479.200 0.0000 0.0000 5.0000 328.600 0.0000 0.0000 5.0000 9.630 99.300 9.526           9.690 9.540 99.400 99.300 11.978 11.894 0.084
DSCMET_421 2018-01-05 12:55:00 118093 384.600 0.0000 0.0000 5.0000 479.700 0.0000 0.0000 5.0000 335.300 0.0000 0.0000 5.0000 9.570 99.300 9.466           9.660 9.460 99.400 99.300 11.929 11.846 0.084
DSCMET_421 2018-01-05 12:50:00 118092 388.200 0.0000 0.0000 5.0000 482.700 0.0000 0.0000 5.0000 346.900 0.0000 0.0000 5.0000 9.430 99.300 9.326           9.540 9.350 99.400 99.300 11.818 11.735 0.083
DSCMET_421 2018-01-05 12:45:00 118091 393.900 0.0000 0.0000 5.0000 479.300 0.0000 0.0000 5.0000 363.100 0.0000 0.0000 5.0000 9.430 99.300 9.326           9.560 9.310 99.400 99.300 11.818 11.735 0.083
DSCMET_421 2018-01-05 12:40:00 118090 385.700 0.0000 0.0000 5.0000 480.700 0.0000 0.0000 5.0000 331.500 0.0000 0.0000 5.0000 9.350 99.300 9.246           9.490 9.200 99.400 99.300 11.754 11.672 0.082
DSCMET_421 2018-01-05 12:35:00 118089 387.300 0.0000 0.0000 5.0000 484.500 0.0000 0.0000 5.0000 337.000 0.0000 0.0000 5.0000 9.270 99.300 9.166           9.350 9.180 99.400 99.300 11.691 11.609 0.082
DSCMET_421 2018-01-05 12:30:00 118088 381.100 0.0000 0.0000 5.0000 486.000 0.0000 0.0000 5.0000 339.400 0.0000 0.0000 5.0000 9.210 99.300 9.106           9.310 9.150 99.400 99.300 11.644 11.562 0.082
DSCMET_421 2018-01-05 12:25:00 118087 374.900 0.0000 0.0000 5.0000 488.700 0.0000 0.0000 5.0000 345.200 0.0000 0.0000 5.0000 9.210 99.300 9.106           9.280 9.150 99.400 99.300 11.644 11.562 0.082
DSCMET_421 2018-01-05 12:20:00 118086 373.900 0.0000 0.0000 5.0000 489.600 0.0000 0.0000 5.0000 358.100 0.0000 0.0000 5.0000 9.110 99.300 9.006           9.200 9.060 99.400 99.300 11.565 11.484 0.081
DSCMET_421 2018-01-05 12:15:00 118085 376.100 0.0000 0.0000 5.0000 490.800 0.0000 0.0000 5.0000 381.300 0.0000 0.0000 5.0000 9.150 99.300 9.046           9.230 9.100 99.400 99.300 11.597 11.515 0.081
DSCMET_421 2018-01-05 12:10:00 118084 391.300 0.0000 0.0000 5.0000 490.100 0.0000 0.0000 5.0000 365.600 0.0000 0.0000 5.0000 9.150 99.300 9.046           9.180 9.110 99.400 99.300 11.597 11.515 0.081
DSCMET_421 2018-01-05 12:05:00 118083 397.900 0.0000 0.0000 5.0000 491.500 0.0000 0.0000 5.0000 364.700 0.0000 0.0000 5.0000 9.100 99.300 8.996           9.150 9.030 99.400 99.300 11.558 11.477 0.081
DSCMET_421 2018-01-05 12:00:00 118082 399.300 0.0000 0.0000 5.0000 496.100 0.0000 0.0000 5.0000 363.000 0.0000 0.0000 5.0000 8.970 99.300 8.866           9.100 8.880 99.400 99.300 11.457 11.376 0.080
DSCMET_421 2018-01-05 11:55:00 118081 397.800 0.0000 0.0000 5.0000 499.800 0.0000 0.0000 5.0000 366.200 0.0000 0.0000 5.0000 8.990 99.300 8.886           9.100 8.880 99.400 99.300 11.472 11.392 0.080
DSCMET_421 2018-01-05 11:50:00 118080 399.700 0.0000 0.0000 5.0000 516.000 0.0000 0.0000 5.0000 376.000 0.0000 0.0000 5.0000 8.880 99.300 8.776           9.030 8.730 99.400 99.300 11.387 11.307 0.080
DSCMET_421 2018-01-05 11:45:00 118079 406.200 0.0000 0.0000 5.0000 499.000 0.0000 0.0000 5.0000 374.700 0.0000 0.0000 5.0000 8.770 99.300 8.666           8.850 8.670 99.300 99.200 11.303 11.224 0.079
DSCMET_421 2018-01-05 11:40:00 118078 412.900 0.0000 0.0000 5.0000 499.300 0.0000 0.0000 5.0000 375.200 0.0000 0.0000 5.0000 8.810 99.300 8.706           8.980 8.670 99.400 99.300 11.333 11.254 0.079
DSCMET_421 2018-01-05 11:35:00 118077 424.200 0.0000 0.0000 5.0000 499.900 0.0000 0.0000 5.0000 402.300 0.0000 0.0000 5.0000 8.760 99.300 8.656           8.870 8.650 99.300 99.300 11.295 11.216 0.079
DSCMET_421 2018-01-05 11:30:00 118076 399.900 0.0000 0.0000 5.0000 501.100 0.0000 0.0000 5.0000 387.000 0.0000 0.0000 5.0000 8.770 99.300 8.666           8.880 8.650 99.400 99.300 11.303 11.224 0.079
DSCMET_421 2018-01-05 11:25:00 118075 400.300 0.0000 0.0000 5.0000 502.400 0.0000 0.0000 5.0000 394.400 0.0000 0.0000 5.0000 8.620 99.300 8.516           8.700 8.500 99.400 99.300 11.188 11.110 0.078
DSCMET_421 2018-01-05 11:20:00 118074 409.400 0.0000 0.0000 5.0000 505.500 0.0000 0.0000 5.0000 407.000 0.0000 0.0000 5.0000 8.650 99.300 8.546           8.730 8.570 99.400 99.300 11.211 11.133 0.078
DSCMET_421 2018-01-05 11:15:00 118073 406.400 0.0000 0.0000 5.0000 500.700 0.0000 0.0000 5.0000 388.600 0.0000 0.0000 5.0000 8.600 99.300 8.496           8.730 8.490 99.400 99.300 11.173 11.095 0.078
DSCMET_421 2018-01-05 11:10:00 118072 415.500 0.0000 0.0000 5.0000 507.000 0.0000 0.0000 5.0000 388.900 0.0000 0.0000 5.0000 8.580 99.300 8.476           8.700 8.480 99.400 99.300 11.158 11.080 0.078
DSCMET_421 2018-01-05 11:05:00 118071 425.100 0.0000 0.0000 5.0000 521.400 0.0000 0.0000 5.0000 395.800 0.0000 0.0000 5.0000 8.520 99.300 8.416           8.570 8.470 99.400 99.300 11.113 11.035 0.078
DSCMET_421 2018-01-05 11:00:00 118070 443.400 0.0000 0.0000 5.0000 515.400 0.0000 0.0000 5.0000 399.600 0.0000 0.0000 5.0000 8.600 99.300 8.496           8.830 8.500 99.300 99.300 11.173 11.095 0.078
DSCMET_421 2018-01-05 10:55:00 118069 440.000 0.0000 0.0000 5.0000 522.500 0.0000 0.0000 5.0000 412.300 0.0000 0.0000 5.0000 8.630 99.300 8.526           8.880 8.400 99.300 99.300 11.196 11.118 0.078
DSCMET_421 2018-01-05 10:50:00 118068 436.500 0.0000 0.0000 5.0000 523.100 0.0000 0.0000 5.0000 448.300 0.0000 0.0000 5.0000 8.390 99.300 8.287           8.440 8.320 99.400 99.300 11.015 10.938 0.077
DSCMET_421 2018-01-05 10:45:00 118067 438.200 0.0000 0.0000 5.0000 517.000 0.0000 0.0000 5.0000 453.200 0.0000 0.0000 5.0000 8.430 99.300 8.327           8.590 8.290 99.400 99.300 11.045 10.968 0.077
DSCMET_421 2018-01-05 10:40:00 118066 456.600 0.0000 0.0000 5.0000 526.300 0.0000 0.0000 5.0000 467.100 0.0000 0.0000 5.0000 8.480 99.300 8.376           8.650 8.340 99.300 99.300 11.083 11.005 0.078
DSCMET_421 2018-01-05 10:35:00 118065 476.000 0.0000 0.0000 5.0000 538.100 0.0000 0.0000 5.0000 522.400 0.0000 0.0000 5.0000 8.330 99.300 8.227           8.450 8.240 99.300 99.300 10.970 10.894 0.077
DSCMET_421 2018-01-05 10:30:00 118064 441.700 0.0000 0.0000 5.0000 519.700 0.0000 0.0000 5.0000 508.200 0.0000 0.0000 5.0000 8.320 99.300 8.217           8.470 8.170 99.300 99.300 10.963 10.886 0.077
DSCMET_421 2018-01-05 10:25:00 118063 434.900 0.0000 0.0000 5.0000 518.500 0.0000 0.0000 5.0000 464.600 0.0000 0.0000 5.0000 8.330 99.300 8.227           8.400 8.270 99.400 99.300 10.970 10.894 0.077
DSCMET_421 2018-01-05 10:20:00 118062 424.800 0.0000 0.0000 5.0000 515.000 0.0000 0.0000 5.0000 396.700 0.0000 0.0000 5.0000 8.280 99.300 8.177           8.370 8.190 99.400 99.300 10.933 10.857 0.077
DSCMET_421 2018-01-05 10:15:00 118061 441.500 0.0000 0.0000 5.0000 529.100 0.0000 0.0000 5.0000 397.100 0.0000 0.0000 5.0000 8.200 99.300 8.097           8.240 8.120 99.400 99.300 10.874 10.798 0.076
DSCMET_421 2018-01-05 10:10:00 118060 453.100 0.0000 0.0000 5.0000 524.800 0.0000 0.0000 5.0000 425.300 0.0000 0.0000 5.0000 8.110 99.300 8.007           8.170 8.060 99.400 99.300 10.808 10.732 0.076
DSCMET_421 2018-01-05 10:05:00 118059 438.000 0.0000 0.0000 5.0000 522.000 0.0000 0.0000 5.0000 416.800 0.0000 0.0000 5.0000 8.120 99.300 8.017           8.170 8.060 99.400 99.300 10.815 10.739 0.076
DSCMET_421 2018-01-05 10:00:00 118058 436.200 0.0000 0.0000 5.0000 527.000 0.0000 0.0000 5.0000 447.000 0.0000 0.0000 5.0000 8.040 99.300 7.937           8.110 7.990 99.400 99.300 10.756 10.681 0.075
DSCMET_421 2018-01-05 09:55:00 118057 459.700 0.0000 0.0000 5.0000 525.300 0.0000 0.0000 5.0000 479.100 0.0000 0.0000 5.0000 8.070 99.300 7.967           8.120 7.974 99.400 99.300 10.778 10.703 0.075
DSCMET_421 2018-01-05 09:50:00 118056 462.100 0.0000 0.0000 5.0000 543.000 0.0000 0.0000 5.0000 458.600 0.0000 0.0000 5.0000 8.170 99.300 8.067           8.290 8.020 99.400 99.300 10.852 10.776 0.076
DSCMET_421 2018-01-05 09:45:00 118055 434.700 0.0000 0.0000 5.0000 526.200 0.0000 0.0000 5.0000 481.200 0.0000 0.0000 5.0000 7.962 99.300 7.859           8.110 7.876 99.400 99.300 10.699 10.624 0.075
DSCMET_421 2018-01-05 09:40:00 118054 450.000 0.0000 0.0000 5.0000 518.700 0.0000 0.0000 5.0000 484.000 0.0000 0.0000 5.0000 7.972 99.300 7.869           8.040 7.909 99.400 99.300 10.707 10.632 0.075
DSCMET_421 2018-01-05 09:35:00 118053 481.400 0.0000 0.0000 5.0000 518.900 0.0000 0.0000 5.0000 518.100 0.0000 0.0000 5.0000 7.903 99.300 7.800           7.975 7.793 99.400 99.300 10.656 10.582 0.075
DSCMET_421 2018-01-05 09:30:00 118052 462.700 0.0000 0.0000 5.0000 516.200 0.0000 0.0000 5.0000 523.500 0.0000 0.0000 5.0000 7.854 99.300 7.751           7.909 7.776 99.400 99.300 10.621 10.546 0.074
DSCMET_421 2018-01-05 09:25:00 118051 444.600 0.0000 0.0000 5.0000 498.300 0.0000 0.0000 5.0000 459.600 0.0000 0.0000 5.0000 7.919 99.300 7.816           8.030 7.843 99.400 99.200 10.668 10.593 0.075
DSCMET_421 2018-01-05 09:20:00 118050 445.200 0.0000 0.0000 5.0000 481.700 0.0000 0.0000 5.0000 428.300 0.0000 0.0000 5.0000 7.768 99.300 7.665           7.926 7.644 99.400 99.300 10.559 10.485 0.074
DSCMET_421 2018-01-05 09:15:00 118049 445.200 0.0000 0.0000 5.0000 482.200 0.0000 0.0000 5.0000 446.300 0.0000 0.0000 5.0000 7.584 99.300 7.481           7.694 7.428 99.400 99.300 10.427 10.354 0.073
DSCMET_421 2018-01-05 09:10:00 118048 458.800 0.0000 0.0000 5.0000 491.000 0.0000 0.0000 5.0000 466.900 0.0000 0.0000 5.0000 7.557 99.300 7.454           7.694 7.411 99.400 99.300 10.408 10.335 0.073
DSCMET_421 2018-01-05 09:05:00 118047 481.100 0.0000 0.0000 5.0000 507.800 0.0000 0.0000 5.0000 505.100 0.0000 0.0000 5.0000 7.657 99.300 7.554           7.726 7.594 99.400 99.300 10.479 10.406 0.073
DSCMET_421 2018-01-05 09:00:00 118046 461.000 0.0000 0.0000 5.0000 493.400 0.0000 0.0000 5.0000 561.200 0.0000 0.0000 5.0000 7.807 99.300 7.704           8.090 7.660 99.400 99.300 10.587 10.513 0.074
DSCMET_421 2018-01-05 08:55:00 118045 473.400 0.0000 0.0000 5.0000 489.100 0.0000 0.0000 5.0000 483.300 0.0000 0.0000 5.0000 7.869 99.300 7.766           8.080 7.710 99.400 99.300 10.632 10.557 0.074
DSCMET_421 2018-01-05 08:50:00 118044 439.100 0.0000 0.0000 5.0000 473.900 0.0000 0.0000 5.0000 480.800 0.0000 0.0000 5.0000 7.725 99.300 7.622           7.860 7.644 99.400 99.300 10.528 10.454 0.074
DSCMET_421 2018-01-05 08:45:00 118043 460.100 0.0000 0.0000 5.0000 492.300 0.0000 0.0000 5.0000 543.100 0.0000 0.0000 5.0000 7.666 99.300 7.563           7.760 7.544 99.400 99.300 10.485 10.412 0.073
DSCMET_421 2018-01-05 08:40:00 118042 452.700 0.0000 0.0000 5.0000 502.000 0.0000 0.0000 5.0000 499.600 0.0000 0.0000 5.0000 7.677 99.300 7.574           7.976 7.494 99.400 99.300 10.493 10.420 0.073
DSCMET_421 2018-01-05 08:35:00 118041 443.000 0.0000 0.0000 5.0000 522.200 0.0000 0.0000 5.0000 510.200 0.0000 0.0000 5.0000 7.963 99.300 7.860           8.060 7.810 99.400 99.300 10.700 10.625 0.075
DSCMET_421 2018-01-05 08:30:00 118040 462.000 0.0000 0.0000 5.0000 515.000 0.0000 0.0000 5.0000 477.600 0.0000 0.0000 5.0000 7.671 99.300 7.568           7.843 7.427 99.400 99.300 10.489 10.416 0.073
DSCMET_421 2018-01-05 08:25:00 118039 430.900 0.0000 0.0000 5.0000 480.600 0.0000 0.0000 5.0000 468.600 0.0000 0.0000 5.0000 7.349 99.300 7.246           7.428 7.196 99.400 99.300 10.261 10.189 0.072
DSCMET_421 2018-01-05 08:20:00 118038 434.800 0.0000 0.0000 5.0000 469.700 0.0000 0.0000 5.0000 484.400 0.0000 0.0000 5.0000 7.441 99.300 7.338           7.561 7.312 99.400 99.300 10.325 10.253 0.072
DSCMET_421 2018-01-05 08:15:00 118037 413.900 0.0000 0.0000 5.0000 469.000 0.0000 0.0000 5.0000 548.500 0.0000 0.0000 5.0000 7.343 99.300 7.240           7.428 7.279 99.400 99.300 10.256 10.185 0.072
DSCMET_421 2018-01-05 08:10:00 118036 414.700 0.0000 0.0000 5.0000 471.700 0.0000 0.0000 5.0000 601.900 0.0000 0.0000 5.0000 7.352 99.300 7.249           7.445 7.295 99.400 99.300 10.263 10.191 0.072
DSCMET_421 2018-01-05 08:05:00 118035 383.000 0.0000 0.0000 5.0000 455.600 0.0000 0.0000 5.0000 497.800 0.0000 0.0000 5.0000 7.390 99.300 7.287           7.594 7.262 99.400 99.300 10.289 10.217 0.072
DSCMET_421 2018-01-05 08:00:00 118034 382.900 0.0000 0.0000 5.0000 459.100 0.0000 0.0000 5.0000 477.200 0.0000 0.0000 5.0000 7.410 99.300 7.307           7.594 7.245 99.400 99.300 10.304 10.231 0.072
DSCMET_421 2018-01-05 07:55:00 118033 383.100 0.0000 0.0000 5.0000 461.200 0.0000 0.0000 5.0000 488.200 0.0000 0.0000 5.0000 7.410 99.300 7.307           7.610 7.178 99.400 99.300 10.304 10.231 0.072
DSCMET_421 2018-01-05 07:50:00 118032 384.400 0.0000 0.0000 5.0000 465.300 0.0000 0.0000 5.0000 507.700 0.0000 0.0000 5.0000 7.157 99.300 7.055           7.229 7.095 99.400 99.300 10.126 10.056 0.071
DSCMET_421 2018-01-05 07:45:00 118031 375.700 0.0000 0.0000 5.0000 462.600 0.0000 0.0000 5.0000 466.400 0.0000 0.0000 5.0000 7.294 99.300 7.191           7.528 7.179 99.400 99.300 10.222 10.150 0.072
DSCMET_421 2018-01-05 07:40:00 118030 370.500 0.0000 0.0000 5.0000 458.600 0.0000 0.0000 5.0000 461.800 0.0000 0.0000 5.0000 7.562 99.300 7.459           7.877 7.195 99.400 99.300 10.411 10.338 0.073
DSCMET_421 2018-01-05 07:35:00 118029 369.500 0.0000 0.0000 5.0000 459.600 0.0000 0.0000 5.0000 464.800 0.0000 0.0000 5.0000 7.313 99.300 7.210           7.810 7.130 99.400 99.300 10.235 10.164 0.072
DSCMET_421 2018-01-05 07:30:00 118028 367.100 0.0000 0.0000 5.0000 456.500 0.0000 0.0000 5.0000 468.100 0.0000 0.0000 5.0000 7.235 99.300 7.133           7.312 7.146 99.400 99.300 10.181 10.110 0.071
DSCMET_421 2018-01-05 07:25:00 118027 364.800 0.0000 0.0000 5.0000 454.900 0.0000 0.0000 5.0000 451.900 0.0000 0.0000 5.0000 7.254 99.300 7.152           7.411 7.146 99.400 99.300 10.194 10.123 0.071
DSCMET_421 2018-01-05 07:20:00 118026 363.300 0.0000 0.0000 5.0000 456.000 0.0000 0.0000 5.0000 442.000 0.0000 0.0000 5.0000 7.540 99.300 7.437           8.010 7.146 99.400 99.300 10.396 10.323 0.073
DSCMET_421 2018-01-05 07:15:00 118025 365.200 0.0000 0.0000 5.0000 457.300 0.0000 0.0000 5.0000 442.500 0.0000 0.0000 5.0000 7.241 99.300 7.139           7.660 6.980 99.400 99.300 10.185 10.114 0.071
DSCMET_421 2018-01-05 07:10:00 118024 368.700 0.0000 0.0000 5.0000 457.900 0.0000 0.0000 5.0000 443.000 0.0000 0.0000 5.0000 7.176 99.300 7.074           7.312 7.080 99.400 99.300 10.140 10.069 0.071
DSCMET_421 2018-01-05 07:05:00 118023 370.000 0.0000 0.0000 5.0000 459.200 0.0000 0.0000 5.0000 441.900 0.0000 0.0000 5.0000 7.312 99.300 7.209           7.611 6.913 99.400 99.300 10.235 10.163 0.072
DSCMET_421 2018-01-05 07:00:00 118022 370.700 0.0000 0.0000 5.0000 460.700 0.0000 0.0000 5.0000 440.000 0.0000 0.0000 5.0000 7.181 99.300 7.079           7.444 6.880 99.400 99.300 10.143 10.072 0.071
DSCMET_421 2018-01-05 06:55:00 118021 371.800 0.0000 0.0000 5.0000 463.200 0.0000 0.0000 5.0000 438.500 0.0000 0.0000 5.0000 7.134 99.300 7.032           7.261 7.012 99.400 99.300 10.111 10.040 0.071
DSCMET_421 2018-01-05 06:50:00 118020 372.200 0.0000 0.0000 5.0000 469.100 0.0000 0.0000 5.0000 437.900 0.0000 0.0000 5.0000 7.282 99.300 7.180           7.395 7.029 99.400 99.300 10.214 10.142 0.071
DSCMET_421 2018-01-05 06:45:00 118019 373.200 0.0000 0.0000 5.0000 458.200 0.0000 0.0000 5.0000 437.800 0.0000 0.0000 5.0000 7.210 99.300 7.108           7.311 7.029 99.400 99.300 10.163 10.092 0.071
DSCMET_421 2018-01-05 06:40:00 118018 370.300 0.0000 0.0000 5.0000 453.300 0.0000 0.0000 5.0000 438.000 0.0000 0.0000 5.0000 7.398 99.300 7.295           7.527 7.278 99.400 99.300 10.295 10.223 0.072
DSCMET_421 2018-01-05 06:35:00 118017 371.300 0.0000 0.0000 5.0000 453.800 0.0000 0.0000 5.0000 438.100 0.0000 0.0000 5.0000 7.268 99.300 7.166           7.478 7.128 99.400 99.300 10.204 10.132 0.071
DSCMET_421 2018-01-05 06:30:00 118016 372.900 0.0000 0.0000 5.0000 454.500 0.0000 0.0000 5.0000 438.500 0.0000 0.0000 5.0000 7.283 99.300 7.180           7.411 7.146 99.400 99.300 10.214 10.143 0.071
DSCMET_421 2018-01-05 06:25:00 118015 374.000 0.0000 0.0000 5.0000 453.400 0.0000 0.0000 5.0000 438.900 0.0000 0.0000 5.0000 7.336 99.300 7.233           7.477 7.195 99.400 99.300 10.251 10.180 0.072
DSCMET_421 2018-01-05 06:20:00 118014 375.300 0.0000 0.0000 5.0000 454.000 0.0000 0.0000 5.0000 439.500 0.0000 0.0000 5.0000 7.483 99.300 7.380           7.694 7.278 99.400 99.300 10.355 10.283 0.072
DSCMET_421 2018-01-05 06:15:00 118013 374.700 0.0000 0.0000 5.0000 453.400 0.0000 0.0000 5.0000 440.400 0.0000 0.0000 5.0000 7.421 99.300 7.318           7.644 7.162 99.300 99.300 10.311 10.239 0.072
DSCMET_421 2018-01-05 06:10:00 118012 375.000 0.0000 0.0000 5.0000 453.900 0.0000 0.0000 5.0000 440.400 0.0000 0.0000 5.0000 7.531 99.300 7.428           7.876 7.262 99.400 99.300 10.389 10.316 0.073
DSCMET_421 2018-01-05 06:05:00 118011 375.200 0.0000 0.0000 5.0000 454.600 0.0000 0.0000 5.0000 437.400 0.0000 0.0000 5.0000 7.338 99.300 7.235           7.510 7.096 99.400 99.300 10.253 10.181 0.072
DSCMET_421 2018-01-05 06:00:00 118010 376.400 0.0000 0.0000 5.0000 455.800 0.0000 0.0000 5.0000 431.300 0.0000 0.0000 5.0000 7.474 99.300 7.371           7.677 7.328 99.400 99.300 10.349 10.276 0.072
DSCMET_421 2018-01-05 05:55:00 118009 377.700 0.0000 0.0000 5.0000 457.300 0.0000 0.0000 5.0000 422.500 0.0000 0.0000 5.0000 7.293 99.300 7.190           7.694 6.946 99.400 99.300 10.221 10.150 0.072
DSCMET_421 2018-01-05 05:50:00 118008 380.200 0.0000 0.0000 5.0000 460.100 0.0000 0.0000 5.0000 414.300 0.0000 0.0000 5.0000 7.257 99.300 7.155           7.328 7.063 99.400 99.200 10.196 10.125 0.071
DSCMET_421 2018-01-05 05:45:00 118007 381.500 0.0000 0.0000 5.0000 462.400 0.0000 0.0000 5.0000 428.600 0.0000 0.0000 5.0000 7.272 99.300 7.170           7.478 7.162 99.400 99.300 10.207 10.135 0.071
DSCMET_421 2018-01-05 05:40:00 118006 378.700 0.0000 0.0000 5.0000 456.800 0.0000 0.0000 5.0000 439.700 0.0000 0.0000 5.0000 7.427 99.300 7.324           7.826 7.129 99.400 99.300 10.316 10.243 0.072
DSCMET_421 2018-01-05 05:35:00 118005 375.000 0.0000 0.0000 5.0000 456.400 0.0000 0.0000 5.0000 439.100 0.0000 0.0000 5.0000 7.441 99.300 7.338           7.693 7.212 99.400 99.300 10.325 10.253 0.072
DSCMET_421 2018-01-05 05:30:00 118004 372.800 0.0000 0.0000 5.0000 456.900 0.0000 0.0000 5.0000 438.300 0.0000 0.0000 5.0000 7.533 99.300 7.430           7.660 7.427 99.400 99.300 10.391 10.318 0.073
DSCMET_421 2018-01-05 05:25:00 118003 372.800 0.0000 0.0000 5.0000 457.800 0.0000 0.0000 5.0000 439.000 0.0000 0.0000 5.0000 7.544 99.300 7.441           7.627 7.477 99.400 99.300 10.398 10.326 0.073
DSCMET_421 2018-01-05 05:20:00 118002 371.500 0.0000 0.0000 5.0000 459.900 0.0000 0.0000 5.0000 439.300 0.0000 0.0000 5.0000 7.511 99.300 7.408           7.676 7.378 99.400 99.300 10.375 10.302 0.073
DSCMET_421 2018-01-05 05:15:00 118001 373.000 0.0000 0.0000 5.0000 462.600 0.0000 0.0000 5.0000 443.200 0.0000 0.0000 5.0000 7.316 99.300 7.213           7.428 7.195 99.400 99.300 10.237 10.166 0.072
DSCMET_421 2018-01-05 05:10:00 118000 374.000 0.0000 0.0000 5.0000 463.300 0.0000 0.0000 5.0000 450.100 0.0000 0.0000 5.0000 7.519 99.300 7.416           7.726 7.295 99.400 99.300 10.381 10.308 0.073
DSCMET_421 2018-01-05 05:05:00 117999 372.000 0.0000 0.0000 5.0000 459.700 0.0000 0.0000 5.0000 426.300 0.0000 0.0000 5.0000 7.669 99.300 7.566           7.776 7.560 99.400 99.300 10.488 10.414 0.073
DSCMET_421 2018-01-05 05:00:00 117998 372.400 0.0000 0.0000 5.0000 459.000 0.0000 0.0000 5.0000 419.700 0.0000 0.0000 5.0000 7.638 99.300 7.535           7.726 7.544 99.400 99.300 10.465 10.392 0.073
DSCMET_421 2018-01-05 04:55:00 117997 373.000 0.0000 0.0000 5.0000 459.300 0.0000 0.0000 5.0000 421.600 0.0000 0.0000 5.0000 7.599 99.300 7.496           7.693 7.443 99.400 99.300 10.438 10.364 0.073
DSCMET_421 2018-01-05 04:50:00 117996 373.700 0.0000 0.0000 5.0000 460.000 0.0000 0.0000 5.0000 422.400 0.0000 0.0000 5.0000 7.486 99.300 7.383           7.643 7.377 99.400 99.300 10.357 10.285 0.073
DSCMET_421 2018-01-05 04:45:00 117995 374.300 0.0000 0.0000 5.0000 464.300 0.0000 0.0000 5.0000 424.300 0.0000 0.0000 5.0000 7.426 99.300 7.323           7.560 7.327 99.400 99.300 10.315 10.243 0.072
DSCMET_421 2018-01-05 04:40:00 117994 375.300 0.0000 0.0000 5.0000 465.500 0.0000 0.0000 5.0000 426.100 0.0000 0.0000 5.0000 7.617 99.300 7.514           7.742 7.510 99.400 99.300 10.450 10.377 0.073
DSCMET_421 2018-01-05 04:35:00 117993 379.700 0.0000 0.0000 5.0000 465.100 0.0000 0.0000 5.0000 425.200 0.0000 0.0000 5.0000 7.766 99.300 7.663           7.975 7.509 99.400 99.300 10.557 10.483 0.074
DSCMET_421 2018-01-05 04:30:00 117992 377.900 0.0000 0.0000 5.0000 465.500 0.0000 0.0000 5.0000 428.200 0.0000 0.0000 5.0000 7.692 99.300 7.589           7.908 7.509 99.400 99.300 10.504 10.431 0.074
DSCMET_421 2018-01-05 04:25:00 117991 381.400 0.0000 0.0000 5.0000 468.900 0.0000 0.0000 5.0000 420.300 0.0000 0.0000 5.0000 7.652 99.300 7.549           7.741 7.559 99.400 99.300 10.475 10.402 0.073
DSCMET_421 2018-01-05 04:20:00 117990 385.400 0.0000 0.0000 5.0000 468.300 0.0000 0.0000 5.0000 413.200 0.0000 0.0000 5.0000 7.848 99.300 7.745           7.941 7.592 99.400 99.300 10.616 10.542 0.074
DSCMET_421 2018-01-05 04:15:00 117989 389.100 0.0000 0.0000 5.0000 467.300 0.0000 0.0000 5.0000 399.500 0.0000 0.0000 5.0000 7.672 99.300 7.569           7.791 7.591 99.400 99.300 10.490 10.416 0.073
DSCMET_421 2018-01-05 04:10:00 117988 393.500 0.0000 0.0000 5.0000 466.400 0.0000 0.0000 5.0000 404.700 0.0000 0.0000 5.0000 7.692 99.300 7.589           7.807 7.625 99.400 99.300 10.504 10.431 0.074
DSCMET_421 2018-01-05 04:05:00 117987 393.100 0.0000 0.0000 5.0000 467.900 0.0000 0.0000 5.0000 388.400 0.0000 0.0000 5.0000 7.686 99.300 7.583           7.774 7.591 99.400 99.200 10.500 10.426 0.073
DSCMET_421 2018-01-05 04:00:00 117986 396.800 0.0000 0.0000 5.0000 472.400 0.0000 0.0000 5.0000 378.500 0.0000 0.0000 5.0000 7.626 99.300 7.523           7.741 7.558 99.400 99.300 10.457 10.384 0.073
DSCMET_421 2018-01-05 03:55:00 117985 399.000 0.0000 0.0000 5.0000 476.400 0.0000 0.0000 5.0000 388.300 0.0000 0.0000 5.0000 7.838 99.300 7.735           8.160 7.625 99.400 99.300 10.609 10.535 0.074
DSCMET_421 2018-01-05 03:50:00 117984 401.500 0.0000 0.0000 5.0000 478.500 0.0000 0.0000 5.0000 395.100 0.0000 0.0000 5.0000 7.929 99.300 7.826           8.210 7.807 99.400 99.300 10.675 10.601 0.075
DSCMET_421 2018-01-05 03:45:00 117983 405.800 0.0000 0.0000 5.0000 477.800 0.0000 0.0000 5.0000 424.000 0.0000 0.0000 5.0000 7.958 99.300 7.855           8.040 7.823 99.400 99.300 10.696 10.621 0.075
DSCMET_421 2018-01-05 03:40:00 117982 412.800 0.0000 0.0000 5.0000 483.000 0.0000 0.0000 5.0000 425.700 0.0000 0.0000 5.0000 7.741 99.300 7.638           7.906 7.641 99.300 99.300 10.539 10.465 0.074
DSCMET_421 2018-01-05 03:35:00 117981 420.600 0.0000 0.0000 5.0000 488.500 0.0000 0.0000 5.0000 426.600 0.0000 0.0000 5.0000 7.722 99.300 7.619           7.824 7.608 99.400 99.300 10.526 10.452 0.074
DSCMET_421 2018-01-05 03:30:00 117980 431.300 0.0000 0.0000 5.0000 492.800 0.0000 0.0000 5.0000 446.800 0.0000 0.0000 5.0000 7.777 99.300 7.674           8.040 7.624 99.400 99.300 10.565 10.491 0.074
DSCMET_421 2018-01-05 03:25:00 117979 432.700 0.0000 0.0000 5.0000 499.600 0.0000 0.0000 5.0000 450.700 0.0000 0.0000 5.0000 7.832 99.300 7.729           8.110 7.558 99.400 99.300 10.605 10.531 0.074
DSCMET_421 2018-01-05 03:20:00 117978 444.600 0.0000 0.0000 5.0000 499.700 0.0000 0.0000 5.0000 491.000 0.0000 0.0000 5.0000 7.714 99.300 7.611           8.160 7.542 99.400 99.300 10.520 10.446 0.074
DSCMET_421 2018-01-05 03:15:00 117977 457.300 0.0000 0.0000 5.0000 509.300 0.0000 0.0000 5.0000 557.900 0.0000 0.0000 5.0000 7.827 99.300 7.724           7.908 7.725 99.400 99.300 10.601 10.527 0.074
DSCMET_421 2018-01-05 03:10:00 117976 425.900 0.0000 0.0000 5.0000 478.400 0.0000 0.0000 5.0000 537.600 0.0000 0.0000 5.0000 7.776 99.300 7.673           7.874 7.692 99.400 99.300 10.564 10.490 0.074
DSCMET_421 2018-01-05 03:05:00 117975 419.700 0.0000 0.0000 5.0000 473.000 0.0000 0.0000 5.0000 468.300 0.0000 0.0000 5.0000 7.816 99.300 7.713           7.890 7.707 99.400 99.300 10.593 10.519 0.074
DSCMET_421 2018-01-05 03:00:00 117974 419.700 0.0000 0.0000 5.0000 472.700 0.0000 0.0000 5.0000 456.600 0.0000 0.0000 5.0000 7.670 99.300 7.567           7.757 7.591 99.400 99.300 10.488 10.415 0.073
DSCMET_421 2018-01-05 02:55:00 117973 422.900 0.0000 0.0000 5.0000 473.700 0.0000 0.0000 5.0000 455.500 0.0000 0.0000 5.0000 7.795 99.300 7.692           7.973 7.591 99.400 99.300 10.578 10.504 0.074
DSCMET_421 2018-01-05 02:50:00 117972 423.600 0.0000 0.0000 5.0000 475.500 0.0000 0.0000 5.0000 452.200 0.0000 0.0000 5.0000 7.815 99.300 7.712           7.923 7.724 99.400 99.300 10.593 10.518 0.074
DSCMET_421 2018-01-05 02:45:00 117971 422.600 0.0000 0.0000 5.0000 473.400 0.0000 0.0000 5.0000 452.900 0.0000 0.0000 5.0000 7.774 99.300 7.671           7.840 7.707 99.400 99.300 10.563 10.489 0.074
DSCMET_421 2018-01-05 02:40:00 117970 422.500 0.0000 0.0000 5.0000 475.200 0.0000 0.0000 5.0000 451.900 0.0000 0.0000 5.0000 7.817 99.300 7.714           7.873 7.756 99.300 99.200 10.594 10.520 0.074
DSCMET_421 2018-01-05 02:35:00 117969 423.500 0.0000 0.0000 5.0000 476.200 0.0000 0.0000 5.0000 451.600 0.0000 0.0000 5.0000 7.848 99.300 7.745           7.972 7.740 99.300 99.300 10.616 10.542 0.074
DSCMET_421 2018-01-05 02:30:00 117968 426.500 0.0000 0.0000 5.0000 477.200 0.0000 0.0000 5.0000 453.200 0.0000 0.0000 5.0000 7.931 99.300 7.828           8.020 7.823 99.400 99.300 10.677 10.602 0.075
DSCMET_421 2018-01-05 02:25:00 117967 429.400 0.0000 0.0000 5.0000 479.400 0.0000 0.0000 5.0000 456.500 0.0000 0.0000 5.0000 7.840 99.300 7.737           7.922 7.739 99.400 99.300 10.611 10.536 0.074
DSCMET_421 2018-01-05 02:20:00 117966 429.200 0.0000 0.0000 5.0000 479.700 0.0000 0.0000 5.0000 463.500 0.0000 0.0000 5.0000 7.857 99.300 7.754           7.956 7.723 99.400 99.300 10.623 10.549 0.074
DSCMET_421 2018-01-05 02:15:00 117965 430.200 0.0000 0.0000 5.0000 483.300 0.0000 0.0000 5.0000 458.800 0.0000 0.0000 5.0000 7.914 99.300 7.811           8.010 7.839 99.300 99.300 10.664 10.590 0.075
DSCMET_421 2018-01-05 02:10:00 117964 433.500 0.0000 0.0000 5.0000 481.900 0.0000 0.0000 5.0000 458.600 0.0000 0.0000 5.0000 7.910 99.300 7.807           8.020 7.756 99.300 99.300 10.661 10.587 0.075
DSCMET_421 2018-01-05 02:05:00 117963 436.000 0.0000 0.0000 5.0000 481.900 0.0000 0.0000 5.0000 461.100 0.0000 0.0000 5.0000 8.000 99.300 7.897           8.290 7.806 99.400 99.300 10.727 10.652 0.075
DSCMET_421 2018-01-05 02:00:00 117962 441.600 0.0000 0.0000 5.0000 483.400 0.0000 0.0000 5.0000 466.000 0.0000 0.0000 5.0000 7.908 99.300 7.805           8.140 7.739 99.300 99.300 10.660 10.585 0.075
DSCMET_421 2018-01-05 01:55:00 117961 445.400 0.0000 0.0000 5.0000 487.100 0.0000 0.0000 5.0000 492.400 0.0000 0.0000 5.0000 7.889 99.300 7.786           7.988 7.772 99.400 99.300 10.646 10.572 0.075
DSCMET_421 2018-01-05 01:50:00 117960 451.900 0.0000 0.0000 5.0000 488.200 0.0000 0.0000 5.0000 517.500 0.0000 0.0000 5.0000 7.860 99.300 7.757           7.955 7.772 99.400 99.300 10.625 10.551 0.074
DSCMET_421 2018-01-05 01:45:00 117959 453.900 0.0000 0.0000 5.0000 485.300 0.0000 0.0000 5.0000 519.500 0.0000 0.0000 5.0000 7.911 99.300 7.808           8.020 7.772 99.400 99.300 10.662 10.588 0.075
DSCMET_421 2018-01-05 01:40:00 117958 465.800 0.0000 0.0000 5.0000 487.800 0.0000 0.0000 5.0000 523.500 0.0000 0.0000 5.0000 7.937 99.300 7.834           8.040 7.872 99.400 99.300 10.681 10.606 0.075
DSCMET_421 2018-01-05 01:35:00 117957 473.000 0.0000 0.0000 5.0000 485.600 0.0000 0.0000 5.0000 553.400 0.0000 0.0000 5.0000 7.974 99.300 7.871           8.070 7.838 99.400 99.300 10.708 10.633 0.075
DSCMET_421 2018-01-05 01:30:00 117956 466.900 0.0000 0.0000 5.0000 496.000 0.0000 0.0000 5.0000 522.400 0.0000 0.0000 5.0000 8.050 99.300 7.947           8.140 7.988 99.400 99.300 10.764 10.688 0.075
DSCMET_421 2018-01-05 01:25:00 117955 475.600 0.0000 0.0000 5.0000 502.200 0.0000 0.0000 5.0000 514.000 0.0000 0.0000 5.0000 7.954 99.300 7.851           8.100 7.888 99.400 99.300 10.693 10.619 0.075
DSCMET_421 2018-01-05 01:20:00 117954 483.900 0.0000 0.0000 5.0000 502.200 0.0000 0.0000 5.0000 587.000 0.0000 0.0000 5.0000 7.971 99.300 7.868           8.050 7.922 99.400 99.300 10.706 10.631 0.075
DSCMET_421 2018-01-05 01:15:00 117953 464.400 0.0000 0.0000 5.0000 489.800 0.0000 0.0000 5.0000 580.800 0.0000 0.0000 5.0000 8.110 99.300 8.007           8.170 8.040 99.400 99.300 10.808 10.732 0.076
DSCMET_421 2018-01-05 01:10:00 117952 452.600 0.0000 0.0000 5.0000 493.600 0.0000 0.0000 5.0000 551.200 0.0000 0.0000 5.0000 8.100 99.300 7.997           8.190 8.040 99.300 99.300 10.800 10.725 0.076
DSCMET_421 2018-01-05 01:05:00 117951 448.700 0.0000 0.0000 5.0000 490.800 0.0000 0.0000 5.0000 537.200 0.0000 0.0000 5.0000 8.210 99.300 8.107           8.320 8.050 99.400 99.300 10.881 10.805 0.076
DSCMET_421 2018-01-05 01:00:00 117950 444.700 0.0000 0.0000 5.0000 488.100 0.0000 0.0000 5.0000 505.800 0.0000 0.0000 5.0000 8.100 99.300 7.997           8.270 8.040 99.400 99.300 10.800 10.725 0.076
DSCMET_421 2018-01-05 00:55:00 117949 444.600 0.0000 0.0000 5.0000 486.700 0.0000 0.0000 5.0000 510.000 0.0000 0.0000 5.0000 8.170 99.300 8.067           8.250 8.090 99.300 99.300 10.852 10.776 0.076
DSCMET_421 2018-01-05 00:50:00 117948 446.200 0.0000 0.0000 5.0000 486.700 0.0000 0.0000 5.0000 530.100 0.0000 0.0000 5.0000 8.190 99.300 8.087           8.440 8.040 99.400 99.300 10.867 10.791 0.076
DSCMET_421 2018-01-05 00:45:00 117947 448.100 0.0000 0.0000 5.0000 481.600 0.0000 0.0000 5.0000 566.700 0.0000 0.0000 5.0000 8.220 99.300 8.117           8.300 8.100 99.300 99.200 10.889 10.813 0.076
DSCMET_421 2018-01-05 00:40:00 117946 452.000 0.0000 0.0000 5.0000 472.600 0.0000 0.0000 5.0000 561.500 0.0000 0.0000 5.0000 8.110 99.300 8.007           8.170 8.050 99.300 99.300 10.808 10.732 0.076
DSCMET_421 2018-01-05 00:35:00 117945 446.400 0.0000 0.0000 5.0000 464.700 0.0000 0.0000 5.0000 534.800 0.0000 0.0000 5.0000 8.120 99.300 8.017           8.190 8.050 99.400 99.300 10.815 10.739 0.076
DSCMET_421 2018-01-05 00:30:00 117944 442.500 0.0000 0.0000 5.0000 462.500 0.0000 0.0000 5.0000 552.700 0.0000 0.0000 5.0000 8.110 99.300 8.007           8.170 8.040 99.400 99.300 10.808 10.732 0.076
DSCMET_421 2018-01-05 00:25:00 117943 438.900 0.0000 0.0000 5.0000 459.400 0.0000 0.0000 5.0000 520.000 0.0000 0.0000 5.0000 8.030 99.300 7.927           8.070 7.955 99.400 99.300 10.749 10.674 0.075
DSCMET_421 2018-01-05 00:20:00 117942 437.600 0.0000 0.0000 5.0000 458.500 0.0000 0.0000 5.0000 507.800 0.0000 0.0000 5.0000 7.960 99.300 7.857           8.020 7.921 99.400 99.300 10.698 10.623 0.075
DSCMET_421 2018-01-05 00:15:00 117941 436.300 0.0000 0.0000 5.0000 458.100 0.0000 0.0000 5.0000 502.300 0.0000 0.0000 5.0000 7.990 99.300 7.887           8.090 7.921 99.400 99.300 10.720 10.645 0.075
DSCMET_421 2018-01-05 00:10:00 117940 436.300 0.0000 0.0000 5.0000 456.300 0.0000 0.0000 5.0000 522.000 0.0000 0.0000 5.0000 8.090 99.300 7.987           8.150 8.040 99.400 99.300 10.793 10.717 0.076
DSCMET_421 2018-01-05 00:05:00 117939 433.600 0.0000 0.0000 5.0000 453.500 0.0000 0.0000 5.0000 529.000 0.0000 0.0000 5.0000 8.060 99.300 7.957           8.190 7.971 99.400 99.300 10.771 10.696 0.075
DSCMET_421 2018-01-05 00:00:00 117938 430.100 0.0000 0.0000 5.0000 449.300 0.0000 0.0000 5.0000 498.400 0.0000 0.0000 5.0000 8.060 99.300 7.957           8.220 7.821 99.300 99.300 10.771 10.696 0.075
DSCMET_421 2018-01-04 23:55:00 117937 429.700 0.0000 0.0000 5.0000 449.000 0.0000 0.0000 5.0000 497.600 0.0000 0.0000 5.0000 8.170 99.300 8.067           8.240 8.100 99.400 99.300 10.852 10.776 0.076
DSCMET_421 2018-01-04 23:50:00 117936 429.800 0.0000 0.0000 5.0000 448.700 0.0000 0.0000 5.0000 499.600 0.0000 0.0000 5.0000 8.180 99.300 8.077           8.340 8.020 99.300 99.300 10.859 10.783 0.076
DSCMET_421 2018-01-04 23:45:00 117935 429.600 0.0000 0.0000 5.0000 448.500 0.0000 0.0000 5.0000 509.400 0.0000 0.0000 5.0000 8.000 99.300 7.897           8.090 7.921 99.400 99.300 10.727 10.652 0.075
DSCMET_421 2018-01-04 23:40:00 117934 428.700 0.0000 0.0000 5.0000 447.900 0.0000 0.0000 5.0000 527.900 0.0000 0.0000 5.0000 8.090 99.300 7.987           8.190 8.040 99.400 99.300 10.793 10.717 0.076
DSCMET_421 2018-01-04 23:35:00 117933 427.000 0.0000 0.0000 5.0000 441.600 0.0000 0.0000 5.0000 536.300 0.0000 0.0000 5.0000 8.200 99.300 8.097           8.270 8.140 99.400 99.300 10.874 10.798 0.076
DSCMET_421 2018-01-04 23:30:00 117932 425.000 0.0000 0.0000 5.0000 438.100 0.0000 0.0000 5.0000 510.600 0.0000 0.0000 5.0000 8.200 99.300 8.097           8.270 8.100 99.400 99.300 10.874 10.798 0.076
DSCMET_421 2018-01-04 23:25:00 117931 423.100 0.0000 0.0000 5.0000 436.900 0.0000 0.0000 5.0000 494.000 0.0000 0.0000 5.0000 8.290 99.300 8.187           8.350 8.240 99.400 99.300 10.941 10.864 0.077
DSCMET_421 2018-01-04 23:20:00 117930 423.100 0.0000 0.0000 5.0000 436.400 0.0000 0.0000 5.0000 490.100 0.0000 0.0000 5.0000 8.250 99.300 8.147           8.340 8.170 99.400 99.300 10.911 10.835 0.076
DSCMET_421 2018-01-04 23:15:00 117929 422.900 0.0000 0.0000 5.0000 435.800 0.0000 0.0000 5.0000 491.600 0.0000 0.0000 5.0000 8.260 99.300 8.157           8.400 8.100 99.400 99.300 10.918 10.842 0.076
DSCMET_421 2018-01-04 23:10:00 117928 423.000 0.0000 0.0000 5.0000 435.300 0.0000 0.0000 5.0000 494.000 0.0000 0.0000 5.0000 8.110 99.300 8.007           8.240 7.937 99.400 99.300 10.808 10.732 0.076
DSCMET_421 2018-01-04 23:05:00 117927 423.000 0.0000 0.0000 5.0000 434.800 0.0000 0.0000 5.0000 499.000 0.0000 0.0000 5.0000 8.250 99.300 8.147           8.530 7.887 99.300 99.200 10.911 10.835 0.076
DSCMET_421 2018-01-04 23:00:00 117926 423.100 0.0000 0.0000 5.0000 434.200 0.0000 0.0000 5.0000 502.800 0.0000 0.0000 5.0000 8.390 99.300 8.287           8.480 8.200 99.400 99.300 11.015 10.938 0.077
DSCMET_421 2018-01-04 22:55:00 117925 422.700 0.0000 0.0000 5.0000 433.300 0.0000 0.0000 5.0000 503.000 0.0000 0.0000 5.0000 8.210 99.300 8.107           8.320 8.140 99.400 99.300 10.881 10.805 0.076
DSCMET_421 2018-01-04 22:50:00 117924 422.000 0.0000 0.0000 5.0000 432.300 0.0000 0.0000 5.0000 508.800 0.0000 0.0000 5.0000 8.270 99.300 8.167           8.330 8.170 99.400 99.300 10.926 10.849 0.076
DSCMET_421 2018-01-04 22:45:00 117923 420.200 0.0000 0.0000 5.0000 431.600 0.0000 0.0000 5.0000 515.100 0.0000 0.0000 5.0000 8.380 99.300 8.277           8.480 8.250 99.400 99.300 11.008 10.931 0.077
DSCMET_421 2018-01-04 22:40:00 117922 418.900 0.0000 0.0000 5.0000 430.500 0.0000 0.0000 5.0000 546.400 0.0000 0.0000 5.0000 8.460 99.300 8.357           8.530 8.370 99.400 99.300 11.068 10.990 0.077
DSCMET_421 2018-01-04 22:35:00 117921 412.700 0.0000 0.0000 5.0000 426.600 0.0000 0.0000 5.0000 513.700 0.0000 0.0000 5.0000 8.200 99.300 8.097           8.350 8.100 99.400 99.300 10.874 10.798 0.076
DSCMET_421 2018-01-04 22:30:00 117920 409.500 0.0000 0.0000 5.0000 424.300 0.0000 0.0000 5.0000 480.600 0.0000 0.0000 5.0000 8.310 99.300 8.207           8.380 8.170 99.400 99.300 10.956 10.879 0.077
DSCMET_421 2018-01-04 22:25:00 117919 409.500 0.0000 0.0000 5.0000 424.000 0.0000 0.0000 5.0000 488.600 0.0000 0.0000 5.0000 8.290 99.300 8.187           8.370 8.240 99.400 99.300 10.941 10.864 0.077
DSCMET_421 2018-01-04 22:20:00 117918 409.500 0.0000 0.0000 5.0000 423.500 0.0000 0.0000 5.0000 499.000 0.0000 0.0000 5.0000 8.350 99.300 8.247           8.430 8.300 99.400 99.300 10.985 10.908 0.077
DSCMET_421 2018-01-04 22:15:00 117917 409.800 0.0000 0.0000 5.0000 423.300 0.0000 0.0000 5.0000 502.300 0.0000 0.0000 5.0000 8.390 99.300 8.287           8.450 8.350 99.400 99.300 11.015 10.938 0.077
DSCMET_421 2018-01-04 22:10:00 117916 409.800 0.0000 0.0000 5.0000 422.900 0.0000 0.0000 5.0000 505.500 0.0000 0.0000 5.0000 8.330 99.300 8.227           8.420 8.220 99.400 99.300 10.970 10.894 0.077
DSCMET_421 2018-01-04 22:05:00 117915 409.500 0.0000 0.0000 5.0000 422.500 0.0000 0.0000 5.0000 504.000 0.0000 0.0000 5.0000 8.440 99.300 8.337           8.530 8.370 99.400 99.300 11.053 10.975 0.077
DSCMET_421 2018-01-04 22:00:00 117914 408.500 0.0000 0.0000 5.0000 421.700 0.0000 0.0000 5.0000 499.500 0.0000 0.0000 5.0000 8.390 99.300 8.287           8.500 8.230 99.400 99.300 11.015 10.938 0.077
DSCMET_421 2018-01-04 21:55:00 117913 408.800 0.0000 0.0000 5.0000 421.300 0.0000 0.0000 5.0000 501.700 0.0000 0.0000 5.0000 8.420 99.300 8.317           8.480 8.330 99.400 99.300 11.038 10.960 0.077
DSCMET_421 2018-01-04 21:50:00 117912 409.000 0.0000 0.0000 5.0000 421.100 0.0000 0.0000 5.0000 507.300 0.0000 0.0000 5.0000 8.360 99.300 8.257           8.450 8.300 99.400 99.300 10.993 10.916 0.077
DSCMET_421 2018-01-04 21:45:00 117911 409.300 0.0000 0.0000 5.0000 420.600 0.0000 0.0000 5.0000 515.100 0.0000 0.0000 5.0000 8.410 99.300 8.307           8.470 8.250 99.400 99.300 11.030 10.953 0.077
DSCMET_421 2018-01-04 21:40:00 117910 408.200 0.0000 0.0000 5.0000 420.000 0.0000 0.0000 5.0000 527.400 0.0000 0.0000 5.0000 8.420 99.300 8.317           8.530 8.280 99.400 99.300 11.038 10.960 0.077
DSCMET_421 2018-01-04 21:35:00 117909 406.300 0.0000 0.0000 5.0000 419.300 0.0000 0.0000 5.0000 537.900 0.0000 0.0000 5.0000 8.530 99.300 8.426           8.630 8.400 99.400 99.300 11.120 11.043 0.078
DSCMET_421 2018-01-04 21:30:00 117908 401.900 0.0000 0.0000 5.0000 417.200 0.0000 0.0000 5.0000 546.200 0.0000 0.0000 5.0000 8.630 99.300 8.526           8.680 8.570 99.400 99.300 11.196 11.118 0.078
DSCMET_421 2018-01-04 21:25:00 117907 397.600 0.0000 0.0000 5.0000 415.800 0.0000 0.0000 5.0000 566.500 0.0000 0.0000 5.0000 8.600 99.300 8.496           8.650 8.550 99.400 99.300 11.173 11.095 0.078
DSCMET_421 2018-01-04 21:20:00 117906 388.500 0.0000 0.0000 5.0000 407.600 0.0000 0.0000 5.0000 534.400 0.0000 0.0000 5.0000 8.570 99.300 8.466           8.620 8.500 99.300 99.300 11.151 11.073 0.078
DSCMET_421 2018-01-04 21:15:00 117905 383.000 0.0000 0.0000 5.0000 402.500 0.0000 0.0000 5.0000 515.200 0.0000 0.0000 5.0000 8.440 99.300 8.337           8.550 8.350 99.400 99.300 11.053 10.975 0.077
DSCMET_421 2018-01-04 21:10:00 117904 382.300 0.0000 0.0000 5.0000 401.200 0.0000 0.0000 5.0000 534.200 0.0000 0.0000 5.0000 8.520 99.300 8.416           8.570 8.470 99.400 99.300 11.113 11.035 0.078
DSCMET_421 2018-01-04 21:05:00 117903 377.400 0.0000 0.0000 5.0000 396.300 0.0000 0.0000 5.0000 539.000 0.0000 0.0000 5.0000 8.500 99.300 8.396           8.550 8.420 99.400 99.300 11.098 11.020 0.078
DSCMET_421 2018-01-04 21:00:00 117902 363.100 0.0000 0.0000 5.0000 389.200 0.0000 0.0000 5.0000 557.200 0.0000 0.0000 5.0000 8.570 99.300 8.466           8.750 8.480 99.400 99.300 11.151 11.073 0.078
DSCMET_421 2018-01-04 20:55:00 117901 342.100 0.0000 0.0000 5.0000 373.300 0.0000 0.0000 5.0000 547.700 0.0000 0.0000 5.0000 8.680 99.300 8.576           8.750 8.580 99.400 99.300 11.234 11.155 0.079
DSCMET_421 2018-01-04 20:50:00 117900 328.100 0.0000 0.0000 5.0000 365.000 0.0000 0.0000 5.0000 501.300 0.0000 0.0000 5.0000 8.620 99.300 8.516           8.880 8.470 99.300 99.200 11.188 11.110 0.078
DSCMET_421 2018-01-04 20:45:00 117899 323.100 0.0000 0.0000 5.0000 362.200 0.0000 0.0000 5.0000 498.700 0.0000 0.0000 5.0000 8.500 99.300 8.396           8.560 8.380 99.400 99.300 11.098 11.020 0.078
DSCMET_421 2018-01-04 20:40:00 117898 323.200 0.0000 0.0000 5.0000 361.900 0.0000 0.0000 5.0000 517.300 0.0000 0.0000 5.0000 8.590 99.300 8.486           8.780 8.450 99.400 99.300 11.166 11.088 0.078
DSCMET_421 2018-01-04 20:35:00 117897 317.500 0.0000 0.0000 5.0000 359.300 0.0000 0.0000 5.0000 538.000 0.0000 0.0000 5.0000 8.610 99.300 8.506           8.660 8.560 99.400 99.300 11.181 11.103 0.078
DSCMET_421 2018-01-04 20:30:00 117896 308.400 0.0000 0.0000 5.0000 353.300 0.0000 0.0000 5.0000 567.200 0.0000 0.0000 5.0000 8.690 99.300 8.586           8.750 8.610 99.400 99.300 11.242 11.163 0.079
DSCMET_421 2018-01-04 20:25:00 117895 307.200 0.0000 0.0000 5.0000 352.300 0.0000 0.0000 5.0000 568.000 0.0000 0.0000 5.0000 8.810 99.300 8.706           8.910 8.710 99.400 99.300 11.333 11.254 0.079
DSCMET_421 2018-01-04 20:20:00 117894 306.700 0.0000 0.0000 5.0000 352.000 0.0000 0.0000 5.0000 566.800 0.0000 0.0000 5.0000 8.730 99.300 8.626           8.810 8.680 99.400 99.300 11.272 11.193 0.079
DSCMET_421 2018-01-04 20:15:00 117893 306.200 0.0000 0.0000 5.0000 351.700 0.0000 0.0000 5.0000 564.300 0.0000 0.0000 5.0000 8.680 99.300 8.576           8.750 8.630 99.400 99.200 11.234 11.155 0.079
DSCMET_421 2018-01-04 20:10:00 117892 306.200 0.0000 0.0000 5.0000 351.700 0.0000 0.0000 5.0000 566.600 0.0000 0.0000 5.0000 8.780 99.300 8.676           8.900 8.680 99.400 99.300 11.310 11.231 0.079
DSCMET_421 2018-01-04 20:05:00 117891 305.800 0.0000 0.0000 5.0000 351.100 0.0000 0.0000 5.0000 568.400 0.0000 0.0000 5.0000 8.720 99.300 8.616           8.880 8.600 99.400 99.300 11.264 11.186 0.079
DSCMET_421 2018-01-04 20:00:00 117890 305.600 0.0000 0.0000 5.0000 350.200 0.0000 0.0000 5.0000 577.400 0.0000 0.0000 5.0000 8.770 99.300 8.666           8.850 8.730 99.400 99.300 11.303 11.224 0.079
DSCMET_421 2018-01-04 19:55:00 117889 302.700 0.0000 0.0000 5.0000 347.900 0.0000 0.0000 5.0000 566.700 0.0000 0.0000 5.0000 8.710 99.300 8.606           8.850 8.610 99.400 99.300 11.257 11.178 0.079
DSCMET_421 2018-01-04 19:50:00 117888 302.400 0.0000 0.0000 5.0000 346.900 0.0000 0.0000 5.0000 560.500 0.0000 0.0000 5.0000 8.930 99.300 8.826           9.010 8.850 99.300 99.300 11.426 11.346 0.080
DSCMET_421 2018-01-04 19:45:00 117887 302.200 0.0000 0.0000 5.0000 346.200 0.0000 0.0000 5.0000 556.300 0.0000 0.0000 5.0000 8.940 99.300 8.836           9.110 8.800 99.300 99.300 11.433 11.353 0.080
DSCMET_421 2018-01-04 19:40:00 117886 302.200 0.0000 0.0000 5.0000 345.700 0.0000 0.0000 5.0000 556.700 0.0000 0.0000 5.0000 8.790 99.300 8.686           8.900 8.730 99.400 99.300 11.318 11.239 0.079
DSCMET_421 2018-01-04 19:35:00 117885 302.000 0.0000 0.0000 5.0000 345.000 0.0000 0.0000 5.0000 557.700 0.0000 0.0000 5.0000 8.790 99.300 8.686           8.950 8.550 99.400 99.300 11.318 11.239 0.079
DSCMET_421 2018-01-04 19:30:00 117884 301.800 0.0000 0.0000 5.0000 344.600 0.0000 0.0000 5.0000 558.600 0.0000 0.0000 5.0000 8.710 99.300 8.606           8.980 8.580 99.400 99.300 11.257 11.178 0.079
DSCMET_421 2018-01-04 19:25:00 117883 301.800 0.0000 0.0000 5.0000 344.200 0.0000 0.0000 5.0000 560.200 0.0000 0.0000 5.0000 8.760 99.300 8.656           8.960 8.610 99.400 99.300 11.295 11.216 0.079
DSCMET_421 2018-01-04 19:20:00 117882 298.800 0.0000 0.0000 5.0000 342.400 0.0000 0.0000 5.0000 543.200 0.0000 0.0000 5.0000 8.970 99.300 8.866           9.030 8.910 99.400 99.300 11.457 11.376 0.080
DSCMET_421 2018-01-04 19:15:00 117881 295.200 0.0000 0.0000 5.0000 340.100 0.0000 0.0000 5.0000 525.300 0.0000 0.0000 5.0000 8.970 99.300 8.866           9.060 8.890 99.400 99.200 11.457 11.376 0.080
DSCMET_421 2018-01-04 19:10:00 117880 295.200 0.0000 0.0000 5.0000 339.800 0.0000 0.0000 5.0000 525.000 0.0000 0.0000 5.0000 8.990 99.300 8.886           9.060 8.940 99.400 99.200 11.472 11.392 0.080
DSCMET_421 2018-01-04 19:05:00 117879 294.900 0.0000 0.0000 5.0000 339.100 0.0000 0.0000 5.0000 523.200 0.0000 0.0000 5.0000 9.070 99.300 8.966           9.130 8.990 99.300 99.300 11.534 11.453 0.081
DSCMET_421 2018-01-04 19:00:00 117878 294.900 0.0000 0.0000 5.0000 338.600 0.0000 0.0000 5.0000 522.500 0.0000 0.0000 5.0000 9.070 99.300 8.966           9.130 9.010 99.300 99.300 11.534 11.453 0.081
DSCMET_421 2018-01-04 18:55:00 117877 294.900 0.0000 0.0000 5.0000 338.300 0.0000 0.0000 5.0000 521.900 0.0000 0.0000 5.0000 9.200 99.300 9.096           9.240 9.130 99.400 99.300 11.636 11.554 0.081
DSCMET_421 2018-01-04 18:50:00 117876 294.800 0.0000 0.0000 5.0000 337.900 0.0000 0.0000 5.0000 519.500 0.0000 0.0000 5.0000 9.230 99.300 9.126           9.310 9.160 99.400 99.300 11.659 11.578 0.082
DSCMET_421 2018-01-04 18:45:00 117875 294.200 0.0000 0.0000 5.0000 336.400 0.0000 0.0000 5.0000 515.700 0.0000 0.0000 5.0000 9.250 99.300 9.146           9.420 9.110 99.300 99.200 11.675 11.593 0.082
DSCMET_421 2018-01-04 18:40:00 117874 293.900 0.0000 0.0000 5.0000 336.000 0.0000 0.0000 5.0000 512.900 0.0000 0.0000 5.0000 9.260 99.300 9.156           9.410 9.190 99.300 99.300 11.683 11.601 0.082
DSCMET_421 2018-01-04 18:35:00 117873 293.800 0.0000 0.0000 5.0000 335.700 0.0000 0.0000 5.0000 511.300 0.0000 0.0000 5.0000 9.180 99.300 9.076           9.240 9.110 99.300 99.200 11.620 11.539 0.081
DSCMET_421 2018-01-04 18:30:00 117872 293.500 0.0000 0.0000 5.0000 335.200 0.0000 0.0000 5.0000 510.300 0.0000 0.0000 5.0000 9.240 99.300 9.136           9.390 9.070 99.300 99.300 11.667 11.586 0.082
DSCMET_421 2018-01-04 18:25:00 117871 291.800 0.0000 0.0000 5.0000 334.700 0.0000 0.0000 5.0000 494.300 0.0000 0.0000 5.0000 9.340 99.300 9.236           9.410 9.210 99.300 99.300 11.746 11.664 0.082
DSCMET_421 2018-01-04 18:20:00 117870 291.200 0.0000 0.0000 5.0000 334.700 0.0000 0.0000 5.0000 488.000 0.0000 0.0000 5.0000 9.370 99.300 9.266           9.460 9.290 99.300 99.300 11.770 11.688 0.082
DSCMET_421 2018-01-04 18:15:00 117869 291.000 0.0000 0.0000 5.0000 334.500 0.0000 0.0000 5.0000 485.900 0.0000 0.0000 5.0000 9.290 99.300 9.186           9.410 9.190 99.400 99.300 11.707 11.625 0.082
DSCMET_421 2018-01-04 18:10:00 117868 289.800 0.0000 0.0000 5.0000 331.100 0.0000 0.0000 5.0000 479.300 0.0000 0.0000 5.0000 9.340 99.300 9.236           9.420 9.270 99.300 99.300 11.746 11.664 0.082
DSCMET_421 2018-01-04 18:05:00 117867 288.700 0.0000 0.0000 5.0000 328.900 0.0000 0.0000 5.0000 465.500 0.0000 0.0000 5.0000 9.460 99.300 9.356           9.540 9.340 99.400 99.300 11.841 11.759 0.083
DSCMET_421 2018-01-04 18:00:00 117866 287.800 0.0000 0.0000 5.0000 327.800 0.0000 0.0000 5.0000 452.100 0.0000 0.0000 5.0000 9.500 99.300 9.396           9.570 9.440 99.400 99.300 11.873 11.790 0.083
DSCMET_421 2018-01-04 17:55:00 117865 286.900 0.0000 0.0000 5.0000 327.000 0.0000 0.0000 5.0000 448.000 0.0000 0.0000 5.0000 9.470 99.300 9.366           9.550 9.420 99.300 99.300 11.849 11.766 0.083
DSCMET_421 2018-01-04 17:50:00 117864 287.100 0.0000 0.0000 5.0000 327.000 0.0000 0.0000 5.0000 447.900 0.0000 0.0000 5.0000 9.500 99.300 9.396           9.550 9.420 99.300 99.300 11.873 11.790 0.083
DSCMET_421 2018-01-04 17:45:00 117863 287.200 0.0000 0.0000 5.0000 327.100 0.0000 0.0000 5.0000 447.800 0.0000 0.0000 5.0000 9.500 99.300 9.396           9.620 9.350 99.300 99.300 11.873 11.790 0.083
DSCMET_421 2018-01-04 17:40:00 117862 287.200 0.0000 0.0000 5.0000 327.300 0.0000 0.0000 5.0000 447.100 0.0000 0.0000 5.0000 9.560 99.300 9.456           9.670 9.450 99.400 99.300 11.921 11.838 0.083
DSCMET_421 2018-01-04 17:35:00 117861 287.000 0.0000 0.0000 5.0000 327.300 0.0000 0.0000 5.0000 442.800 0.0000 0.0000 5.0000 9.680 99.300 9.575           9.750 9.600 99.400 99.300 12.018 11.934 0.084
DSCMET_421 2018-01-04 17:30:00 117860 286.900 0.0000 0.0000 5.0000 327.000 0.0000 0.0000 5.0000 442.200 0.0000 0.0000 5.0000 9.640 99.300 9.536           9.670 9.590 99.300 99.300 11.986 11.902 0.084
DSCMET_421 2018-01-04 17:25:00 117859 286.900 0.0000 0.0000 5.0000 327.200 0.0000 0.0000 5.0000 441.900 0.0000 0.0000 5.0000 9.660 99.300 9.555           9.820 9.520 99.400 99.200 12.002 11.918 0.084
DSCMET_421 2018-01-04 17:20:00 117858 286.600 0.0000 0.0000 5.0000 327.100 0.0000 0.0000 5.0000 441.100 0.0000 0.0000 5.0000 9.690 99.300 9.585           9.870 9.580 99.400 99.300 12.026 11.942 0.084
DSCMET_421 2018-01-04 17:15:00 117857 286.500 0.0000 0.0000 5.0000 327.100 0.0000 0.0000 5.0000 440.700 0.0000 0.0000 5.0000 9.670 99.300 9.565           9.780 9.570 99.400 99.200 12.010 11.926 0.084
DSCMET_421 2018-01-04 17:10:00 117856 286.500 0.0000 0.0000 5.0000 327.300 0.0000 0.0000 5.0000 440.600 0.0000 0.0000 5.0000 9.800 99.300 9.695           9.930 9.600 99.300 99.300 12.115 12.030 0.085
DSCMET_421 2018-01-04 17:05:00 117855 286.500 0.0000 0.0000 5.0000 327.500 0.0000 0.0000 5.0000 440.500 0.0000 0.0000 5.0000 9.830 99.100 9.695           10.080 9.670 99.300 98.900 12.140 12.030 0.109
DSCMET_421 2018-01-04 17:00:00 117854 286.500 0.0000 0.0000 5.0000 327.400 0.0000 0.0000 5.0000 440.600 0.0000 0.0000 5.0000 9.980 99.200 9.860           10.150 9.850 99.300 99.000 12.262 12.164 0.098
DSCMET_421 2018-01-04 16:55:00 117853 286.400 0.0000 0.0000 5.0000 327.100 0.0000 0.0000 5.0000 440.400 0.0000 0.0000 5.0000 10.020 99.300 9.915           10.220 9.850 99.400 99.300 12.295 12.209 0.086
DSCMET_421 2018-01-04 16:50:00 117852 286.300 0.0000 0.0000 5.0000 326.500 0.0000 0.0000 5.0000 439.900 0.0000 0.0000 5.0000 9.980 99.300 9.875           10.080 9.870 99.300 99.300 12.262 12.176 0.086
DSCMET_421 2018-01-04 16:45:00 117851 286.400 0.0000 0.0000 5.0000 326.400 0.0000 0.0000 5.0000 439.500 0.0000 0.0000 5.0000 10.120 99.300 10.015           10.180 10.020 99.300 99.300 12.378 12.291 0.087
DSCMET_421 2018-01-04 16:40:00 117850 286.200 0.0000 0.0000 5.0000 326.400 0.0000 0.0000 5.0000 439.100 0.0000 0.0000 5.0000 10.030 99.300 9.925           10.100 9.920 99.400 99.300 12.303 12.217 0.086
DSCMET_421 2018-01-04 16:35:00 117849 286.200 0.0000 0.0000 5.0000 326.400 0.0000 0.0000 5.0000 439.300 0.0000 0.0000 5.0000 10.100 99.300 9.995           10.180 10.000 99.400 99.200 12.361 12.275 0.087
DSCMET_421 2018-01-04 16:30:00 117848 286.200 0.0000 0.0000 5.0000 326.600 0.0000 0.0000 5.0000 439.200 0.0000 0.0000 5.0000 10.230 99.200 10.110           10.330 10.130 99.300 99.100 12.469 12.369 0.100
DSCMET_421 2018-01-04 16:25:00 117847 286.200 0.0000 0.0000 5.0000 326.900 0.0000 0.0000 5.0000 439.100 0.0000 0.0000 5.0000 10.310 99.300 10.205           10.380 10.230 99.300 99.300 12.536 12.448 0.088
DSCMET_421 2018-01-04 16:20:00 117846 286.200 0.0000 0.0000 5.0000 326.700 0.0000 0.0000 5.0000 439.000 0.0000 0.0000 5.0000 10.210 98.900 10.045           10.400 10.120 99.300 98.600 12.453 12.316 0.137
DSCMET_421 2018-01-04 16:15:00 117845 286.200 0.0000 0.0000 5.0000 326.700 0.0000 0.0000 5.0000 438.900 0.0000 0.0000 5.0000 10.440 98.700 10.244           10.500 10.400 98.900 98.500 12.645 12.481 0.164
DSCMET_421 2018-01-04 16:10:00 117844 286.200 0.0000 0.0000 5.0000 327.000 0.0000 0.0000 5.0000 438.900 0.0000 0.0000 5.0000 10.380 98.900 10.215           10.460 10.250 99.100 98.700 12.595 12.456 0.139
DSCMET_421 2018-01-04 16:05:00 117843 286.300 0.0000 0.0000 5.0000 327.000 0.0000 0.0000 5.0000 438.900 0.0000 0.0000 5.0000 10.310 98.900 10.145           10.460 10.210 99.200 98.500 12.536 12.398 0.138
DSCMET_421 2018-01-04 16:00:00 117842 286.600 0.0000 0.0000 5.0000 327.200 0.0000 0.0000 5.0000 439.300 0.0000 0.0000 5.0000 10.500 98.500 10.274           10.710 10.310 99.000 98.000 12.696 12.506 0.190
DSCMET_421 2018-01-04 15:55:00 117841 286.800 0.0000 0.0000 5.0000 327.700 0.0000 0.0000 5.0000 439.700 0.0000 0.0000 5.0000 10.460 99.200 10.340           10.600 10.350 99.300 99.100 12.662 12.561 0.101
DSCMET_421 2018-01-04 15:50:00 117840 287.100 0.0000 0.0000 5.0000 328.100 0.0000 0.0000 5.0000 440.100 0.0000 0.0000 5.0000 10.390 98.700 10.194           10.550 10.260 99.200 98.300 12.603 12.439 0.164
DSCMET_421 2018-01-04 15:45:00 117839 287.300 0.0000 0.0000 5.0000 328.500 0.0000 0.0000 5.0000 440.600 0.0000 0.0000 5.0000 10.650 98.400 10.408           10.730 10.600 98.600 98.300 12.824 12.619 0.205
DSCMET_421 2018-01-04 15:40:00 117838 287.500 0.0000 0.0000 5.0000 328.700 0.0000 0.0000 5.0000 441.000 0.0000 0.0000 5.0000 10.610 98.300 10.353           10.660 10.500 98.600 98.200 12.790 12.572 0.217
DSCMET_421 2018-01-04 15:35:00 117837 287.900 0.0000 0.0000 5.0000 328.900 0.0000 0.0000 5.0000 441.800 0.0000 0.0000 5.0000 10.720 97.900 10.402           10.830 10.630 98.200 97.800 12.884 12.613 0.271
DSCMET_421 2018-01-04 15:30:00 117836 288.400 0.0000 0.0000 5.0000 329.500 0.0000 0.0000 5.0000 443.000 0.0000 0.0000 5.0000 10.760 97.900 10.442           10.810 10.700 98.200 97.800 12.918 12.647 0.271
DSCMET_421 2018-01-04 15:25:00 117835 289.000 0.0000 0.0000 5.0000 330.000 0.0000 0.0000 5.0000 444.600 0.0000 0.0000 5.0000 10.610 98.400 10.368           10.700 10.510 98.500 98.200 12.790 12.585 0.205
DSCMET_421 2018-01-04 15:20:00 117834 289.100 0.0000 0.0000 5.0000 330.400 0.0000 0.0000 5.0000 443.600 0.0000 0.0000 5.0000 10.630 97.800 10.297           10.780 10.550 98.400 96.900 12.807 12.525 0.282
DSCMET_421 2018-01-04 15:15:00 117833 288.600 0.0000 0.0000 5.0000 326.900 0.0000 0.0000 5.0000 425.400 0.0000 0.0000 5.0000 10.890 96.700 10.387           10.990 10.790 97.700 95.900 13.030 12.600 0.430
DSCMET_421 2018-01-04 15:10:00 117832 288.800 0.0000 0.0000 5.0000 326.800 0.0000 0.0000 5.0000 424.000 0.0000 0.0000 5.0000 10.820 97.700 10.471           10.890 10.760 97.900 97.500 12.970 12.672 0.298
DSCMET_421 2018-01-04 15:05:00 117831 289.200 0.0000 0.0000 5.0000 327.000 0.0000 0.0000 5.0000 424.400 0.0000 0.0000 5.0000 10.890 97.100 10.448           11.080 10.780 97.700 96.400 13.030 12.653 0.378
DSCMET_421 2018-01-04 15:00:00 117830 289.600 0.0000 0.0000 5.0000 327.400 0.0000 0.0000 5.0000 424.800 0.0000 0.0000 5.0000 10.960 97.100 10.518           11.010 10.910 97.400 96.800 13.091 12.712 0.380
DSCMET_421 2018-01-04 14:55:00 117829 290.100 0.0000 0.0000 5.0000 327.900 0.0000 0.0000 5.0000 425.300 0.0000 0.0000 5.0000 10.920 97.000 10.463           11.080 10.860 97.400 96.300 13.056 12.665 0.392
DSCMET_421 2018-01-04 14:50:00 117828 290.800 0.0000 0.0000 5.0000 328.600 0.0000 0.0000 5.0000 426.000 0.0000 0.0000 5.0000 11.030 96.300 10.464           11.130 10.940 96.900 95.900 13.152 12.666 0.487
DSCMET_421 2018-01-04 14:45:00 117827 291.600 0.0000 0.0000 5.0000 329.500 0.0000 0.0000 5.0000 426.400 0.0000 0.0000 5.0000 10.850 97.200 10.424           10.930 10.740 97.800 96.600 12.996 12.632 0.364
DSCMET_421 2018-01-04 14:40:00 117826 292.200 0.0000 0.0000 5.0000 330.500 0.0000 0.0000 5.0000 425.800 0.0000 0.0000 5.0000 11.070 96.400 10.519           11.130 10.910 96.500 96.100 13.187 12.713 0.475
DSCMET_421 2018-01-04 14:35:00 117825 293.000 0.0000 0.0000 5.0000 331.200 0.0000 0.0000 5.0000 422.500 0.0000 0.0000 5.0000 10.970 97.000 10.513           11.110 10.810 97.200 96.600 13.100 12.707 0.393